<?xml version='1.0' encoding='UTF-8'?><gpx version="1.1" creator="JPX - https://github.com/jenetics/jpx" xmlns="http://www.topografix.com/GPX/1/1"><trk><trkseg><trkpt lat="51.4178856" lon="-0.0874387"><ele>87.0</ele><time>2026-04-14T06:38:22.082Z</time></trkpt><trkpt lat="51.4178189" lon="-0.0874931"><ele>87.0</ele><time>2026-04-14T06:38:25.18Z</time></trkpt><trkpt lat="51.4177603" lon="-0.0875412"><ele>87.0</ele><time>2026-04-14T06:38:27.243Z</time></trkpt><trkpt lat="51.4176843" lon="-0.0875728"><ele>87.0</ele><time>2026-04-14T06:38:29.16Z</time></trkpt><trkpt lat="51.4182751" lon="-0.0875653"><ele>88.5</ele><time>2026-04-14T06:38:30.175Z</time></trkpt><trkpt lat="51.418393" lon="-0.0876026"><ele>90.0</ele><time>2026-04-14T06:38:31.174Z</time></trkpt><trkpt lat="51.4184888" lon="-0.0876595"><ele>91.5</ele><time>2026-04-14T06:38:33.175Z</time></trkpt><trkpt lat="51.4185859" lon="-0.0877492"><ele>93.0</ele><time>2026-04-14T06:38:38.238Z</time></trkpt><trkpt lat="51.418713" lon="-0.0878365"><ele>93.0</ele><time>2026-04-14T06:38:42.174Z</time></trkpt><trkpt lat="51.41877" lon="-0.0878859"><ele>93.0</ele><time>2026-04-14T06:38:43.175Z</time></trkpt><trkpt lat="51.4188419" lon="-0.0879393"><ele>93.0</ele><time>2026-04-14T06:38:44.175Z</time></trkpt><trkpt lat="51.4189242" lon="-0.0879706"><ele>93.0</ele><time>2026-04-14T06:38:45.174Z</time></trkpt><trkpt lat="51.4190255" lon="-0.0879417"><ele>93.0</ele><time>2026-04-14T06:38:46.175Z</time></trkpt><trkpt lat="51.4191237" lon="-0.0878746"><ele>93.0</ele><time>2026-04-14T06:38:47.174Z</time></trkpt><trkpt lat="51.4192093" lon="-0.0877945"><ele>94.0</ele><time>2026-04-14T06:38:48.174Z</time></trkpt><trkpt lat="51.4192945" lon="-0.0876925"><ele>95.0</ele><time>2026-04-14T06:38:50.174Z</time></trkpt><trkpt lat="51.4193488" lon="-0.0876366"><ele>96.0</ele><time>2026-04-14T06:38:52.174Z</time></trkpt><trkpt lat="51.4194176" lon="-0.0875633"><ele>97.0</ele><time>2026-04-14T06:39:05.174Z</time></trkpt><trkpt lat="51.419483" lon="-0.0874928"><ele>98.0</ele><time>2026-04-14T06:39:09.176Z</time></trkpt><trkpt lat="51.4195562" lon="-0.0874233"><ele>99.0</ele><time>2026-04-14T06:39:13.176Z</time></trkpt><trkpt lat="51.419637" lon="-0.087451"><ele>98.4</ele><time>2026-04-14T06:39:18.175Z</time></trkpt><trkpt lat="51.419699" lon="-0.0876086"><ele>97.80000000000001</ele><time>2026-04-14T06:39:20.176Z</time></trkpt><trkpt lat="51.419767" lon="-0.0877783"><ele>97.19999999999999</ele><time>2026-04-14T06:39:22.176Z</time></trkpt><trkpt lat="51.4198054" lon="-0.0878731"><ele>96.6</ele><time>2026-04-14T06:39:23.175Z</time></trkpt><trkpt lat="51.4198455" lon="-0.0879738"><ele>96.0</ele><time>2026-04-14T06:39:24.175Z</time></trkpt><trkpt lat="51.4198851" lon="-0.0880757"><ele>95.99999999999999</ele><time>2026-04-14T06:39:25.176Z</time></trkpt><trkpt lat="51.4199241" lon="-0.0881664"><ele>96.0</ele><time>2026-04-14T06:39:26.176Z</time></trkpt><trkpt lat="51.4199697" lon="-0.0882626"><ele>96.0</ele><time>2026-04-14T06:39:27.176Z</time></trkpt><trkpt lat="51.4200223" lon="-0.0883651"><ele>96.0</ele><time>2026-04-14T06:39:28.175Z</time></trkpt><trkpt lat="51.4200736" lon="-0.088452"><ele>96.0</ele><time>2026-04-14T06:39:29.176Z</time></trkpt><trkpt lat="51.4201197" lon="-0.088526"><ele>95.99999999999999</ele><time>2026-04-14T06:39:30.176Z</time></trkpt><trkpt lat="51.4201672" lon="-0.0885949"><ele>96.0</ele><time>2026-04-14T06:39:31.176Z</time></trkpt><trkpt lat="51.4202178" lon="-0.0886636"><ele>96.0</ele><time>2026-04-14T06:39:32.175Z</time></trkpt><trkpt lat="51.4203075" lon="-0.0887793"><ele>96.0</ele><time>2026-04-14T06:39:34.176Z</time></trkpt><trkpt lat="51.4203933" lon="-0.0888812"><ele>96.0</ele><time>2026-04-14T06:39:36.176Z</time></trkpt><trkpt lat="51.420493" lon="-0.0889883"><ele>96.0</ele><time>2026-04-14T06:39:38.176Z</time></trkpt><trkpt lat="51.4205999" lon="-0.0891019"><ele>96.42857142857142</ele><time>2026-04-14T06:39:40.176Z</time></trkpt><trkpt lat="51.4206587" lon="-0.0891751"><ele>96.85714285714286</ele><time>2026-04-14T06:39:41.176Z</time></trkpt><trkpt lat="51.4207154" lon="-0.089254"><ele>97.28571428571428</ele><time>2026-04-14T06:39:42.176Z</time></trkpt><trkpt lat="51.4207685" lon="-0.0893332"><ele>97.71428571428571</ele><time>2026-04-14T06:39:43.176Z</time></trkpt><trkpt lat="51.4208233" lon="-0.0894179"><ele>98.14285714285714</ele><time>2026-04-14T06:39:44.175Z</time></trkpt><trkpt lat="51.4208786" lon="-0.0895051"><ele>98.57142857142857</ele><time>2026-04-14T06:39:45.176Z</time></trkpt><trkpt lat="51.4209302" lon="-0.0895897"><ele>99.0</ele><time>2026-04-14T06:39:46.176Z</time></trkpt><trkpt lat="51.4209799" lon="-0.0896741"><ele>99.0</ele><time>2026-04-14T06:39:47.176Z</time></trkpt><trkpt lat="51.4210318" lon="-0.0897643"><ele>99.0</ele><time>2026-04-14T06:39:48.176Z</time></trkpt><trkpt lat="51.4210838" lon="-0.0898631"><ele>99.0</ele><time>2026-04-14T06:39:49.176Z</time></trkpt><trkpt lat="51.4211338" lon="-0.0899635"><ele>99.0</ele><time>2026-04-14T06:39:50.175Z</time></trkpt><trkpt lat="51.4211801" lon="-0.0900652"><ele>99.0</ele><time>2026-04-14T06:39:51.175Z</time></trkpt><trkpt lat="51.4212214" lon="-0.0901756"><ele>99.0</ele><time>2026-04-14T06:39:52.176Z</time></trkpt><trkpt lat="51.4212616" lon="-0.0902983"><ele>99.0</ele><time>2026-04-14T06:39:53.176Z</time></trkpt><trkpt lat="51.4213076" lon="-0.0904353"><ele>99.0</ele><time>2026-04-14T06:39:54.176Z</time></trkpt><trkpt lat="51.4213591" lon="-0.0905861"><ele>99.0</ele><time>2026-04-14T06:39:55.176Z</time></trkpt><trkpt lat="51.4214134" lon="-0.0907389"><ele>99.0</ele><time>2026-04-14T06:39:56.176Z</time></trkpt><trkpt lat="51.4214677" lon="-0.0908829"><ele>99.0</ele><time>2026-04-14T06:39:57.175Z</time></trkpt><trkpt lat="51.4215226" lon="-0.0910225"><ele>98.6</ele><time>2026-04-14T06:39:58.176Z</time></trkpt><trkpt lat="51.4215838" lon="-0.0911581"><ele>98.2</ele><time>2026-04-14T06:39:59.176Z</time></trkpt><trkpt lat="51.4216475" lon="-0.0912827"><ele>97.8</ele><time>2026-04-14T06:40:00.176Z</time></trkpt><trkpt lat="51.4217096" lon="-0.0914003"><ele>97.39999999999999</ele><time>2026-04-14T06:40:01.175Z</time></trkpt><trkpt lat="51.4217726" lon="-0.0915107"><ele>97.0</ele><time>2026-04-14T06:40:02.176Z</time></trkpt><trkpt lat="51.4218355" lon="-0.0916143"><ele>96.16666666666667</ele><time>2026-04-14T06:40:03.176Z</time></trkpt><trkpt lat="51.421899" lon="-0.0917092"><ele>95.33333333333334</ele><time>2026-04-14T06:40:04.175Z</time></trkpt><trkpt lat="51.4219637" lon="-0.0917997"><ele>94.5</ele><time>2026-04-14T06:40:05.176Z</time></trkpt><trkpt lat="51.4220342" lon="-0.0918888"><ele>93.66666666666667</ele><time>2026-04-14T06:40:06.175Z</time></trkpt><trkpt lat="51.4221054" lon="-0.0919795"><ele>92.83333333333334</ele><time>2026-04-14T06:40:07.176Z</time></trkpt><trkpt lat="51.4221749" lon="-0.0920656"><ele>92.0</ele><time>2026-04-14T06:40:08.175Z</time></trkpt><trkpt lat="51.4222383" lon="-0.0921446"><ele>91.83333333333334</ele><time>2026-04-14T06:40:09.175Z</time></trkpt><trkpt lat="51.4222973" lon="-0.0922192"><ele>91.66666666666667</ele><time>2026-04-14T06:40:10.176Z</time></trkpt><trkpt lat="51.4223527" lon="-0.0922983"><ele>91.5</ele><time>2026-04-14T06:40:11.175Z</time></trkpt><trkpt lat="51.4223997" lon="-0.0923776"><ele>91.33333333333333</ele><time>2026-04-14T06:40:12.175Z</time></trkpt><trkpt lat="51.4224708" lon="-0.0925131"><ele>91.16666666666666</ele><time>2026-04-14T06:40:14.175Z</time></trkpt><trkpt lat="51.4225259" lon="-0.0926459"><ele>91.0</ele><time>2026-04-14T06:40:16.176Z</time></trkpt><trkpt lat="51.4225813" lon="-0.0928258"><ele>90.5</ele><time>2026-04-14T06:40:18.176Z</time></trkpt><trkpt lat="51.4226084" lon="-0.0929236"><ele>90.0</ele><time>2026-04-14T06:40:19.176Z</time></trkpt><trkpt lat="51.4226324" lon="-0.0930195"><ele>89.5</ele><time>2026-04-14T06:40:20.176Z</time></trkpt><trkpt lat="51.4226746" lon="-0.0931996"><ele>89.0</ele><time>2026-04-14T06:40:22.175Z</time></trkpt><trkpt lat="51.4227112" lon="-0.0933777"><ele>88.5</ele><time>2026-04-14T06:40:24.176Z</time></trkpt><trkpt lat="51.4227283" lon="-0.0934753"><ele>88.0</ele><time>2026-04-14T06:40:25.175Z</time></trkpt><trkpt lat="51.4227548" lon="-0.0936716"><ele>87.66666666666666</ele><time>2026-04-14T06:40:27.175Z</time></trkpt><trkpt lat="51.4227743" lon="-0.0938686"><ele>87.33333333333333</ele><time>2026-04-14T06:40:29.176Z</time></trkpt><trkpt lat="51.4227791" lon="-0.0939823"><ele>87.0</ele><time>2026-04-14T06:40:30.176Z</time></trkpt><trkpt lat="51.4227808" lon="-0.0941018"><ele>86.66666666666667</ele><time>2026-04-14T06:40:31.176Z</time></trkpt><trkpt lat="51.4227841" lon="-0.0942329"><ele>86.33333333333334</ele><time>2026-04-14T06:40:32.176Z</time></trkpt><trkpt lat="51.4227862" lon="-0.094374"><ele>86.0</ele><time>2026-04-14T06:40:33.177Z</time></trkpt><trkpt lat="51.4227898" lon="-0.0945239"><ele>85.25</ele><time>2026-04-14T06:40:34.176Z</time></trkpt><trkpt lat="51.4228043" lon="-0.0948355"><ele>84.5</ele><time>2026-04-14T06:40:36.177Z</time></trkpt><trkpt lat="51.4228087" lon="-0.0949857"><ele>83.75</ele><time>2026-04-14T06:40:37.177Z</time></trkpt><trkpt lat="51.422807" lon="-0.0951344"><ele>83.0</ele><time>2026-04-14T06:40:38.176Z</time></trkpt><trkpt lat="51.4228026" lon="-0.0952838"><ele>82.33333333333334</ele><time>2026-04-14T06:40:39.177Z</time></trkpt><trkpt lat="51.4227991" lon="-0.0954313"><ele>81.66666666666667</ele><time>2026-04-14T06:40:40.177Z</time></trkpt><trkpt lat="51.4227916" lon="-0.0955702"><ele>81.0</ele><time>2026-04-14T06:40:41.177Z</time></trkpt><trkpt lat="51.4227843" lon="-0.095705"><ele>80.33333333333333</ele><time>2026-04-14T06:40:42.176Z</time></trkpt><trkpt lat="51.4227786" lon="-0.0958368"><ele>79.66666666666666</ele><time>2026-04-14T06:40:43.177Z</time></trkpt><trkpt lat="51.4227673" lon="-0.0959689"><ele>79.0</ele><time>2026-04-14T06:40:44.177Z</time></trkpt><trkpt lat="51.4227576" lon="-0.0960992"><ele>78.16666666666666</ele><time>2026-04-14T06:40:45.177Z</time></trkpt><trkpt lat="51.4227435" lon="-0.0962291"><ele>77.33333333333333</ele><time>2026-04-14T06:40:46.177Z</time></trkpt><trkpt lat="51.4227238" lon="-0.0963525"><ele>76.5</ele><time>2026-04-14T06:40:47.176Z</time></trkpt><trkpt lat="51.4227039" lon="-0.0964781"><ele>75.66666666666667</ele><time>2026-04-14T06:40:48.176Z</time></trkpt><trkpt lat="51.4226815" lon="-0.096608"><ele>74.83333333333334</ele><time>2026-04-14T06:40:49.176Z</time></trkpt><trkpt lat="51.4226634" lon="-0.0967443"><ele>74.0</ele><time>2026-04-14T06:40:50.177Z</time></trkpt><trkpt lat="51.422647" lon="-0.0968747"><ele>72.83333333333334</ele><time>2026-04-14T06:40:51.177Z</time></trkpt><trkpt lat="51.4226301" lon="-0.0970093"><ele>71.66666666666667</ele><time>2026-04-14T06:40:52.176Z</time></trkpt><trkpt lat="51.4226212" lon="-0.097144"><ele>70.5</ele><time>2026-04-14T06:40:53.177Z</time></trkpt><trkpt lat="51.4226097" lon="-0.0972744"><ele>69.33333333333333</ele><time>2026-04-14T06:40:54.177Z</time></trkpt><trkpt lat="51.4225996" lon="-0.0974203"><ele>68.16666666666666</ele><time>2026-04-14T06:40:55.176Z</time></trkpt><trkpt lat="51.4225961" lon="-0.0975754"><ele>67.0</ele><time>2026-04-14T06:40:56.177Z</time></trkpt><trkpt lat="51.4225924" lon="-0.0977257"><ele>67.0</ele><time>2026-04-14T06:40:57.177Z</time></trkpt><trkpt lat="51.4225891" lon="-0.0978787"><ele>67.0</ele><time>2026-04-14T06:40:58.177Z</time></trkpt><trkpt lat="51.422588" lon="-0.0980194"><ele>67.0</ele><time>2026-04-14T06:40:59.177Z</time></trkpt><trkpt lat="51.4225881" lon="-0.0981554"><ele>67.0</ele><time>2026-04-14T06:41:00.177Z</time></trkpt><trkpt lat="51.4225821" lon="-0.0982928"><ele>67.0</ele><time>2026-04-14T06:41:01.176Z</time></trkpt><trkpt lat="51.4225737" lon="-0.0984333"><ele>67.0</ele><time>2026-04-14T06:41:02.177Z</time></trkpt><trkpt lat="51.4225693" lon="-0.0985624"><ele>66.83333333333333</ele><time>2026-04-14T06:41:03.176Z</time></trkpt><trkpt lat="51.4225687" lon="-0.0986824"><ele>66.66666666666666</ele><time>2026-04-14T06:41:04.176Z</time></trkpt><trkpt lat="51.4225676" lon="-0.0988003"><ele>66.5</ele><time>2026-04-14T06:41:05.177Z</time></trkpt><trkpt lat="51.4225661" lon="-0.0989216"><ele>66.33333333333333</ele><time>2026-04-14T06:41:06.177Z</time></trkpt><trkpt lat="51.4225682" lon="-0.0990478"><ele>66.16666666666667</ele><time>2026-04-14T06:41:07.176Z</time></trkpt><trkpt lat="51.4225743" lon="-0.0991834"><ele>66.0</ele><time>2026-04-14T06:41:08.176Z</time></trkpt><trkpt lat="51.422578" lon="-0.0993221"><ele>66.0</ele><time>2026-04-14T06:41:09.177Z</time></trkpt><trkpt lat="51.4225799" lon="-0.0994745"><ele>66.0</ele><time>2026-04-14T06:41:10.176Z</time></trkpt><trkpt lat="51.4225823" lon="-0.0996283"><ele>66.0</ele><time>2026-04-14T06:41:11.176Z</time></trkpt><trkpt lat="51.4225815" lon="-0.0997692"><ele>66.0</ele><time>2026-04-14T06:41:12.177Z</time></trkpt><trkpt lat="51.4225774" lon="-0.0999"><ele>66.0</ele><time>2026-04-14T06:41:13.177Z</time></trkpt><trkpt lat="51.4225778" lon="-0.1000308"><ele>66.0</ele><time>2026-04-14T06:41:14.176Z</time></trkpt><trkpt lat="51.4225807" lon="-0.1001587"><ele>66.33333333333333</ele><time>2026-04-14T06:41:15.177Z</time></trkpt><trkpt lat="51.4225866" lon="-0.1002943"><ele>66.66666666666667</ele><time>2026-04-14T06:41:16.177Z</time></trkpt><trkpt lat="51.4225902" lon="-0.1004235"><ele>67.0</ele><time>2026-04-14T06:41:17.177Z</time></trkpt><trkpt lat="51.4225953" lon="-0.1005452"><ele>67.33333333333334</ele><time>2026-04-14T06:41:18.177Z</time></trkpt><trkpt lat="51.4225977" lon="-0.1006668"><ele>67.66666666666667</ele><time>2026-04-14T06:41:19.176Z</time></trkpt><trkpt lat="51.4226" lon="-0.1007972"><ele>68.0</ele><time>2026-04-14T06:41:20.176Z</time></trkpt><trkpt lat="51.4226032" lon="-0.1009296"><ele>68.66666666666667</ele><time>2026-04-14T06:41:21.177Z</time></trkpt><trkpt lat="51.4226065" lon="-0.1010665"><ele>69.33333333333334</ele><time>2026-04-14T06:41:22.177Z</time></trkpt><trkpt lat="51.4226098" lon="-0.1011915"><ele>70.0</ele><time>2026-04-14T06:41:23.177Z</time></trkpt><trkpt lat="51.4226121" lon="-0.101298"><ele>70.66666666666667</ele><time>2026-04-14T06:41:24.177Z</time></trkpt><trkpt lat="51.4226108" lon="-0.1014031"><ele>71.33333333333333</ele><time>2026-04-14T06:41:25.176Z</time></trkpt><trkpt lat="51.422611" lon="-0.1015138"><ele>72.0</ele><time>2026-04-14T06:41:26.176Z</time></trkpt><trkpt lat="51.4226128" lon="-0.1016762"><ele>72.6</ele><time>2026-04-14T06:41:28.177Z</time></trkpt><trkpt lat="51.4226093" lon="-0.1017895"><ele>73.2</ele><time>2026-04-14T06:41:30.176Z</time></trkpt><trkpt lat="51.4226198" lon="-0.1019168"><ele>73.8</ele><time>2026-04-14T06:41:33.176Z</time></trkpt><trkpt lat="51.4226222" lon="-0.1020566"><ele>74.4</ele><time>2026-04-14T06:41:36.176Z</time></trkpt><trkpt lat="51.4226335" lon="-0.1022829"><ele>75.0</ele><time>2026-04-14T06:41:38.176Z</time></trkpt><trkpt lat="51.422641" lon="-0.1024078"><ele>75.5</ele><time>2026-04-14T06:41:39.177Z</time></trkpt><trkpt lat="51.4226431" lon="-0.1025199"><ele>76.0</ele><time>2026-04-14T06:41:40.177Z</time></trkpt><trkpt lat="51.4226447" lon="-0.1026454"><ele>76.5</ele><time>2026-04-14T06:41:41.176Z</time></trkpt><trkpt lat="51.4226462" lon="-0.1027867"><ele>77.0</ele><time>2026-04-14T06:41:42.176Z</time></trkpt><trkpt lat="51.4226477" lon="-0.1029427"><ele>77.5</ele><time>2026-04-14T06:41:43.177Z</time></trkpt><trkpt lat="51.4226474" lon="-0.1031193"><ele>78.0</ele><time>2026-04-14T06:41:44.177Z</time></trkpt><trkpt lat="51.4226486" lon="-0.1033056"><ele>78.8</ele><time>2026-04-14T06:41:45.177Z</time></trkpt><trkpt lat="51.4226524" lon="-0.1034842"><ele>79.6</ele><time>2026-04-14T06:41:46.177Z</time></trkpt><trkpt lat="51.4226559" lon="-0.1036442"><ele>80.39999999999999</ele><time>2026-04-14T06:41:47.176Z</time></trkpt><trkpt lat="51.4226595" lon="-0.1037886"><ele>81.19999999999999</ele><time>2026-04-14T06:41:48.177Z</time></trkpt><trkpt lat="51.4226663" lon="-0.1039294"><ele>82.0</ele><time>2026-04-14T06:41:49.177Z</time></trkpt><trkpt lat="51.4226713" lon="-0.1040775"><ele>82.66666666666666</ele><time>2026-04-14T06:41:50.177Z</time></trkpt><trkpt lat="51.4226783" lon="-0.1042273"><ele>83.33333333333333</ele><time>2026-04-14T06:41:51.177Z</time></trkpt><trkpt lat="51.4226763" lon="-0.1043619"><ele>84.0</ele><time>2026-04-14T06:41:52.176Z</time></trkpt><trkpt lat="51.4226711" lon="-0.1044948"><ele>84.66666666666667</ele><time>2026-04-14T06:41:53.177Z</time></trkpt><trkpt lat="51.4226634" lon="-0.104628"><ele>85.33333333333334</ele><time>2026-04-14T06:41:54.177Z</time></trkpt><trkpt lat="51.4226568" lon="-0.104771"><ele>86.0</ele><time>2026-04-14T06:41:55.176Z</time></trkpt><trkpt lat="51.4226468" lon="-0.1048954"><ele>87.0</ele><time>2026-04-14T06:41:56.178Z</time></trkpt><trkpt lat="51.4226426" lon="-0.1050246"><ele>88.0</ele><time>2026-04-14T06:41:57.178Z</time></trkpt><trkpt lat="51.4226328" lon="-0.1051401"><ele>89.0</ele><time>2026-04-14T06:41:58.178Z</time></trkpt><trkpt lat="51.422601" lon="-0.1053216"><ele>90.0</ele><time>2026-04-14T06:42:00.177Z</time></trkpt><trkpt lat="51.4225822" lon="-0.1054699"><ele>91.0</ele><time>2026-04-14T06:42:02.177Z</time></trkpt><trkpt lat="51.4225725" lon="-0.1055906"><ele>92.0</ele><time>2026-04-14T06:42:28.178Z</time></trkpt><trkpt lat="51.4225811" lon="-0.1057389"><ele>92.25</ele><time>2026-04-14T06:42:29.178Z</time></trkpt><trkpt lat="51.4225896" lon="-0.1059268"><ele>92.5</ele><time>2026-04-14T06:42:30.177Z</time></trkpt><trkpt lat="51.422603" lon="-0.1061326"><ele>92.75</ele><time>2026-04-14T06:42:31.178Z</time></trkpt><trkpt lat="51.4226146" lon="-0.1063361"><ele>93.0</ele><time>2026-04-14T06:42:32.177Z</time></trkpt><trkpt lat="51.4226299" lon="-0.106523"><ele>93.0</ele><time>2026-04-14T06:42:33.177Z</time></trkpt><trkpt lat="51.4226459" lon="-0.1067034"><ele>93.0</ele><time>2026-04-14T06:42:34.178Z</time></trkpt><trkpt lat="51.4226713" lon="-0.1068806"><ele>93.0</ele><time>2026-04-14T06:42:35.178Z</time></trkpt><trkpt lat="51.4227024" lon="-0.1070603"><ele>93.0</ele><time>2026-04-14T06:42:36.177Z</time></trkpt><trkpt lat="51.4227362" lon="-0.1072448"><ele>93.25</ele><time>2026-04-14T06:42:37.178Z</time></trkpt><trkpt lat="51.4227702" lon="-0.1074252"><ele>93.5</ele><time>2026-04-14T06:42:38.178Z</time></trkpt><trkpt lat="51.4228047" lon="-0.107607"><ele>93.75</ele><time>2026-04-14T06:42:39.178Z</time></trkpt><trkpt lat="51.422839" lon="-0.1077815"><ele>94.0</ele><time>2026-04-14T06:42:40.178Z</time></trkpt><trkpt lat="51.422873" lon="-0.1079529"><ele>94.0</ele><time>2026-04-14T06:42:41.178Z</time></trkpt><trkpt lat="51.4229085" lon="-0.108129"><ele>94.0</ele><time>2026-04-14T06:42:42.178Z</time></trkpt><trkpt lat="51.4229457" lon="-0.108304"><ele>94.0</ele><time>2026-04-14T06:42:43.177Z</time></trkpt><trkpt lat="51.4229872" lon="-0.1084848"><ele>94.0</ele><time>2026-04-14T06:42:44.177Z</time></trkpt><trkpt lat="51.42303" lon="-0.1086708"><ele>94.0</ele><time>2026-04-14T06:42:45.177Z</time></trkpt><trkpt lat="51.4230715" lon="-0.1088537"><ele>94.0</ele><time>2026-04-14T06:42:46.178Z</time></trkpt><trkpt lat="51.4231162" lon="-0.1090379"><ele>94.0</ele><time>2026-04-14T06:42:47.178Z</time></trkpt><trkpt lat="51.4231541" lon="-0.1092209"><ele>94.0</ele><time>2026-04-14T06:42:48.177Z</time></trkpt><trkpt lat="51.4231767" lon="-0.1094096"><ele>93.75</ele><time>2026-04-14T06:42:49.178Z</time></trkpt><trkpt lat="51.4231818" lon="-0.1096013"><ele>93.5</ele><time>2026-04-14T06:42:50.178Z</time></trkpt><trkpt lat="51.4231721" lon="-0.1097954"><ele>93.25</ele><time>2026-04-14T06:42:51.178Z</time></trkpt><trkpt lat="51.4231557" lon="-0.1099916"><ele>93.0</ele><time>2026-04-14T06:42:52.178Z</time></trkpt><trkpt lat="51.4231409" lon="-0.1101863"><ele>93.0</ele><time>2026-04-14T06:42:53.178Z</time></trkpt><trkpt lat="51.4231296" lon="-0.1103829"><ele>93.0</ele><time>2026-04-14T06:42:54.178Z</time></trkpt><trkpt lat="51.4231234" lon="-0.1105778"><ele>93.0</ele><time>2026-04-14T06:42:55.178Z</time></trkpt><trkpt lat="51.4231217" lon="-0.1107762"><ele>93.0</ele><time>2026-04-14T06:42:56.178Z</time></trkpt><trkpt lat="51.4231243" lon="-0.1109746"><ele>93.25</ele><time>2026-04-14T06:42:57.178Z</time></trkpt><trkpt lat="51.4231316" lon="-0.1111749"><ele>93.5</ele><time>2026-04-14T06:42:58.178Z</time></trkpt><trkpt lat="51.4231467" lon="-0.1113808"><ele>93.75</ele><time>2026-04-14T06:42:59.178Z</time></trkpt><trkpt lat="51.4231585" lon="-0.1115814"><ele>94.0</ele><time>2026-04-14T06:43:00.177Z</time></trkpt><trkpt lat="51.4231723" lon="-0.1117854"><ele>94.0</ele><time>2026-04-14T06:43:01.177Z</time></trkpt><trkpt lat="51.423185" lon="-0.1119856"><ele>94.0</ele><time>2026-04-14T06:43:02.178Z</time></trkpt><trkpt lat="51.4231964" lon="-0.1121927"><ele>94.0</ele><time>2026-04-14T06:43:03.178Z</time></trkpt><trkpt lat="51.4232085" lon="-0.1123941"><ele>94.0</ele><time>2026-04-14T06:43:04.178Z</time></trkpt><trkpt lat="51.4232118" lon="-0.1125919"><ele>94.0</ele><time>2026-04-14T06:43:05.177Z</time></trkpt><trkpt lat="51.4232195" lon="-0.1127934"><ele>94.0</ele><time>2026-04-14T06:43:06.178Z</time></trkpt><trkpt lat="51.4232347" lon="-0.1129945"><ele>94.0</ele><time>2026-04-14T06:43:07.177Z</time></trkpt><trkpt lat="51.4232549" lon="-0.1131882"><ele>94.0</ele><time>2026-04-14T06:43:08.178Z</time></trkpt><trkpt lat="51.4233081" lon="-0.1135231"><ele>93.5</ele><time>2026-04-14T06:43:10.177Z</time></trkpt><trkpt lat="51.4233351" lon="-0.11366"><ele>93.0</ele><time>2026-04-14T06:43:11.177Z</time></trkpt><trkpt lat="51.4233566" lon="-0.1137794"><ele>92.5</ele><time>2026-04-14T06:43:12.177Z</time></trkpt><trkpt lat="51.4233742" lon="-0.1138825"><ele>92.0</ele><time>2026-04-14T06:43:13.177Z</time></trkpt><trkpt lat="51.4234032" lon="-0.1140408"><ele>91.5</ele><time>2026-04-14T06:43:15.178Z</time></trkpt><trkpt lat="51.4234215" lon="-0.1141403"><ele>91.0</ele><time>2026-04-14T06:43:17.178Z</time></trkpt><trkpt lat="51.4234407" lon="-0.1142664"><ele>91.0</ele><time>2026-04-14T06:44:03.179Z</time></trkpt><trkpt lat="51.423463" lon="-0.1143645"><ele>91.0</ele><time>2026-04-14T06:44:04.179Z</time></trkpt><trkpt lat="51.4234925" lon="-0.1144693"><ele>91.0</ele><time>2026-04-14T06:44:05.179Z</time></trkpt><trkpt lat="51.4235332" lon="-0.1145544"><ele>91.0</ele><time>2026-04-14T06:44:06.179Z</time></trkpt><trkpt lat="51.4235963" lon="-0.1145816"><ele>91.0</ele><time>2026-04-14T06:44:07.179Z</time></trkpt><trkpt lat="51.4236735" lon="-0.1145806"><ele>91.0</ele><time>2026-04-14T06:44:08.178Z</time></trkpt><trkpt lat="51.4237459" lon="-0.1145469"><ele>91.0</ele><time>2026-04-14T06:44:09.178Z</time></trkpt><trkpt lat="51.4238453" lon="-0.1144659"><ele>91.0</ele><time>2026-04-14T06:44:10.178Z</time></trkpt><trkpt lat="51.4239466" lon="-0.1144041"><ele>91.0</ele><time>2026-04-14T06:44:11.178Z</time></trkpt><trkpt lat="51.4240474" lon="-0.1143629"><ele>91.0</ele><time>2026-04-14T06:44:12.178Z</time></trkpt><trkpt lat="51.4241437" lon="-0.1143273"><ele>91.0</ele><time>2026-04-14T06:44:13.178Z</time></trkpt><trkpt lat="51.4242391" lon="-0.1142902"><ele>91.0</ele><time>2026-04-14T06:44:14.179Z</time></trkpt><trkpt lat="51.4243301" lon="-0.1142479"><ele>91.0</ele><time>2026-04-14T06:44:15.178Z</time></trkpt><trkpt lat="51.4244185" lon="-0.1142031"><ele>91.0</ele><time>2026-04-14T06:44:16.179Z</time></trkpt><trkpt lat="51.4245086" lon="-0.1141633"><ele>91.0</ele><time>2026-04-14T06:44:17.178Z</time></trkpt><trkpt lat="51.4245971" lon="-0.1141299"><ele>91.0</ele><time>2026-04-14T06:44:18.179Z</time></trkpt><trkpt lat="51.4246834" lon="-0.1141057"><ele>91.0</ele><time>2026-04-14T06:44:19.179Z</time></trkpt><trkpt lat="51.4247651" lon="-0.1140793"><ele>91.0</ele><time>2026-04-14T06:44:20.179Z</time></trkpt><trkpt lat="51.4248497" lon="-0.114053"><ele>90.83333333333333</ele><time>2026-04-14T06:44:21.179Z</time></trkpt><trkpt lat="51.42494" lon="-0.1140235"><ele>90.66666666666666</ele><time>2026-04-14T06:44:22.179Z</time></trkpt><trkpt lat="51.4250283" lon="-0.1139943"><ele>90.5</ele><time>2026-04-14T06:44:23.178Z</time></trkpt><trkpt lat="51.4251211" lon="-0.1139719"><ele>90.33333333333333</ele><time>2026-04-14T06:44:24.179Z</time></trkpt><trkpt lat="51.4252095" lon="-0.1139617"><ele>90.16666666666667</ele><time>2026-04-14T06:44:25.179Z</time></trkpt><trkpt lat="51.425294" lon="-0.1139576"><ele>90.0</ele><time>2026-04-14T06:44:26.178Z</time></trkpt><trkpt lat="51.4253779" lon="-0.113954"><ele>90.0</ele><time>2026-04-14T06:44:27.178Z</time></trkpt><trkpt lat="51.4254675" lon="-0.1139487"><ele>90.0</ele><time>2026-04-14T06:44:28.179Z</time></trkpt><trkpt lat="51.4255677" lon="-0.1139476"><ele>90.0</ele><time>2026-04-14T06:44:29.178Z</time></trkpt><trkpt lat="51.4256663" lon="-0.1139488"><ele>90.0</ele><time>2026-04-14T06:44:30.178Z</time></trkpt><trkpt lat="51.425766" lon="-0.1139534"><ele>90.0</ele><time>2026-04-14T06:44:31.178Z</time></trkpt><trkpt lat="51.4258591" lon="-0.1139645"><ele>90.0</ele><time>2026-04-14T06:44:32.178Z</time></trkpt><trkpt lat="51.4259506" lon="-0.1139863"><ele>90.0</ele><time>2026-04-14T06:44:33.179Z</time></trkpt><trkpt lat="51.4260427" lon="-0.1140149"><ele>90.0</ele><time>2026-04-14T06:44:34.178Z</time></trkpt><trkpt lat="51.4262281" lon="-0.1140622"><ele>90.0</ele><time>2026-04-14T06:44:36.179Z</time></trkpt><trkpt lat="51.426321" lon="-0.1140901"><ele>90.0</ele><time>2026-04-14T06:44:37.178Z</time></trkpt><trkpt lat="51.4264133" lon="-0.1141198"><ele>90.0</ele><time>2026-04-14T06:44:38.179Z</time></trkpt><trkpt lat="51.4265054" lon="-0.1141538"><ele>90.0</ele><time>2026-04-14T06:44:39.178Z</time></trkpt><trkpt lat="51.4265985" lon="-0.114193"><ele>90.0</ele><time>2026-04-14T06:44:40.179Z</time></trkpt><trkpt lat="51.4266915" lon="-0.1142334"><ele>90.0</ele><time>2026-04-14T06:44:41.179Z</time></trkpt><trkpt lat="51.4267855" lon="-0.1142754"><ele>90.0</ele><time>2026-04-14T06:44:42.18Z</time></trkpt><trkpt lat="51.4268808" lon="-0.1143164"><ele>90.0</ele><time>2026-04-14T06:44:43.179Z</time></trkpt><trkpt lat="51.4269711" lon="-0.1143563"><ele>90.0</ele><time>2026-04-14T06:44:44.179Z</time></trkpt><trkpt lat="51.4270598" lon="-0.1143924"><ele>90.0</ele><time>2026-04-14T06:44:45.179Z</time></trkpt><trkpt lat="51.4271481" lon="-0.1144286"><ele>90.0</ele><time>2026-04-14T06:44:46.18Z</time></trkpt><trkpt lat="51.4272394" lon="-0.1144637"><ele>90.0</ele><time>2026-04-14T06:44:47.18Z</time></trkpt><trkpt lat="51.4273272" lon="-0.1145002"><ele>90.0</ele><time>2026-04-14T06:44:48.18Z</time></trkpt><trkpt lat="51.4274132" lon="-0.1145298"><ele>90.0</ele><time>2026-04-14T06:44:49.179Z</time></trkpt><trkpt lat="51.4274941" lon="-0.114553"><ele>90.0</ele><time>2026-04-14T06:44:50.18Z</time></trkpt><trkpt lat="51.4275841" lon="-0.114559"><ele>90.0</ele><time>2026-04-14T06:44:51.179Z</time></trkpt><trkpt lat="51.427671" lon="-0.114558"><ele>90.0</ele><time>2026-04-14T06:44:52.18Z</time></trkpt><trkpt lat="51.4277501" lon="-0.1145592"><ele>90.0</ele><time>2026-04-14T06:44:53.18Z</time></trkpt><trkpt lat="51.4278951" lon="-0.11456"><ele>90.0</ele><time>2026-04-14T06:44:55.18Z</time></trkpt><trkpt lat="51.427967" lon="-0.1145582"><ele>90.0</ele><time>2026-04-14T06:44:56.179Z</time></trkpt><trkpt lat="51.4281617" lon="-0.1145391"><ele>90.0</ele><time>2026-04-14T06:44:59.18Z</time></trkpt><trkpt lat="51.428265" lon="-0.1145294"><ele>89.66666666666667</ele><time>2026-04-14T06:45:01.179Z</time></trkpt><trkpt lat="51.4283612" lon="-0.1145296"><ele>89.33333333333333</ele><time>2026-04-14T06:45:04.18Z</time></trkpt><trkpt lat="51.4284435" lon="-0.1145104"><ele>89.0</ele><time>2026-04-14T06:45:06.179Z</time></trkpt><trkpt lat="51.4285093" lon="-0.114499"><ele>88.66666666666666</ele><time>2026-04-14T06:45:08.18Z</time></trkpt><trkpt lat="51.4285722" lon="-0.1144884"><ele>88.33333333333333</ele><time>2026-04-14T06:45:11.18Z</time></trkpt><trkpt lat="51.4286362" lon="-0.1144779"><ele>88.0</ele><time>2026-04-14T06:45:15.18Z</time></trkpt><trkpt lat="51.4287633" lon="-0.1144563"><ele>87.80000000000001</ele><time>2026-04-14T06:45:17.179Z</time></trkpt><trkpt lat="51.4288479" lon="-0.114439"><ele>87.6</ele><time>2026-04-14T06:45:18.179Z</time></trkpt><trkpt lat="51.4289394" lon="-0.1144191"><ele>87.4</ele><time>2026-04-14T06:45:19.18Z</time></trkpt><trkpt lat="51.4290364" lon="-0.1143998"><ele>87.19999999999999</ele><time>2026-04-14T06:45:20.179Z</time></trkpt><trkpt lat="51.4291376" lon="-0.1143807"><ele>87.0</ele><time>2026-04-14T06:45:21.18Z</time></trkpt><trkpt lat="51.4292434" lon="-0.1143598"><ele>87.0</ele><time>2026-04-14T06:45:22.179Z</time></trkpt><trkpt lat="51.429353" lon="-0.1143461"><ele>87.0</ele><time>2026-04-14T06:45:23.179Z</time></trkpt><trkpt lat="51.4294625" lon="-0.1143377"><ele>87.0</ele><time>2026-04-14T06:45:24.18Z</time></trkpt><trkpt lat="51.4295751" lon="-0.1143277"><ele>87.0</ele><time>2026-04-14T06:45:25.18Z</time></trkpt><trkpt lat="51.4296993" lon="-0.1143158"><ele>86.25</ele><time>2026-04-14T06:45:26.18Z</time></trkpt><trkpt lat="51.4298253" lon="-0.1143082"><ele>85.5</ele><time>2026-04-14T06:45:27.179Z</time></trkpt><trkpt lat="51.4299527" lon="-0.1143005"><ele>84.75</ele><time>2026-04-14T06:45:28.179Z</time></trkpt><trkpt lat="51.430078" lon="-0.1142967"><ele>84.0</ele><time>2026-04-14T06:45:29.179Z</time></trkpt><trkpt lat="51.4301997" lon="-0.1143001"><ele>84.0</ele><time>2026-04-14T06:45:30.18Z</time></trkpt><trkpt lat="51.4303154" lon="-0.1143074"><ele>84.0</ele><time>2026-04-14T06:45:31.18Z</time></trkpt><trkpt lat="51.4304259" lon="-0.1143197"><ele>84.0</ele><time>2026-04-14T06:45:32.18Z</time></trkpt><trkpt lat="51.4305364" lon="-0.1143316"><ele>84.0</ele><time>2026-04-14T06:45:33.179Z</time></trkpt><trkpt lat="51.4306491" lon="-0.1143496"><ele>84.0</ele><time>2026-04-14T06:45:34.179Z</time></trkpt><trkpt lat="51.4307595" lon="-0.1143717"><ele>84.0</ele><time>2026-04-14T06:45:35.179Z</time></trkpt><trkpt lat="51.4308691" lon="-0.1143949"><ele>84.0</ele><time>2026-04-14T06:45:36.18Z</time></trkpt><trkpt lat="51.4309824" lon="-0.1144217"><ele>84.0</ele><time>2026-04-14T06:45:37.179Z</time></trkpt><trkpt lat="51.4310865" lon="-0.1144754"><ele>84.0</ele><time>2026-04-14T06:45:38.18Z</time></trkpt><trkpt lat="51.4311778" lon="-0.1145303"><ele>84.0</ele><time>2026-04-14T06:45:39.18Z</time></trkpt><trkpt lat="51.4312526" lon="-0.1145882"><ele>84.0</ele><time>2026-04-14T06:45:40.18Z</time></trkpt><trkpt lat="51.4313078" lon="-0.1146461"><ele>84.0</ele><time>2026-04-14T06:45:41.18Z</time></trkpt><trkpt lat="51.4313756" lon="-0.1147381"><ele>84.0</ele><time>2026-04-14T06:45:43.18Z</time></trkpt><trkpt lat="51.4314572" lon="-0.1147967"><ele>84.0</ele><time>2026-04-14T06:46:25.181Z</time></trkpt><trkpt lat="51.4315496" lon="-0.1149333"><ele>83.0</ele><time>2026-04-14T06:46:27.18Z</time></trkpt><trkpt lat="51.4315965" lon="-0.1150108"><ele>82.0</ele><time>2026-04-14T06:46:28.181Z</time></trkpt><trkpt lat="51.4316795" lon="-0.1151492"><ele>81.0</ele><time>2026-04-14T06:46:30.181Z</time></trkpt><trkpt lat="51.4317652" lon="-0.1152651"><ele>80.0</ele><time>2026-04-14T06:46:32.181Z</time></trkpt><trkpt lat="51.4318518" lon="-0.1153891"><ele>79.0</ele><time>2026-04-14T06:46:34.181Z</time></trkpt><trkpt lat="51.4319459" lon="-0.1155051"><ele>79.0</ele><time>2026-04-14T06:46:36.181Z</time></trkpt><trkpt lat="51.4320457" lon="-0.1156227"><ele>79.0</ele><time>2026-04-14T06:46:38.18Z</time></trkpt><trkpt lat="51.4321432" lon="-0.1157605"><ele>79.0</ele><time>2026-04-14T06:46:40.181Z</time></trkpt><trkpt lat="51.4322041" lon="-0.1158434"><ele>79.0</ele><time>2026-04-14T06:46:41.181Z</time></trkpt><trkpt lat="51.4322626" lon="-0.1159174"><ele>79.0</ele><time>2026-04-14T06:46:42.18Z</time></trkpt><trkpt lat="51.4323204" lon="-0.1159923"><ele>78.42857142857143</ele><time>2026-04-14T06:46:43.181Z</time></trkpt><trkpt lat="51.43238" lon="-0.1160697"><ele>77.85714285714286</ele><time>2026-04-14T06:46:44.18Z</time></trkpt><trkpt lat="51.4324376" lon="-0.1161503"><ele>77.28571428571428</ele><time>2026-04-14T06:46:45.18Z</time></trkpt><trkpt lat="51.4324882" lon="-0.1162243"><ele>76.71428571428572</ele><time>2026-04-14T06:46:46.181Z</time></trkpt><trkpt lat="51.4325324" lon="-0.116297"><ele>76.14285714285714</ele><time>2026-04-14T06:46:47.181Z</time></trkpt><trkpt lat="51.4325914" lon="-0.1164122"><ele>75.57142857142857</ele><time>2026-04-14T06:46:49.18Z</time></trkpt><trkpt lat="51.4326305" lon="-0.116494"><ele>75.0</ele><time>2026-04-14T06:46:51.18Z</time></trkpt><trkpt lat="51.4326725" lon="-0.1165895"><ele>74.16666666666667</ele><time>2026-04-14T06:46:53.181Z</time></trkpt><trkpt lat="51.4327101" lon="-0.116683"><ele>73.33333333333333</ele><time>2026-04-14T06:46:55.181Z</time></trkpt><trkpt lat="51.4327321" lon="-0.1167828"><ele>72.5</ele><time>2026-04-14T06:46:57.18Z</time></trkpt><trkpt lat="51.4327759" lon="-0.1168931"><ele>71.66666666666666</ele><time>2026-04-14T06:47:00.181Z</time></trkpt><trkpt lat="51.4328225" lon="-0.116989"><ele>70.83333333333333</ele><time>2026-04-14T06:47:03.18Z</time></trkpt><trkpt lat="51.4328558" lon="-0.117093"><ele>70.0</ele><time>2026-04-14T06:47:06.181Z</time></trkpt><trkpt lat="51.4329055" lon="-0.1172232"><ele>70.0</ele><time>2026-04-14T06:47:09.18Z</time></trkpt><trkpt lat="51.4329373" lon="-0.1173301"><ele>70.0</ele><time>2026-04-14T06:47:11.181Z</time></trkpt><trkpt lat="51.4329648" lon="-0.1174576"><ele>70.0</ele><time>2026-04-14T06:47:14.181Z</time></trkpt><trkpt lat="51.4329962" lon="-0.1176784"><ele>70.0</ele><time>2026-04-14T06:47:54.181Z</time></trkpt><trkpt lat="51.4330259" lon="-0.11784"><ele>70.0</ele><time>2026-04-14T06:47:56.182Z</time></trkpt><trkpt lat="51.4330619" lon="-0.1180071"><ele>69.16666666666666</ele><time>2026-04-14T06:47:58.181Z</time></trkpt><trkpt lat="51.4330941" lon="-0.1181782"><ele>68.33333333333333</ele><time>2026-04-14T06:48:00.182Z</time></trkpt><trkpt lat="51.4331316" lon="-0.1183617"><ele>67.5</ele><time>2026-04-14T06:48:02.182Z</time></trkpt><trkpt lat="51.4331531" lon="-0.1184601"><ele>66.66666666666667</ele><time>2026-04-14T06:48:03.182Z</time></trkpt><trkpt lat="51.4331739" lon="-0.1185623"><ele>65.83333333333334</ele><time>2026-04-14T06:48:04.182Z</time></trkpt><trkpt lat="51.4331937" lon="-0.1186709"><ele>65.0</ele><time>2026-04-14T06:48:05.182Z</time></trkpt><trkpt lat="51.4332155" lon="-0.1187867"><ele>64.83333333333334</ele><time>2026-04-14T06:48:06.182Z</time></trkpt><trkpt lat="51.433237" lon="-0.1189061"><ele>64.66666666666667</ele><time>2026-04-14T06:48:07.181Z</time></trkpt><trkpt lat="51.4332568" lon="-0.1190163"><ele>64.5</ele><time>2026-04-14T06:48:08.182Z</time></trkpt><trkpt lat="51.4332751" lon="-0.1191319"><ele>64.33333333333333</ele><time>2026-04-14T06:48:09.182Z</time></trkpt><trkpt lat="51.4332956" lon="-0.1192538"><ele>64.16666666666666</ele><time>2026-04-14T06:48:10.181Z</time></trkpt><trkpt lat="51.4333208" lon="-0.119375"><ele>64.0</ele><time>2026-04-14T06:48:11.182Z</time></trkpt><trkpt lat="51.433346" lon="-0.1194939"><ele>64.33333333333333</ele><time>2026-04-14T06:48:12.181Z</time></trkpt><trkpt lat="51.4333699" lon="-0.1196116"><ele>64.66666666666666</ele><time>2026-04-14T06:48:13.181Z</time></trkpt><trkpt lat="51.4333942" lon="-0.1197243"><ele>65.0</ele><time>2026-04-14T06:48:14.182Z</time></trkpt><trkpt lat="51.4334165" lon="-0.1198218"><ele>65.33333333333333</ele><time>2026-04-14T06:48:15.182Z</time></trkpt><trkpt lat="51.4334546" lon="-0.1200127"><ele>65.66666666666667</ele><time>2026-04-14T06:48:17.182Z</time></trkpt><trkpt lat="51.433477" lon="-0.1201153"><ele>66.0</ele><time>2026-04-14T06:48:18.181Z</time></trkpt><trkpt lat="51.4334988" lon="-0.120217"><ele>66.33333333333333</ele><time>2026-04-14T06:48:19.181Z</time></trkpt><trkpt lat="51.4335373" lon="-0.1204071"><ele>66.66666666666667</ele><time>2026-04-14T06:48:21.182Z</time></trkpt><trkpt lat="51.4335616" lon="-0.1205069"><ele>67.0</ele><time>2026-04-14T06:48:22.181Z</time></trkpt><trkpt lat="51.4335866" lon="-0.1206183"><ele>67.33333333333334</ele><time>2026-04-14T06:48:23.182Z</time></trkpt><trkpt lat="51.4336158" lon="-0.1207373"><ele>67.66666666666667</ele><time>2026-04-14T06:48:24.182Z</time></trkpt><trkpt lat="51.433647" lon="-0.1208506"><ele>68.0</ele><time>2026-04-14T06:48:25.182Z</time></trkpt><trkpt lat="51.433679" lon="-0.1209538"><ele>68.0</ele><time>2026-04-14T06:48:26.182Z</time></trkpt><trkpt lat="51.4337078" lon="-0.1210491"><ele>68.0</ele><time>2026-04-14T06:48:27.182Z</time></trkpt><trkpt lat="51.433735" lon="-0.1211456"><ele>68.0</ele><time>2026-04-14T06:48:28.182Z</time></trkpt><trkpt lat="51.4337854" lon="-0.1213264"><ele>68.0</ele><time>2026-04-14T06:48:30.181Z</time></trkpt><trkpt lat="51.4338182" lon="-0.1214152"><ele>68.0</ele><time>2026-04-14T06:48:31.181Z</time></trkpt><trkpt lat="51.4338769" lon="-0.1215798"><ele>68.0</ele><time>2026-04-14T06:48:33.182Z</time></trkpt><trkpt lat="51.4339286" lon="-0.1217297"><ele>68.16666666666667</ele><time>2026-04-14T06:48:35.182Z</time></trkpt><trkpt lat="51.4339728" lon="-0.1218377"><ele>68.33333333333334</ele><time>2026-04-14T06:48:37.182Z</time></trkpt><trkpt lat="51.4340295" lon="-0.1219576"><ele>68.5</ele><time>2026-04-14T06:48:41.182Z</time></trkpt><trkpt lat="51.4340666" lon="-0.1220394"><ele>68.66666666666667</ele><time>2026-04-14T06:48:42.182Z</time></trkpt><trkpt lat="51.4341104" lon="-0.1221384"><ele>68.83333333333333</ele><time>2026-04-14T06:48:43.183Z</time></trkpt><trkpt lat="51.4341583" lon="-0.1222319"><ele>69.0</ele><time>2026-04-14T06:48:44.182Z</time></trkpt><trkpt lat="51.4342084" lon="-0.1223265"><ele>68.66666666666667</ele><time>2026-04-14T06:48:45.183Z</time></trkpt><trkpt lat="51.4342603" lon="-0.122426"><ele>68.33333333333333</ele><time>2026-04-14T06:48:46.183Z</time></trkpt><trkpt lat="51.4343141" lon="-0.1225297"><ele>68.0</ele><time>2026-04-14T06:48:47.182Z</time></trkpt><trkpt lat="51.4343712" lon="-0.1226349"><ele>67.66666666666666</ele><time>2026-04-14T06:48:48.183Z</time></trkpt><trkpt lat="51.434437" lon="-0.1227442"><ele>67.33333333333333</ele><time>2026-04-14T06:48:49.183Z</time></trkpt><trkpt lat="51.4345109" lon="-0.1228529"><ele>67.0</ele><time>2026-04-14T06:48:50.182Z</time></trkpt><trkpt lat="51.4345952" lon="-0.1229562"><ele>67.0</ele><time>2026-04-14T06:48:51.182Z</time></trkpt><trkpt lat="51.4346773" lon="-0.1230585"><ele>67.0</ele><time>2026-04-14T06:48:52.183Z</time></trkpt><trkpt lat="51.4347567" lon="-0.1231556"><ele>67.0</ele><time>2026-04-14T06:48:53.182Z</time></trkpt><trkpt lat="51.4348329" lon="-0.1232539"><ele>67.0</ele><time>2026-04-14T06:48:54.182Z</time></trkpt><trkpt lat="51.4349071" lon="-0.1233611"><ele>67.0</ele><time>2026-04-14T06:48:55.183Z</time></trkpt><trkpt lat="51.4349784" lon="-0.123466"><ele>67.0</ele><time>2026-04-14T06:48:56.182Z</time></trkpt><trkpt lat="51.4350496" lon="-0.1235641"><ele>67.0</ele><time>2026-04-14T06:48:57.182Z</time></trkpt><trkpt lat="51.435117" lon="-0.1236575"><ele>67.0</ele><time>2026-04-14T06:48:58.182Z</time></trkpt><trkpt lat="51.4351781" lon="-0.1237369"><ele>67.0</ele><time>2026-04-14T06:48:59.183Z</time></trkpt><trkpt lat="51.4352367" lon="-0.1237978"><ele>67.0</ele><time>2026-04-14T06:49:00.183Z</time></trkpt><trkpt lat="51.4353024" lon="-0.1238522"><ele>67.0</ele><time>2026-04-14T06:49:01.182Z</time></trkpt><trkpt lat="51.4353692" lon="-0.1239134"><ele>67.0</ele><time>2026-04-14T06:49:02.182Z</time></trkpt><trkpt lat="51.4354296" lon="-0.1239896"><ele>67.0</ele><time>2026-04-14T06:49:03.182Z</time></trkpt><trkpt lat="51.4354873" lon="-0.1240701"><ele>67.0</ele><time>2026-04-14T06:49:04.183Z</time></trkpt><trkpt lat="51.4355466" lon="-0.1241465"><ele>67.0</ele><time>2026-04-14T06:49:05.183Z</time></trkpt><trkpt lat="51.4356105" lon="-0.1242234"><ele>67.0</ele><time>2026-04-14T06:49:06.183Z</time></trkpt><trkpt lat="51.4356785" lon="-0.1243056"><ele>67.0</ele><time>2026-04-14T06:49:07.183Z</time></trkpt><trkpt lat="51.4357478" lon="-0.1243935"><ele>66.33333333333333</ele><time>2026-04-14T06:49:08.182Z</time></trkpt><trkpt lat="51.4358194" lon="-0.1244856"><ele>65.66666666666666</ele><time>2026-04-14T06:49:09.182Z</time></trkpt><trkpt lat="51.4358903" lon="-0.1245756"><ele>65.0</ele><time>2026-04-14T06:49:10.182Z</time></trkpt><trkpt lat="51.4359559" lon="-0.1246602"><ele>64.33333333333333</ele><time>2026-04-14T06:49:11.183Z</time></trkpt><trkpt lat="51.4360184" lon="-0.1247343"><ele>63.666666666666664</ele><time>2026-04-14T06:49:12.182Z</time></trkpt><trkpt lat="51.4360818" lon="-0.1248014"><ele>63.0</ele><time>2026-04-14T06:49:13.183Z</time></trkpt><trkpt lat="51.4361488" lon="-0.1248697"><ele>62.833333333333336</ele><time>2026-04-14T06:49:14.183Z</time></trkpt><trkpt lat="51.4362078" lon="-0.124947"><ele>62.66666666666667</ele><time>2026-04-14T06:49:15.183Z</time></trkpt><trkpt lat="51.4362659" lon="-0.1250209"><ele>62.5</ele><time>2026-04-14T06:49:16.183Z</time></trkpt><trkpt lat="51.4363566" lon="-0.1251184"><ele>62.333333333333336</ele><time>2026-04-14T06:49:18.183Z</time></trkpt><trkpt lat="51.4364079" lon="-0.1251876"><ele>62.16666666666667</ele><time>2026-04-14T06:49:21.182Z</time></trkpt><trkpt lat="51.4364741" lon="-0.1252692"><ele>62.0</ele><time>2026-04-14T06:49:25.183Z</time></trkpt><trkpt lat="51.4365462" lon="-0.1253463"><ele>61.833333333333336</ele><time>2026-04-14T06:49:27.183Z</time></trkpt><trkpt lat="51.4366153" lon="-0.1254122"><ele>61.66666666666667</ele><time>2026-04-14T06:49:29.182Z</time></trkpt><trkpt lat="51.4366872" lon="-0.1254946"><ele>61.5</ele><time>2026-04-14T06:49:31.182Z</time></trkpt><trkpt lat="51.4367913" lon="-0.1256025"><ele>61.33333333333333</ele><time>2026-04-14T06:49:33.183Z</time></trkpt><trkpt lat="51.4368495" lon="-0.1256631"><ele>61.166666666666664</ele><time>2026-04-14T06:49:34.183Z</time></trkpt><trkpt lat="51.4369125" lon="-0.1257193"><ele>61.0</ele><time>2026-04-14T06:49:35.183Z</time></trkpt><trkpt lat="51.4370213" lon="-0.1258112"><ele>60.85714285714285</ele><time>2026-04-14T06:49:37.182Z</time></trkpt><trkpt lat="51.437076" lon="-0.1258618"><ele>60.71428571428571</ele><time>2026-04-14T06:49:38.183Z</time></trkpt><trkpt lat="51.4371393" lon="-0.1259181"><ele>60.57142857142857</ele><time>2026-04-14T06:49:39.183Z</time></trkpt><trkpt lat="51.4372053" lon="-0.1259763"><ele>60.42857142857142</ele><time>2026-04-14T06:49:40.183Z</time></trkpt><trkpt lat="51.4372713" lon="-0.126036"><ele>60.28571428571428</ele><time>2026-04-14T06:49:41.183Z</time></trkpt><trkpt lat="51.4373415" lon="-0.1261055"><ele>60.142857142857146</ele><time>2026-04-14T06:49:42.183Z</time></trkpt><trkpt lat="51.4374069" lon="-0.126175"><ele>60.0</ele><time>2026-04-14T06:49:43.182Z</time></trkpt><trkpt lat="51.4375344" lon="-0.1263085"><ele>59.833333333333336</ele><time>2026-04-14T06:49:45.183Z</time></trkpt><trkpt lat="51.4375981" lon="-0.1263704"><ele>59.66666666666667</ele><time>2026-04-14T06:49:46.183Z</time></trkpt><trkpt lat="51.43766" lon="-0.1264326"><ele>59.5</ele><time>2026-04-14T06:49:47.183Z</time></trkpt><trkpt lat="51.4377615" lon="-0.1265247"><ele>59.333333333333336</ele><time>2026-04-14T06:49:49.183Z</time></trkpt><trkpt lat="51.4378311" lon="-0.1265893"><ele>59.16666666666667</ele><time>2026-04-14T06:49:51.182Z</time></trkpt><trkpt lat="51.4378913" lon="-0.1266711"><ele>59.0</ele><time>2026-04-14T06:49:54.183Z</time></trkpt><trkpt lat="51.437924" lon="-0.1267793"><ele>59.0</ele><time>2026-04-14T06:50:05.184Z</time></trkpt><trkpt lat="51.4379441" lon="-0.1268779"><ele>59.00000000000001</ele><time>2026-04-14T06:50:06.184Z</time></trkpt><trkpt lat="51.4379677" lon="-0.1270039"><ele>59.00000000000001</ele><time>2026-04-14T06:50:07.184Z</time></trkpt><trkpt lat="51.437991" lon="-0.1271485"><ele>59.0</ele><time>2026-04-14T06:50:08.184Z</time></trkpt><trkpt lat="51.4380117" lon="-0.1273035"><ele>59.0</ele><time>2026-04-14T06:50:09.184Z</time></trkpt><trkpt lat="51.4380329" lon="-0.1274837"><ele>57.25</ele><time>2026-04-14T06:50:10.183Z</time></trkpt><trkpt lat="51.4380585" lon="-0.1276825"><ele>55.5</ele><time>2026-04-14T06:50:11.184Z</time></trkpt><trkpt lat="51.4380892" lon="-0.127876"><ele>53.75</ele><time>2026-04-14T06:50:12.184Z</time></trkpt><trkpt lat="51.4381206" lon="-0.1280566"><ele>52.0</ele><time>2026-04-14T06:50:13.183Z</time></trkpt><trkpt lat="51.4381502" lon="-0.1282227"><ele>52.166666666666664</ele><time>2026-04-14T06:50:14.183Z</time></trkpt><trkpt lat="51.4381751" lon="-0.1283631"><ele>52.33333333333333</ele><time>2026-04-14T06:50:15.183Z</time></trkpt><trkpt lat="51.4381964" lon="-0.1284888"><ele>52.5</ele><time>2026-04-14T06:50:16.183Z</time></trkpt><trkpt lat="51.43822" lon="-0.12861"><ele>52.66666666666667</ele><time>2026-04-14T06:50:17.183Z</time></trkpt><trkpt lat="51.4382524" lon="-0.1287141"><ele>52.833333333333336</ele><time>2026-04-14T06:50:18.184Z</time></trkpt><trkpt lat="51.4383021" lon="-0.1287897"><ele>53.0</ele><time>2026-04-14T06:50:19.184Z</time></trkpt><trkpt lat="51.4383665" lon="-0.1288335"><ele>53.00000000000001</ele><time>2026-04-14T06:50:20.183Z</time></trkpt><trkpt lat="51.438443" lon="-0.1288405"><ele>53.0</ele><time>2026-04-14T06:50:21.184Z</time></trkpt><trkpt lat="51.4385217" lon="-0.128826"><ele>53.0</ele><time>2026-04-14T06:50:22.184Z</time></trkpt><trkpt lat="51.4386043" lon="-0.1287631"><ele>53.0</ele><time>2026-04-14T06:50:23.183Z</time></trkpt><trkpt lat="51.438684" lon="-0.1286989"><ele>53.00000000000001</ele><time>2026-04-14T06:50:24.184Z</time></trkpt><trkpt lat="51.4387596" lon="-0.1286691"><ele>53.0</ele><time>2026-04-14T06:50:25.184Z</time></trkpt><trkpt lat="51.4388348" lon="-0.1286797"><ele>52.66666666666667</ele><time>2026-04-14T06:50:26.184Z</time></trkpt><trkpt lat="51.4389026" lon="-0.1287289"><ele>52.333333333333336</ele><time>2026-04-14T06:50:27.184Z</time></trkpt><trkpt lat="51.438959" lon="-0.1288175"><ele>52.0</ele><time>2026-04-14T06:50:28.184Z</time></trkpt><trkpt lat="51.4390046" lon="-0.1289294"><ele>51.66666666666667</ele><time>2026-04-14T06:50:29.184Z</time></trkpt><trkpt lat="51.4390467" lon="-0.1290556"><ele>51.333333333333336</ele><time>2026-04-14T06:50:30.183Z</time></trkpt><trkpt lat="51.4390942" lon="-0.1291907"><ele>51.0</ele><time>2026-04-14T06:50:31.183Z</time></trkpt><trkpt lat="51.4391434" lon="-0.1293293"><ele>50.599999999999994</ele><time>2026-04-14T06:50:32.184Z</time></trkpt><trkpt lat="51.4391933" lon="-0.1294706"><ele>50.2</ele><time>2026-04-14T06:50:33.184Z</time></trkpt><trkpt lat="51.4392446" lon="-0.1296166"><ele>49.8</ele><time>2026-04-14T06:50:34.184Z</time></trkpt><trkpt lat="51.4392949" lon="-0.1297657"><ele>49.400000000000006</ele><time>2026-04-14T06:50:35.184Z</time></trkpt><trkpt lat="51.439336" lon="-0.1299169"><ele>49.0</ele><time>2026-04-14T06:50:36.183Z</time></trkpt><trkpt lat="51.4393657" lon="-0.1300684"><ele>48.400000000000006</ele><time>2026-04-14T06:50:37.183Z</time></trkpt><trkpt lat="51.4393919" lon="-0.1302194"><ele>47.8</ele><time>2026-04-14T06:50:38.183Z</time></trkpt><trkpt lat="51.4394192" lon="-0.13037"><ele>47.2</ele><time>2026-04-14T06:50:39.184Z</time></trkpt><trkpt lat="51.4394455" lon="-0.1305281"><ele>46.599999999999994</ele><time>2026-04-14T06:50:40.183Z</time></trkpt><trkpt lat="51.4394715" lon="-0.1306854"><ele>46.0</ele><time>2026-04-14T06:50:41.184Z</time></trkpt><trkpt lat="51.4394968" lon="-0.130838"><ele>45.66666666666667</ele><time>2026-04-14T06:50:42.184Z</time></trkpt><trkpt lat="51.4395196" lon="-0.130983"><ele>45.333333333333336</ele><time>2026-04-14T06:50:43.183Z</time></trkpt><trkpt lat="51.4395378" lon="-0.1311198"><ele>45.0</ele><time>2026-04-14T06:50:44.184Z</time></trkpt><trkpt lat="51.4395604" lon="-0.1312432"><ele>44.666666666666664</ele><time>2026-04-14T06:50:45.183Z</time></trkpt><trkpt lat="51.4395993" lon="-0.1313548"><ele>44.33333333333333</ele><time>2026-04-14T06:50:46.183Z</time></trkpt><trkpt lat="51.439659" lon="-0.1314485"><ele>44.0</ele><time>2026-04-14T06:50:47.183Z</time></trkpt><trkpt lat="51.439742" lon="-0.1315192"><ele>43.5</ele><time>2026-04-14T06:50:48.184Z</time></trkpt><trkpt lat="51.4398406" lon="-0.1315763"><ele>43.0</ele><time>2026-04-14T06:50:49.184Z</time></trkpt><trkpt lat="51.4399465" lon="-0.131633"><ele>42.5</ele><time>2026-04-14T06:50:50.183Z</time></trkpt><trkpt lat="51.4400573" lon="-0.131693"><ele>42.0</ele><time>2026-04-14T06:50:51.184Z</time></trkpt><trkpt lat="51.44017" lon="-0.1317555"><ele>42.0</ele><time>2026-04-14T06:50:52.183Z</time></trkpt><trkpt lat="51.4402841" lon="-0.1318182"><ele>42.0</ele><time>2026-04-14T06:50:53.183Z</time></trkpt><trkpt lat="51.4403969" lon="-0.1318813"><ele>42.0</ele><time>2026-04-14T06:50:54.184Z</time></trkpt><trkpt lat="51.4405055" lon="-0.1319394"><ele>42.0</ele><time>2026-04-14T06:50:55.183Z</time></trkpt><trkpt lat="51.4406095" lon="-0.1319939"><ele>41.8</ele><time>2026-04-14T06:50:56.183Z</time></trkpt><trkpt lat="51.4407105" lon="-0.1320439"><ele>41.6</ele><time>2026-04-14T06:50:57.183Z</time></trkpt><trkpt lat="51.440814" lon="-0.1320857"><ele>41.4</ele><time>2026-04-14T06:50:58.183Z</time></trkpt><trkpt lat="51.4409158" lon="-0.1321232"><ele>41.199999999999996</ele><time>2026-04-14T06:50:59.183Z</time></trkpt><trkpt lat="51.4410304" lon="-0.1321533"><ele>41.0</ele><time>2026-04-14T06:51:00.183Z</time></trkpt><trkpt lat="51.4411437" lon="-0.1321771"><ele>41.0</ele><time>2026-04-14T06:51:01.183Z</time></trkpt><trkpt lat="51.4412629" lon="-0.132195"><ele>41.0</ele><time>2026-04-14T06:51:02.183Z</time></trkpt><trkpt lat="51.4413719" lon="-0.1322015"><ele>41.0</ele><time>2026-04-14T06:51:03.183Z</time></trkpt><trkpt lat="51.4415484" lon="-0.1321872"><ele>41.0</ele><time>2026-04-14T06:51:05.184Z</time></trkpt><trkpt lat="51.4416248" lon="-0.1321644"><ele>40.71428571428571</ele><time>2026-04-14T06:51:06.184Z</time></trkpt><trkpt lat="51.4416943" lon="-0.1321342"><ele>40.42857142857143</ele><time>2026-04-14T06:51:07.183Z</time></trkpt><trkpt lat="51.4417573" lon="-0.1321001"><ele>40.14285714285714</ele><time>2026-04-14T06:51:08.183Z</time></trkpt><trkpt lat="51.4418189" lon="-0.132071"><ele>39.857142857142854</ele><time>2026-04-14T06:51:09.184Z</time></trkpt><trkpt lat="51.4418866" lon="-0.1320502"><ele>39.57142857142857</ele><time>2026-04-14T06:51:10.183Z</time></trkpt><trkpt lat="51.4419593" lon="-0.1320329"><ele>39.285714285714285</ele><time>2026-04-14T06:51:11.184Z</time></trkpt><trkpt lat="51.4420355" lon="-0.1320312"><ele>39.0</ele><time>2026-04-14T06:51:12.184Z</time></trkpt><trkpt lat="51.4421106" lon="-0.1320616"><ele>39.0</ele><time>2026-04-14T06:51:13.184Z</time></trkpt><trkpt lat="51.4421783" lon="-0.1321041"><ele>39.0</ele><time>2026-04-14T06:51:14.183Z</time></trkpt><trkpt lat="51.4422362" lon="-0.1321469"><ele>39.0</ele><time>2026-04-14T06:51:15.183Z</time></trkpt><trkpt lat="51.4423336" lon="-0.1322276"><ele>39.0</ele><time>2026-04-14T06:51:17.184Z</time></trkpt><trkpt lat="51.4424164" lon="-0.1323031"><ele>39.0</ele><time>2026-04-14T06:51:19.184Z</time></trkpt><trkpt lat="51.4425059" lon="-0.1323798"><ele>39.0</ele><time>2026-04-14T06:51:21.183Z</time></trkpt><trkpt lat="51.4425891" lon="-0.1324218"><ele>39.0</ele><time>2026-04-14T06:51:23.184Z</time></trkpt><trkpt lat="51.442676" lon="-0.1324938"><ele>39.0</ele><time>2026-04-14T06:51:25.183Z</time></trkpt><trkpt lat="51.4427502" lon="-0.132566"><ele>39.0</ele><time>2026-04-14T06:51:27.183Z</time></trkpt><trkpt lat="51.4428324" lon="-0.1326355"><ele>39.0</ele><time>2026-04-14T06:51:29.184Z</time></trkpt><trkpt lat="51.4429001" lon="-0.1327014"><ele>39.0</ele><time>2026-04-14T06:51:31.184Z</time></trkpt><trkpt lat="51.4429697" lon="-0.132903"><ele>39.0</ele><time>2026-04-14T06:51:46.185Z</time></trkpt><trkpt lat="51.4429273" lon="-0.1330537"><ele>39.0</ele><time>2026-04-14T06:51:48.185Z</time></trkpt><trkpt lat="51.4428909" lon="-0.1331514"><ele>39.0</ele><time>2026-04-14T06:51:49.184Z</time></trkpt><trkpt lat="51.442849" lon="-0.1332623"><ele>39.0</ele><time>2026-04-14T06:51:50.184Z</time></trkpt><trkpt lat="51.4428043" lon="-0.133384"><ele>39.0</ele><time>2026-04-14T06:51:51.185Z</time></trkpt><trkpt lat="51.4427637" lon="-0.1335009"><ele>39.0</ele><time>2026-04-14T06:51:52.185Z</time></trkpt><trkpt lat="51.442727" lon="-0.1336109"><ele>38.8</ele><time>2026-04-14T06:51:53.185Z</time></trkpt><trkpt lat="51.4426964" lon="-0.1337321"><ele>38.599999999999994</ele><time>2026-04-14T06:51:54.184Z</time></trkpt><trkpt lat="51.4426652" lon="-0.1338715"><ele>38.4</ele><time>2026-04-14T06:51:55.185Z</time></trkpt><trkpt lat="51.4426362" lon="-0.134014"><ele>38.199999999999996</ele><time>2026-04-14T06:51:56.184Z</time></trkpt><trkpt lat="51.4426074" lon="-0.1341696"><ele>38.0</ele><time>2026-04-14T06:51:57.185Z</time></trkpt><trkpt lat="51.442581" lon="-0.1343375"><ele>37.8</ele><time>2026-04-14T06:51:58.185Z</time></trkpt><trkpt lat="51.4425601" lon="-0.134502"><ele>37.599999999999994</ele><time>2026-04-14T06:51:59.185Z</time></trkpt><trkpt lat="51.4425453" lon="-0.1346478"><ele>37.400000000000006</ele><time>2026-04-14T06:52:00.185Z</time></trkpt><trkpt lat="51.4425299" lon="-0.1347766"><ele>37.2</ele><time>2026-04-14T06:52:01.184Z</time></trkpt><trkpt lat="51.4425095" lon="-0.1349081"><ele>37.0</ele><time>2026-04-14T06:52:02.185Z</time></trkpt><trkpt lat="51.4424893" lon="-0.1350444"><ele>37.0</ele><time>2026-04-14T06:52:03.184Z</time></trkpt><trkpt lat="51.4424638" lon="-0.135177"><ele>37.0</ele><time>2026-04-14T06:52:04.185Z</time></trkpt><trkpt lat="51.4424277" lon="-0.1352904"><ele>37.0</ele><time>2026-04-14T06:52:05.185Z</time></trkpt><trkpt lat="51.4423706" lon="-0.1353891"><ele>37.0</ele><time>2026-04-14T06:52:06.184Z</time></trkpt><trkpt lat="51.4422908" lon="-0.1354884"><ele>37.0</ele><time>2026-04-14T06:52:07.185Z</time></trkpt><trkpt lat="51.4422069" lon="-0.1355995"><ele>37.0</ele><time>2026-04-14T06:52:08.185Z</time></trkpt><trkpt lat="51.4421337" lon="-0.1357314"><ele>37.0</ele><time>2026-04-14T06:52:09.184Z</time></trkpt><trkpt lat="51.4420365" lon="-0.1360581"><ele>37.0</ele><time>2026-04-14T06:52:11.185Z</time></trkpt><trkpt lat="51.4419886" lon="-0.1362322"><ele>37.0</ele><time>2026-04-14T06:52:12.184Z</time></trkpt><trkpt lat="51.4419527" lon="-0.136408"><ele>37.0</ele><time>2026-04-14T06:52:13.184Z</time></trkpt><trkpt lat="51.441921" lon="-0.1365824"><ele>37.0</ele><time>2026-04-14T06:52:14.185Z</time></trkpt><trkpt lat="51.4418877" lon="-0.1367561"><ele>37.0</ele><time>2026-04-14T06:52:15.185Z</time></trkpt><trkpt lat="51.4418511" lon="-0.1369336"><ele>36.75</ele><time>2026-04-14T06:52:16.184Z</time></trkpt><trkpt lat="51.4418219" lon="-0.1371237"><ele>36.5</ele><time>2026-04-14T06:52:17.185Z</time></trkpt><trkpt lat="51.441799" lon="-0.1373152"><ele>36.25</ele><time>2026-04-14T06:52:18.184Z</time></trkpt><trkpt lat="51.4417804" lon="-0.1374993"><ele>36.0</ele><time>2026-04-14T06:52:19.185Z</time></trkpt><trkpt lat="51.441767" lon="-0.1376716"><ele>35.6</ele><time>2026-04-14T06:52:20.184Z</time></trkpt><trkpt lat="51.4417576" lon="-0.1378349"><ele>35.2</ele><time>2026-04-14T06:52:21.185Z</time></trkpt><trkpt lat="51.4417516" lon="-0.1379823"><ele>34.8</ele><time>2026-04-14T06:52:22.185Z</time></trkpt><trkpt lat="51.4417442" lon="-0.1381221"><ele>34.4</ele><time>2026-04-14T06:52:23.185Z</time></trkpt><trkpt lat="51.4417388" lon="-0.1382583"><ele>34.0</ele><time>2026-04-14T06:52:24.185Z</time></trkpt><trkpt lat="51.4417423" lon="-0.1384145"><ele>34.0</ele><time>2026-04-14T06:52:25.185Z</time></trkpt><trkpt lat="51.441745" lon="-0.1385718"><ele>34.0</ele><time>2026-04-14T06:52:26.185Z</time></trkpt><trkpt lat="51.4417492" lon="-0.1387337"><ele>34.0</ele><time>2026-04-14T06:52:27.185Z</time></trkpt><trkpt lat="51.4417525" lon="-0.138897"><ele>34.0</ele><time>2026-04-14T06:52:28.185Z</time></trkpt><trkpt lat="51.4417562" lon="-0.1390524"><ele>34.0</ele><time>2026-04-14T06:52:29.185Z</time></trkpt><trkpt lat="51.4417611" lon="-0.1391963"><ele>34.0</ele><time>2026-04-14T06:52:30.185Z</time></trkpt><trkpt lat="51.4417624" lon="-0.1393462"><ele>34.0</ele><time>2026-04-14T06:52:31.184Z</time></trkpt><trkpt lat="51.4417638" lon="-0.1395044"><ele>34.0</ele><time>2026-04-14T06:52:32.185Z</time></trkpt><trkpt lat="51.4417667" lon="-0.1396531"><ele>34.0</ele><time>2026-04-14T06:52:33.185Z</time></trkpt><trkpt lat="51.4417695" lon="-0.1397936"><ele>34.0</ele><time>2026-04-14T06:52:34.184Z</time></trkpt><trkpt lat="51.4417722" lon="-0.1399447"><ele>33.8</ele><time>2026-04-14T06:52:35.185Z</time></trkpt><trkpt lat="51.4417758" lon="-0.1401007"><ele>33.599999999999994</ele><time>2026-04-14T06:52:36.184Z</time></trkpt><trkpt lat="51.4417804" lon="-0.1402582"><ele>33.4</ele><time>2026-04-14T06:52:37.184Z</time></trkpt><trkpt lat="51.441782" lon="-0.1404098"><ele>33.199999999999996</ele><time>2026-04-14T06:52:38.184Z</time></trkpt><trkpt lat="51.4417845" lon="-0.1405485"><ele>33.0</ele><time>2026-04-14T06:52:39.185Z</time></trkpt><trkpt lat="51.4417861" lon="-0.1406832"><ele>32.6</ele><time>2026-04-14T06:52:40.185Z</time></trkpt><trkpt lat="51.4417896" lon="-0.1408241"><ele>32.199999999999996</ele><time>2026-04-14T06:52:41.185Z</time></trkpt><trkpt lat="51.4417932" lon="-0.1409751"><ele>31.8</ele><time>2026-04-14T06:52:42.185Z</time></trkpt><trkpt lat="51.4417987" lon="-0.1411297"><ele>31.4</ele><time>2026-04-14T06:52:43.184Z</time></trkpt><trkpt lat="51.4418042" lon="-0.1412815"><ele>31.0</ele><time>2026-04-14T06:52:44.185Z</time></trkpt><trkpt lat="51.4418081" lon="-0.1414234"><ele>31.166666666666668</ele><time>2026-04-14T06:52:45.184Z</time></trkpt><trkpt lat="51.4418109" lon="-0.1415498"><ele>31.333333333333336</ele><time>2026-04-14T06:52:46.184Z</time></trkpt><trkpt lat="51.4418143" lon="-0.1416627"><ele>31.5</ele><time>2026-04-14T06:52:47.185Z</time></trkpt><trkpt lat="51.4418182" lon="-0.1418601"><ele>31.666666666666664</ele><time>2026-04-14T06:52:49.185Z</time></trkpt><trkpt lat="51.4418219" lon="-0.1419786"><ele>31.833333333333332</ele><time>2026-04-14T06:52:50.184Z</time></trkpt><trkpt lat="51.4418265" lon="-0.1421114"><ele>32.0</ele><time>2026-04-14T06:52:51.185Z</time></trkpt><trkpt lat="51.4418292" lon="-0.1422458"><ele>32.0</ele><time>2026-04-14T06:52:52.185Z</time></trkpt><trkpt lat="51.4418361" lon="-0.1423792"><ele>31.999999999999996</ele><time>2026-04-14T06:52:53.184Z</time></trkpt><trkpt lat="51.4418437" lon="-0.1425072"><ele>32.0</ele><time>2026-04-14T06:52:54.185Z</time></trkpt><trkpt lat="51.4418455" lon="-0.1426212"><ele>32.0</ele><time>2026-04-14T06:52:55.184Z</time></trkpt><trkpt lat="51.4418439" lon="-0.1427291"><ele>31.999999999999996</ele><time>2026-04-14T06:52:56.184Z</time></trkpt><trkpt lat="51.4418449" lon="-0.1428343"><ele>32.0</ele><time>2026-04-14T06:52:57.185Z</time></trkpt><trkpt lat="51.4418478" lon="-0.1429505"><ele>32.0</ele><time>2026-04-14T06:52:58.185Z</time></trkpt><trkpt lat="51.4418498" lon="-0.1430855"><ele>31.833333333333332</ele><time>2026-04-14T06:52:59.184Z</time></trkpt><trkpt lat="51.441852" lon="-0.1432237"><ele>31.666666666666664</ele><time>2026-04-14T06:53:00.185Z</time></trkpt><trkpt lat="51.4418604" lon="-0.1433433"><ele>31.5</ele><time>2026-04-14T06:53:01.186Z</time></trkpt><trkpt lat="51.4418837" lon="-0.143501"><ele>31.333333333333336</ele><time>2026-04-14T06:53:03.186Z</time></trkpt><trkpt lat="51.4419034" lon="-0.1436525"><ele>31.166666666666668</ele><time>2026-04-14T06:53:05.186Z</time></trkpt><trkpt lat="51.441924" lon="-0.1437734"><ele>31.0</ele><time>2026-04-14T06:53:06.186Z</time></trkpt><trkpt lat="51.4419548" lon="-0.1439165"><ele>31.200000000000003</ele><time>2026-04-14T06:53:07.186Z</time></trkpt><trkpt lat="51.4419801" lon="-0.1440583"><ele>31.400000000000002</ele><time>2026-04-14T06:53:08.185Z</time></trkpt><trkpt lat="51.4420061" lon="-0.1442046"><ele>31.6</ele><time>2026-04-14T06:53:09.185Z</time></trkpt><trkpt lat="51.442033" lon="-0.1443552"><ele>31.8</ele><time>2026-04-14T06:53:10.186Z</time></trkpt><trkpt lat="51.4420626" lon="-0.1445122"><ele>32.0</ele><time>2026-04-14T06:53:11.186Z</time></trkpt><trkpt lat="51.4420937" lon="-0.1446633"><ele>31.999999999999996</ele><time>2026-04-14T06:53:12.186Z</time></trkpt><trkpt lat="51.4421195" lon="-0.1448013"><ele>32.0</ele><time>2026-04-14T06:53:13.185Z</time></trkpt><trkpt lat="51.4421397" lon="-0.144917"><ele>32.0</ele><time>2026-04-14T06:53:14.186Z</time></trkpt><trkpt lat="51.4421582" lon="-0.1450201"><ele>32.0</ele><time>2026-04-14T06:53:15.185Z</time></trkpt><trkpt lat="51.4421772" lon="-0.1451357"><ele>31.999999999999996</ele><time>2026-04-14T06:53:16.186Z</time></trkpt><trkpt lat="51.4422005" lon="-0.1452626"><ele>32.0</ele><time>2026-04-14T06:53:17.186Z</time></trkpt><trkpt lat="51.4422245" lon="-0.1453867"><ele>31.333333333333332</ele><time>2026-04-14T06:53:18.185Z</time></trkpt><trkpt lat="51.4422448" lon="-0.1454975"><ele>30.666666666666664</ele><time>2026-04-14T06:53:19.186Z</time></trkpt><trkpt lat="51.4422616" lon="-0.1455996"><ele>30.0</ele><time>2026-04-14T06:53:20.186Z</time></trkpt><trkpt lat="51.4422786" lon="-0.1457083"><ele>29.333333333333336</ele><time>2026-04-14T06:53:21.186Z</time></trkpt><trkpt lat="51.4422991" lon="-0.1458322"><ele>28.666666666666668</ele><time>2026-04-14T06:53:22.185Z</time></trkpt><trkpt lat="51.4423217" lon="-0.1459669"><ele>28.0</ele><time>2026-04-14T06:53:23.185Z</time></trkpt><trkpt lat="51.4423437" lon="-0.1460897"><ele>28.0</ele><time>2026-04-14T06:53:24.186Z</time></trkpt><trkpt lat="51.4423633" lon="-0.1461999"><ele>27.999999999999996</ele><time>2026-04-14T06:53:25.185Z</time></trkpt><trkpt lat="51.4423821" lon="-0.1462995"><ele>27.999999999999996</ele><time>2026-04-14T06:53:26.186Z</time></trkpt><trkpt lat="51.4423979" lon="-0.1463984"><ele>28.0</ele><time>2026-04-14T06:53:27.186Z</time></trkpt><trkpt lat="51.442433" lon="-0.1465941"><ele>28.0</ele><time>2026-04-14T06:53:29.186Z</time></trkpt><trkpt lat="51.4424625" lon="-0.1467866"><ele>28.142857142857142</ele><time>2026-04-14T06:53:31.185Z</time></trkpt><trkpt lat="51.4424802" lon="-0.1468842"><ele>28.285714285714285</ele><time>2026-04-14T06:53:32.186Z</time></trkpt><trkpt lat="51.4425003" lon="-0.1469811"><ele>28.42857142857143</ele><time>2026-04-14T06:53:33.186Z</time></trkpt><trkpt lat="51.4425178" lon="-0.1470886"><ele>28.571428571428573</ele><time>2026-04-14T06:53:34.185Z</time></trkpt><trkpt lat="51.4425343" lon="-0.1472069"><ele>28.714285714285715</ele><time>2026-04-14T06:53:35.185Z</time></trkpt><trkpt lat="51.4425554" lon="-0.1473209"><ele>28.85714285714286</ele><time>2026-04-14T06:53:36.186Z</time></trkpt><trkpt lat="51.4425763" lon="-0.1474256"><ele>29.000000000000004</ele><time>2026-04-14T06:53:37.186Z</time></trkpt><trkpt lat="51.4426131" lon="-0.1476072"><ele>28.999999999999996</ele><time>2026-04-14T06:53:39.185Z</time></trkpt><trkpt lat="51.4426358" lon="-0.1477175"><ele>29.0</ele><time>2026-04-14T06:53:40.186Z</time></trkpt><trkpt lat="51.442659" lon="-0.1478373"><ele>29.0</ele><time>2026-04-14T06:53:41.186Z</time></trkpt><trkpt lat="51.4426826" lon="-0.1479664"><ele>29.0</ele><time>2026-04-14T06:53:42.186Z</time></trkpt><trkpt lat="51.4427084" lon="-0.1480965"><ele>28.999999999999996</ele><time>2026-04-14T06:53:43.185Z</time></trkpt><trkpt lat="51.4427318" lon="-0.1482106"><ele>29.0</ele><time>2026-04-14T06:53:44.185Z</time></trkpt><trkpt lat="51.4427509" lon="-0.1483145"><ele>28.999999999999996</ele><time>2026-04-14T06:53:45.185Z</time></trkpt><trkpt lat="51.4427677" lon="-0.148417"><ele>29.0</ele><time>2026-04-14T06:53:46.186Z</time></trkpt><trkpt lat="51.442785" lon="-0.1485257"><ele>29.0</ele><time>2026-04-14T06:53:47.186Z</time></trkpt><trkpt lat="51.4428044" lon="-0.1486385"><ele>29.0</ele><time>2026-04-14T06:53:48.185Z</time></trkpt><trkpt lat="51.4428344" lon="-0.1488086"><ele>28.999999999999996</ele><time>2026-04-14T06:53:50.186Z</time></trkpt><trkpt lat="51.4428537" lon="-0.1489558"><ele>29.0</ele><time>2026-04-14T06:53:52.186Z</time></trkpt><trkpt lat="51.442876" lon="-0.1491158"><ele>29.166666666666664</ele><time>2026-04-14T06:53:54.186Z</time></trkpt><trkpt lat="51.4428832" lon="-0.1492383"><ele>29.333333333333332</ele><time>2026-04-14T06:53:56.186Z</time></trkpt><trkpt lat="51.4428933" lon="-0.1493522"><ele>29.5</ele><time>2026-04-14T06:53:59.185Z</time></trkpt><trkpt lat="51.4428541" lon="-0.1494423"><ele>29.666666666666664</ele><time>2026-04-14T06:54:19.186Z</time></trkpt><trkpt lat="51.442797" lon="-0.149565"><ele>29.833333333333332</ele><time>2026-04-14T06:54:34.187Z</time></trkpt><trkpt lat="51.4426853" lon="-0.1495731"><ele>30.0</ele><time>2026-04-14T06:54:36.187Z</time></trkpt><trkpt lat="51.4426175" lon="-0.149521"><ele>30.0</ele><time>2026-04-14T06:54:37.187Z</time></trkpt><trkpt lat="51.4425486" lon="-0.1494554"><ele>30.0</ele><time>2026-04-14T06:54:38.187Z</time></trkpt><trkpt lat="51.4424828" lon="-0.1494007"><ele>30.0</ele><time>2026-04-14T06:54:39.187Z</time></trkpt><trkpt lat="51.4424265" lon="-0.1493482"><ele>30.0</ele><time>2026-04-14T06:54:40.187Z</time></trkpt><trkpt lat="51.4423506" lon="-0.1492767"><ele>30.0</ele><time>2026-04-14T06:54:41.187Z</time></trkpt><trkpt lat="51.4422887" lon="-0.1492304"><ele>30.0</ele><time>2026-04-14T06:54:42.187Z</time></trkpt><trkpt lat="51.4422207" lon="-0.1492"><ele>30.0</ele><time>2026-04-14T06:54:43.187Z</time></trkpt><trkpt lat="51.4421329" lon="-0.1491863"><ele>30.0</ele><time>2026-04-14T06:54:45.186Z</time></trkpt><trkpt lat="51.4420627" lon="-0.1492181"><ele>30.0</ele><time>2026-04-14T06:54:47.186Z</time></trkpt><trkpt lat="51.4420394" lon="-0.1493345"><ele>30.0</ele><time>2026-04-14T06:54:49.187Z</time></trkpt><trkpt lat="51.4420411" lon="-0.1494476"><ele>30.0</ele><time>2026-04-14T06:54:51.187Z</time></trkpt><trkpt lat="51.4420969" lon="-0.1494945"><ele>30.0</ele><time>2026-04-14T06:54:55.186Z</time></trkpt><trkpt lat="51.4420938" lon="-0.1493721"><ele>30.0</ele><time>2026-04-14T06:54:59.187Z</time></trkpt><trkpt lat="51.4420992" lon="-0.14927"><ele>30.0</ele><time>2026-04-14T06:55:02.187Z</time></trkpt><trkpt lat="51.4421772" lon="-0.1492812"><ele>30.0</ele><time>2026-04-14T06:55:05.187Z</time></trkpt><trkpt lat="51.4422461" lon="-0.1493196"><ele>30.0</ele><time>2026-04-14T06:55:07.187Z</time></trkpt><trkpt lat="51.442318" lon="-0.1493646"><ele>30.0</ele><time>2026-04-14T06:55:09.186Z</time></trkpt><trkpt lat="51.4423851" lon="-0.1494013"><ele>30.0</ele><time>2026-04-14T06:55:14.186Z</time></trkpt><trkpt lat="51.4426236" lon="-0.1495639"><ele>30.0</ele><time>2026-04-14T06:55:43.186Z</time></trkpt><trkpt lat="51.4426895" lon="-0.1496116"><ele>30.0</ele><time>2026-04-14T06:55:44.186Z</time></trkpt><trkpt lat="51.4427604" lon="-0.1496483"><ele>30.0</ele><time>2026-04-14T06:55:45.186Z</time></trkpt><trkpt lat="51.4428222" lon="-0.1496885"><ele>30.0</ele><time>2026-04-14T06:55:46.186Z</time></trkpt><trkpt lat="51.4428902" lon="-0.1497343"><ele>30.0</ele><time>2026-04-14T06:55:47.187Z</time></trkpt><trkpt lat="51.4429605" lon="-0.1497795"><ele>30.0</ele><time>2026-04-14T06:55:48.187Z</time></trkpt><trkpt lat="51.4430409" lon="-0.1498242"><ele>30.0</ele><time>2026-04-14T06:55:49.187Z</time></trkpt><trkpt lat="51.4431253" lon="-0.1498734"><ele>29.833333333333332</ele><time>2026-04-14T06:55:50.186Z</time></trkpt><trkpt lat="51.4432146" lon="-0.1499224"><ele>29.666666666666664</ele><time>2026-04-14T06:55:51.187Z</time></trkpt><trkpt lat="51.4433001" lon="-0.149972"><ele>29.5</ele><time>2026-04-14T06:55:52.186Z</time></trkpt><trkpt lat="51.4433817" lon="-0.1500216"><ele>29.333333333333332</ele><time>2026-04-14T06:55:53.188Z</time></trkpt><trkpt lat="51.4434608" lon="-0.1500716"><ele>29.166666666666664</ele><time>2026-04-14T06:55:54.187Z</time></trkpt><trkpt lat="51.4435345" lon="-0.1501166"><ele>29.0</ele><time>2026-04-14T06:55:55.188Z</time></trkpt><trkpt lat="51.4436014" lon="-0.1501584"><ele>28.999999999999996</ele><time>2026-04-14T06:55:56.188Z</time></trkpt><trkpt lat="51.4436651" lon="-0.1501953"><ele>29.0</ele><time>2026-04-14T06:55:57.188Z</time></trkpt><trkpt lat="51.4437291" lon="-0.1502341"><ele>29.0</ele><time>2026-04-14T06:55:58.188Z</time></trkpt><trkpt lat="51.4437986" lon="-0.1502782"><ele>29.0</ele><time>2026-04-14T06:55:59.188Z</time></trkpt><trkpt lat="51.4438767" lon="-0.1503292"><ele>28.999999999999996</ele><time>2026-04-14T06:56:00.188Z</time></trkpt><trkpt lat="51.4439599" lon="-0.1503841"><ele>29.0</ele><time>2026-04-14T06:56:01.188Z</time></trkpt><trkpt lat="51.4440407" lon="-0.1504384"><ele>28.799999999999997</ele><time>2026-04-14T06:56:02.187Z</time></trkpt><trkpt lat="51.4441102" lon="-0.1504877"><ele>28.599999999999998</ele><time>2026-04-14T06:56:03.188Z</time></trkpt><trkpt lat="51.4441747" lon="-0.1505327"><ele>28.4</ele><time>2026-04-14T06:56:04.187Z</time></trkpt><trkpt lat="51.4442352" lon="-0.1505683"><ele>28.2</ele><time>2026-04-14T06:56:05.188Z</time></trkpt><trkpt lat="51.4443559" lon="-0.1506335"><ele>28.0</ele><time>2026-04-14T06:56:07.187Z</time></trkpt><trkpt lat="51.4444723" lon="-0.1506877"><ele>28.2</ele><time>2026-04-14T06:56:09.188Z</time></trkpt><trkpt lat="51.4445669" lon="-0.1507634"><ele>28.4</ele><time>2026-04-14T06:56:11.187Z</time></trkpt><trkpt lat="51.4446719" lon="-0.1508695"><ele>28.599999999999998</ele><time>2026-04-14T06:56:13.188Z</time></trkpt><trkpt lat="51.4447307" lon="-0.1509207"><ele>28.799999999999997</ele><time>2026-04-14T06:56:14.188Z</time></trkpt><trkpt lat="51.4448328" lon="-0.1510088"><ele>29.0</ele><time>2026-04-14T06:56:16.187Z</time></trkpt><trkpt lat="51.4449184" lon="-0.1510902"><ele>29.0</ele><time>2026-04-14T06:56:18.188Z</time></trkpt><trkpt lat="51.4449812" lon="-0.1511383"><ele>29.0</ele><time>2026-04-14T06:56:20.187Z</time></trkpt><trkpt lat="51.4450354" lon="-0.1511904"><ele>29.0</ele><time>2026-04-14T06:56:22.187Z</time></trkpt><trkpt lat="51.4450273" lon="-0.1514304"><ele>29.0</ele><time>2026-04-14T06:57:27.189Z</time></trkpt><trkpt lat="51.4449243" lon="-0.1515339"><ele>29.0</ele><time>2026-04-14T06:57:29.189Z</time></trkpt><trkpt lat="51.444861" lon="-0.1515865"><ele>29.166666666666664</ele><time>2026-04-14T06:57:30.189Z</time></trkpt><trkpt lat="51.4448018" lon="-0.151632"><ele>29.333333333333332</ele><time>2026-04-14T06:57:31.188Z</time></trkpt><trkpt lat="51.444713" lon="-0.1517094"><ele>29.5</ele><time>2026-04-14T06:57:33.188Z</time></trkpt><trkpt lat="51.4447159" lon="-0.1518171"><ele>29.666666666666664</ele><time>2026-04-14T06:57:35.189Z</time></trkpt><trkpt lat="51.4447645" lon="-0.1519491"><ele>29.833333333333332</ele><time>2026-04-14T06:57:37.188Z</time></trkpt><trkpt lat="51.4448149" lon="-0.152016"><ele>30.0</ele><time>2026-04-14T06:57:38.188Z</time></trkpt><trkpt lat="51.4448747" lon="-0.1520795"><ele>30.0</ele><time>2026-04-14T06:57:39.189Z</time></trkpt><trkpt lat="51.4449567" lon="-0.1521589"><ele>30.0</ele><time>2026-04-14T06:57:40.189Z</time></trkpt><trkpt lat="51.445035" lon="-0.1522377"><ele>30.0</ele><time>2026-04-14T06:57:41.188Z</time></trkpt><trkpt lat="51.4451186" lon="-0.1523114"><ele>30.0</ele><time>2026-04-14T06:57:42.189Z</time></trkpt><trkpt lat="51.4451942" lon="-0.1523777"><ele>30.0</ele><time>2026-04-14T06:57:43.189Z</time></trkpt><trkpt lat="51.4452746" lon="-0.1524386"><ele>30.0</ele><time>2026-04-14T06:57:44.189Z</time></trkpt><trkpt lat="51.4453587" lon="-0.1524997"><ele>30.0</ele><time>2026-04-14T06:57:45.189Z</time></trkpt><trkpt lat="51.4454458" lon="-0.1525592"><ele>30.0</ele><time>2026-04-14T06:57:46.188Z</time></trkpt><trkpt lat="51.4455327" lon="-0.1526152"><ele>30.0</ele><time>2026-04-14T06:57:47.189Z</time></trkpt><trkpt lat="51.4456264" lon="-0.1526628"><ele>30.0</ele><time>2026-04-14T06:57:48.189Z</time></trkpt><trkpt lat="51.4457202" lon="-0.1527143"><ele>29.5</ele><time>2026-04-14T06:57:49.189Z</time></trkpt><trkpt lat="51.445815" lon="-0.1527633"><ele>29.0</ele><time>2026-04-14T06:57:50.188Z</time></trkpt><trkpt lat="51.4459104" lon="-0.15281"><ele>28.5</ele><time>2026-04-14T06:57:51.188Z</time></trkpt><trkpt lat="51.4459992" lon="-0.1528456"><ele>28.0</ele><time>2026-04-14T06:57:52.188Z</time></trkpt><trkpt lat="51.4460748" lon="-0.1528757"><ele>27.5</ele><time>2026-04-14T06:57:53.188Z</time></trkpt><trkpt lat="51.4461402" lon="-0.1529005"><ele>27.0</ele><time>2026-04-14T06:57:54.189Z</time></trkpt><trkpt lat="51.4462398" lon="-0.1529425"><ele>26.833333333333332</ele><time>2026-04-14T06:57:56.189Z</time></trkpt><trkpt lat="51.4463506" lon="-0.1529759"><ele>26.666666666666664</ele><time>2026-04-14T06:57:58.189Z</time></trkpt><trkpt lat="51.4464237" lon="-0.1529964"><ele>26.5</ele><time>2026-04-14T06:57:59.189Z</time></trkpt><trkpt lat="51.446504" lon="-0.1530249"><ele>26.333333333333332</ele><time>2026-04-14T06:58:00.189Z</time></trkpt><trkpt lat="51.4465886" lon="-0.1530638"><ele>26.166666666666664</ele><time>2026-04-14T06:58:01.189Z</time></trkpt><trkpt lat="51.4466764" lon="-0.1531039"><ele>26.0</ele><time>2026-04-14T06:58:02.188Z</time></trkpt><trkpt lat="51.4467701" lon="-0.1531496"><ele>26.0</ele><time>2026-04-14T06:58:03.189Z</time></trkpt><trkpt lat="51.4468626" lon="-0.1531946"><ele>26.0</ele><time>2026-04-14T06:58:04.189Z</time></trkpt><trkpt lat="51.4469597" lon="-0.1532437"><ele>26.0</ele><time>2026-04-14T06:58:05.189Z</time></trkpt><trkpt lat="51.447057" lon="-0.1532995"><ele>26.0</ele><time>2026-04-14T06:58:06.189Z</time></trkpt><trkpt lat="51.4471544" lon="-0.1533632"><ele>26.0</ele><time>2026-04-14T06:58:07.189Z</time></trkpt><trkpt lat="51.4472565" lon="-0.1534299"><ele>25.4</ele><time>2026-04-14T06:58:08.188Z</time></trkpt><trkpt lat="51.4473565" lon="-0.1534987"><ele>24.8</ele><time>2026-04-14T06:58:09.189Z</time></trkpt><trkpt lat="51.4474587" lon="-0.1535706"><ele>24.2</ele><time>2026-04-14T06:58:10.189Z</time></trkpt><trkpt lat="51.4475574" lon="-0.1536399"><ele>23.599999999999998</ele><time>2026-04-14T06:58:11.189Z</time></trkpt><trkpt lat="51.4476553" lon="-0.1537127"><ele>23.0</ele><time>2026-04-14T06:58:12.189Z</time></trkpt><trkpt lat="51.447759" lon="-0.1537856"><ele>23.0</ele><time>2026-04-14T06:58:13.189Z</time></trkpt><trkpt lat="51.4478575" lon="-0.1538524"><ele>23.0</ele><time>2026-04-14T06:58:14.189Z</time></trkpt><trkpt lat="51.4479569" lon="-0.1539234"><ele>23.0</ele><time>2026-04-14T06:58:15.189Z</time></trkpt><trkpt lat="51.4480558" lon="-0.1539946"><ele>23.0</ele><time>2026-04-14T06:58:16.188Z</time></trkpt><trkpt lat="51.448156" lon="-0.1540639"><ele>23.0</ele><time>2026-04-14T06:58:17.188Z</time></trkpt><trkpt lat="51.448256" lon="-0.1541309"><ele>23.2</ele><time>2026-04-14T06:58:18.189Z</time></trkpt><trkpt lat="51.4483535" lon="-0.1542002"><ele>23.4</ele><time>2026-04-14T06:58:19.188Z</time></trkpt><trkpt lat="51.4484429" lon="-0.1542668"><ele>23.599999999999998</ele><time>2026-04-14T06:58:20.189Z</time></trkpt><trkpt lat="51.4485276" lon="-0.1543252"><ele>23.799999999999997</ele><time>2026-04-14T06:58:21.188Z</time></trkpt><trkpt lat="51.4485962" lon="-0.1543757"><ele>24.0</ele><time>2026-04-14T06:58:22.188Z</time></trkpt><trkpt lat="51.4486775" lon="-0.1544382"><ele>24.0</ele><time>2026-04-14T06:58:24.188Z</time></trkpt><trkpt lat="51.4487542" lon="-0.1544119"><ele>24.0</ele><time>2026-04-14T06:58:27.188Z</time></trkpt><trkpt lat="51.448789" lon="-0.1542727"><ele>24.0</ele><time>2026-04-14T06:58:29.188Z</time></trkpt><trkpt lat="51.4488415" lon="-0.1540822"><ele>24.0</ele><time>2026-04-14T06:58:31.189Z</time></trkpt><trkpt lat="51.4488861" lon="-0.1539451"><ele>24.0</ele><time>2026-04-14T06:58:33.188Z</time></trkpt><trkpt lat="51.4489511" lon="-0.1538979"><ele>24.799999999999997</ele><time>2026-04-14T06:58:35.188Z</time></trkpt><trkpt lat="51.4490587" lon="-0.1539253"><ele>25.599999999999998</ele><time>2026-04-14T06:58:37.188Z</time></trkpt><trkpt lat="51.4491332" lon="-0.1539548"><ele>26.4</ele><time>2026-04-14T06:58:38.189Z</time></trkpt><trkpt lat="51.4492207" lon="-0.1539766"><ele>27.2</ele><time>2026-04-14T06:58:39.189Z</time></trkpt><trkpt lat="51.4493118" lon="-0.1539799"><ele>28.0</ele><time>2026-04-14T06:58:40.188Z</time></trkpt><trkpt lat="51.4494043" lon="-0.153991"><ele>28.0</ele><time>2026-04-14T06:58:41.189Z</time></trkpt><trkpt lat="51.4495013" lon="-0.1540304"><ele>27.999999999999996</ele><time>2026-04-14T06:58:42.189Z</time></trkpt><trkpt lat="51.4496033" lon="-0.1540959"><ele>27.999999999999996</ele><time>2026-04-14T06:58:43.189Z</time></trkpt><trkpt lat="51.4497056" lon="-0.1541667"><ele>28.0</ele><time>2026-04-14T06:58:44.189Z</time></trkpt><trkpt lat="51.4498113" lon="-0.1542429"><ele>28.0</ele><time>2026-04-14T06:58:45.188Z</time></trkpt><trkpt lat="51.4499193" lon="-0.1543175"><ele>28.75</ele><time>2026-04-14T06:58:46.189Z</time></trkpt><trkpt lat="51.4500277" lon="-0.1543795"><ele>29.5</ele><time>2026-04-14T06:58:47.189Z</time></trkpt><trkpt lat="51.4501365" lon="-0.1544217"><ele>30.25</ele><time>2026-04-14T06:58:48.19Z</time></trkpt><trkpt lat="51.4502443" lon="-0.1544726"><ele>31.0</ele><time>2026-04-14T06:58:49.189Z</time></trkpt><trkpt lat="51.4503529" lon="-0.1545437"><ele>31.0</ele><time>2026-04-14T06:58:50.189Z</time></trkpt><trkpt lat="51.4504571" lon="-0.1546138"><ele>31.0</ele><time>2026-04-14T06:58:51.189Z</time></trkpt><trkpt lat="51.4505605" lon="-0.1546859"><ele>31.0</ele><time>2026-04-14T06:58:52.19Z</time></trkpt><trkpt lat="51.4506589" lon="-0.1547575"><ele>31.0</ele><time>2026-04-14T06:58:53.189Z</time></trkpt><trkpt lat="51.4507482" lon="-0.1548221"><ele>31.0</ele><time>2026-04-14T06:58:54.189Z</time></trkpt><trkpt lat="51.450823" lon="-0.154881"><ele>31.333333333333336</ele><time>2026-04-14T06:58:55.19Z</time></trkpt><trkpt lat="51.4508821" lon="-0.1549261"><ele>31.666666666666668</ele><time>2026-04-14T06:58:56.19Z</time></trkpt><trkpt lat="51.4509546" lon="-0.1549893"><ele>32.0</ele><time>2026-04-14T06:58:58.189Z</time></trkpt><trkpt lat="51.4509665" lon="-0.1550982"><ele>32.333333333333336</ele><time>2026-04-14T06:59:00.19Z</time></trkpt><trkpt lat="51.4509212" lon="-0.1553046"><ele>32.666666666666664</ele><time>2026-04-14T06:59:02.19Z</time></trkpt><trkpt lat="51.4508931" lon="-0.1554291"><ele>33.0</ele><time>2026-04-14T06:59:03.189Z</time></trkpt><trkpt lat="51.4508631" lon="-0.1555542"><ele>33.0</ele><time>2026-04-14T06:59:04.19Z</time></trkpt><trkpt lat="51.4508303" lon="-0.1556814"><ele>33.0</ele><time>2026-04-14T06:59:05.189Z</time></trkpt><trkpt lat="51.4507958" lon="-0.1558175"><ele>33.0</ele><time>2026-04-14T06:59:06.19Z</time></trkpt><trkpt lat="51.4507596" lon="-0.1559501"><ele>33.0</ele><time>2026-04-14T06:59:07.19Z</time></trkpt><trkpt lat="51.4507185" lon="-0.1560792"><ele>33.0</ele><time>2026-04-14T06:59:08.189Z</time></trkpt><trkpt lat="51.4506752" lon="-0.1562124"><ele>32.8</ele><time>2026-04-14T06:59:09.189Z</time></trkpt><trkpt lat="51.4506307" lon="-0.1563572"><ele>32.599999999999994</ele><time>2026-04-14T06:59:10.189Z</time></trkpt><trkpt lat="51.4505899" lon="-0.1564961"><ele>32.400000000000006</ele><time>2026-04-14T06:59:11.19Z</time></trkpt><trkpt lat="51.4505536" lon="-0.1566296"><ele>32.2</ele><time>2026-04-14T06:59:12.189Z</time></trkpt><trkpt lat="51.4505212" lon="-0.1567583"><ele>32.0</ele><time>2026-04-14T06:59:13.19Z</time></trkpt><trkpt lat="51.4504893" lon="-0.1568815"><ele>31.833333333333332</ele><time>2026-04-14T06:59:14.19Z</time></trkpt><trkpt lat="51.4504574" lon="-0.1569996"><ele>31.666666666666664</ele><time>2026-04-14T06:59:15.19Z</time></trkpt><trkpt lat="51.4504243" lon="-0.1571123"><ele>31.5</ele><time>2026-04-14T06:59:16.19Z</time></trkpt><trkpt lat="51.4503888" lon="-0.1572246"><ele>31.333333333333336</ele><time>2026-04-14T06:59:17.19Z</time></trkpt><trkpt lat="51.4503529" lon="-0.1573412"><ele>31.166666666666668</ele><time>2026-04-14T06:59:18.189Z</time></trkpt><trkpt lat="51.4503186" lon="-0.1574605"><ele>31.0</ele><time>2026-04-14T06:59:19.189Z</time></trkpt><trkpt lat="51.4502841" lon="-0.1575826"><ele>30.666666666666668</ele><time>2026-04-14T06:59:20.189Z</time></trkpt><trkpt lat="51.4502508" lon="-0.1577071"><ele>30.333333333333336</ele><time>2026-04-14T06:59:21.189Z</time></trkpt><trkpt lat="51.4502208" lon="-0.1578307"><ele>30.0</ele><time>2026-04-14T06:59:22.189Z</time></trkpt><trkpt lat="51.4501911" lon="-0.1579505"><ele>29.666666666666664</ele><time>2026-04-14T06:59:23.189Z</time></trkpt><trkpt lat="51.4501625" lon="-0.1580687"><ele>29.333333333333332</ele><time>2026-04-14T06:59:24.189Z</time></trkpt><trkpt lat="51.4501332" lon="-0.1581833"><ele>29.0</ele><time>2026-04-14T06:59:25.189Z</time></trkpt><trkpt lat="51.4501043" lon="-0.1582971"><ele>28.666666666666664</ele><time>2026-04-14T06:59:26.19Z</time></trkpt><trkpt lat="51.4500803" lon="-0.1584128"><ele>28.333333333333332</ele><time>2026-04-14T06:59:27.189Z</time></trkpt><trkpt lat="51.4500567" lon="-0.1585268"><ele>28.0</ele><time>2026-04-14T06:59:28.19Z</time></trkpt><trkpt lat="51.4500318" lon="-0.1586388"><ele>27.666666666666664</ele><time>2026-04-14T06:59:29.19Z</time></trkpt><trkpt lat="51.450008" lon="-0.1587511"><ele>27.333333333333332</ele><time>2026-04-14T06:59:30.19Z</time></trkpt><trkpt lat="51.4499843" lon="-0.1588659"><ele>27.0</ele><time>2026-04-14T06:59:31.189Z</time></trkpt><trkpt lat="51.4499598" lon="-0.1589815"><ele>27.0</ele><time>2026-04-14T06:59:32.19Z</time></trkpt><trkpt lat="51.449938" lon="-0.1590937"><ele>27.0</ele><time>2026-04-14T06:59:33.19Z</time></trkpt><trkpt lat="51.4499178" lon="-0.159216"><ele>27.0</ele><time>2026-04-14T06:59:34.189Z</time></trkpt><trkpt lat="51.4498953" lon="-0.1593372"><ele>27.0</ele><time>2026-04-14T06:59:35.189Z</time></trkpt><trkpt lat="51.4498707" lon="-0.1594506"><ele>27.0</ele><time>2026-04-14T06:59:36.19Z</time></trkpt><trkpt lat="51.4498377" lon="-0.1595574"><ele>27.0</ele><time>2026-04-14T06:59:37.19Z</time></trkpt><trkpt lat="51.449797" lon="-0.1596647"><ele>27.0</ele><time>2026-04-14T06:59:38.189Z</time></trkpt><trkpt lat="51.4497528" lon="-0.1597787"><ele>27.000000000000004</ele><time>2026-04-14T06:59:39.19Z</time></trkpt><trkpt lat="51.4497037" lon="-0.1599054"><ele>27.000000000000004</ele><time>2026-04-14T06:59:40.189Z</time></trkpt><trkpt lat="51.4496524" lon="-0.1600428"><ele>27.0</ele><time>2026-04-14T06:59:41.19Z</time></trkpt><trkpt lat="51.4496012" lon="-0.1601845"><ele>27.0</ele><time>2026-04-14T06:59:42.189Z</time></trkpt><trkpt lat="51.449551" lon="-0.1603293"><ele>26.200000000000003</ele><time>2026-04-14T06:59:43.19Z</time></trkpt><trkpt lat="51.4494981" lon="-0.1604796"><ele>25.400000000000002</ele><time>2026-04-14T06:59:44.189Z</time></trkpt><trkpt lat="51.4494447" lon="-0.1606317"><ele>24.6</ele><time>2026-04-14T06:59:45.19Z</time></trkpt><trkpt lat="51.449388" lon="-0.1607847"><ele>23.799999999999997</ele><time>2026-04-14T06:59:46.189Z</time></trkpt><trkpt lat="51.4493279" lon="-0.1609303"><ele>23.0</ele><time>2026-04-14T06:59:47.19Z</time></trkpt><trkpt lat="51.449269" lon="-0.1610776"><ele>22.599999999999998</ele><time>2026-04-14T06:59:48.19Z</time></trkpt><trkpt lat="51.4492132" lon="-0.16123"><ele>22.2</ele><time>2026-04-14T06:59:49.19Z</time></trkpt><trkpt lat="51.4491569" lon="-0.1613874"><ele>21.8</ele><time>2026-04-14T06:59:50.19Z</time></trkpt><trkpt lat="51.4490994" lon="-0.1615433"><ele>21.4</ele><time>2026-04-14T06:59:51.19Z</time></trkpt><trkpt lat="51.4490409" lon="-0.1616959"><ele>21.0</ele><time>2026-04-14T06:59:52.19Z</time></trkpt><trkpt lat="51.4489826" lon="-0.1618482"><ele>20.8</ele><time>2026-04-14T06:59:53.19Z</time></trkpt><trkpt lat="51.4489259" lon="-0.1619995"><ele>20.6</ele><time>2026-04-14T06:59:54.19Z</time></trkpt><trkpt lat="51.4488711" lon="-0.1621438"><ele>20.4</ele><time>2026-04-14T06:59:55.19Z</time></trkpt><trkpt lat="51.4488207" lon="-0.1622764"><ele>20.2</ele><time>2026-04-14T06:59:56.189Z</time></trkpt><trkpt lat="51.4487698" lon="-0.1624029"><ele>20.0</ele><time>2026-04-14T06:59:57.189Z</time></trkpt><trkpt lat="51.4487192" lon="-0.1625265"><ele>20.666666666666668</ele><time>2026-04-14T06:59:58.19Z</time></trkpt><trkpt lat="51.4486685" lon="-0.1626467"><ele>21.333333333333336</ele><time>2026-04-14T06:59:59.19Z</time></trkpt><trkpt lat="51.4486196" lon="-0.162763"><ele>22.0</ele><time>2026-04-14T07:00:00.19Z</time></trkpt><trkpt lat="51.4485756" lon="-0.1628691"><ele>22.666666666666668</ele><time>2026-04-14T07:00:01.19Z</time></trkpt><trkpt lat="51.448541" lon="-0.1629566"><ele>23.333333333333332</ele><time>2026-04-14T07:00:02.19Z</time></trkpt><trkpt lat="51.4484999" lon="-0.1630791"><ele>24.0</ele><time>2026-04-14T07:00:04.189Z</time></trkpt><trkpt lat="51.4484642" lon="-0.1631651"><ele>23.833333333333332</ele><time>2026-04-14T07:00:06.189Z</time></trkpt><trkpt lat="51.4484162" lon="-0.1632456"><ele>23.666666666666668</ele><time>2026-04-14T07:00:10.189Z</time></trkpt><trkpt lat="51.4483994" lon="-0.1633996"><ele>23.5</ele><time>2026-04-14T07:00:19.191Z</time></trkpt><trkpt lat="51.4484262" lon="-0.1634956"><ele>23.333333333333336</ele><time>2026-04-14T07:00:20.19Z</time></trkpt><trkpt lat="51.4484644" lon="-0.1635805"><ele>23.166666666666668</ele><time>2026-04-14T07:00:21.19Z</time></trkpt><trkpt lat="51.4485296" lon="-0.1636554"><ele>23.0</ele><time>2026-04-14T07:00:22.191Z</time></trkpt><trkpt lat="51.4486034" lon="-0.1637237"><ele>23.0</ele><time>2026-04-14T07:00:23.19Z</time></trkpt><trkpt lat="51.4486848" lon="-0.1637867"><ele>23.0</ele><time>2026-04-14T07:00:24.19Z</time></trkpt><trkpt lat="51.448768" lon="-0.1638456"><ele>23.0</ele><time>2026-04-14T07:00:25.191Z</time></trkpt><trkpt lat="51.4488536" lon="-0.1639035"><ele>23.0</ele><time>2026-04-14T07:00:26.19Z</time></trkpt><trkpt lat="51.4489388" lon="-0.1639615"><ele>23.0</ele><time>2026-04-14T07:00:27.191Z</time></trkpt><trkpt lat="51.4490231" lon="-0.1640248"><ele>22.799999999999997</ele><time>2026-04-14T07:00:28.191Z</time></trkpt><trkpt lat="51.4491075" lon="-0.1640862"><ele>22.6</ele><time>2026-04-14T07:00:29.191Z</time></trkpt><trkpt lat="51.4491931" lon="-0.1641498"><ele>22.4</ele><time>2026-04-14T07:00:30.191Z</time></trkpt><trkpt lat="51.4492799" lon="-0.1642131"><ele>22.200000000000003</ele><time>2026-04-14T07:00:31.19Z</time></trkpt><trkpt lat="51.4493644" lon="-0.164276"><ele>22.0</ele><time>2026-04-14T07:00:32.191Z</time></trkpt><trkpt lat="51.4494465" lon="-0.1643379"><ele>22.0</ele><time>2026-04-14T07:00:33.19Z</time></trkpt><trkpt lat="51.4495276" lon="-0.164404"><ele>22.0</ele><time>2026-04-14T07:00:34.191Z</time></trkpt><trkpt lat="51.4496119" lon="-0.1644685"><ele>22.0</ele><time>2026-04-14T07:00:35.19Z</time></trkpt><trkpt lat="51.4496986" lon="-0.1645284"><ele>22.0</ele><time>2026-04-14T07:00:36.19Z</time></trkpt><trkpt lat="51.4497836" lon="-0.1645841"><ele>22.0</ele><time>2026-04-14T07:00:37.191Z</time></trkpt><trkpt lat="51.4498702" lon="-0.1646403"><ele>22.25</ele><time>2026-04-14T07:00:38.191Z</time></trkpt><trkpt lat="51.4499566" lon="-0.1646999"><ele>22.5</ele><time>2026-04-14T07:00:39.19Z</time></trkpt><trkpt lat="51.4501438" lon="-0.1648478"><ele>22.75</ele><time>2026-04-14T07:00:41.191Z</time></trkpt><trkpt lat="51.450235" lon="-0.1649136"><ele>23.0</ele><time>2026-04-14T07:00:42.191Z</time></trkpt><trkpt lat="51.4503189" lon="-0.1649748"><ele>23.166666666666668</ele><time>2026-04-14T07:00:43.191Z</time></trkpt><trkpt lat="51.4504009" lon="-0.1650325"><ele>23.333333333333336</ele><time>2026-04-14T07:00:44.191Z</time></trkpt><trkpt lat="51.4504787" lon="-0.1650921"><ele>23.5</ele><time>2026-04-14T07:00:45.191Z</time></trkpt><trkpt lat="51.4505538" lon="-0.1651524"><ele>23.666666666666668</ele><time>2026-04-14T07:00:46.19Z</time></trkpt><trkpt lat="51.4506292" lon="-0.1652071"><ele>23.833333333333332</ele><time>2026-04-14T07:00:47.191Z</time></trkpt><trkpt lat="51.4507005" lon="-0.1652578"><ele>24.0</ele><time>2026-04-14T07:00:48.191Z</time></trkpt><trkpt lat="51.45077" lon="-0.1653048"><ele>24.0</ele><time>2026-04-14T07:00:49.191Z</time></trkpt><trkpt lat="51.4508362" lon="-0.1653488"><ele>24.0</ele><time>2026-04-14T07:00:50.191Z</time></trkpt><trkpt lat="51.4508972" lon="-0.1653939"><ele>24.0</ele><time>2026-04-14T07:00:51.191Z</time></trkpt><trkpt lat="51.4509556" lon="-0.1654366"><ele>24.0</ele><time>2026-04-14T07:00:52.191Z</time></trkpt><trkpt lat="51.4510589" lon="-0.1655156"><ele>24.0</ele><time>2026-04-14T07:00:54.191Z</time></trkpt><trkpt lat="51.4511635" lon="-0.1655915"><ele>24.0</ele><time>2026-04-14T07:00:56.19Z</time></trkpt><trkpt lat="51.4512624" lon="-0.1656616"><ele>24.25</ele><time>2026-04-14T07:00:58.19Z</time></trkpt><trkpt lat="51.4513634" lon="-0.1657343"><ele>24.5</ele><time>2026-04-14T07:01:00.191Z</time></trkpt><trkpt lat="51.4514781" lon="-0.1658233"><ele>24.75</ele><time>2026-04-14T07:01:02.191Z</time></trkpt><trkpt lat="51.4515855" lon="-0.1659029"><ele>25.0</ele><time>2026-04-14T07:01:04.191Z</time></trkpt><trkpt lat="51.4516895" lon="-0.1659772"><ele>25.0</ele><time>2026-04-14T07:01:06.19Z</time></trkpt><trkpt lat="51.4517845" lon="-0.1660524"><ele>25.0</ele><time>2026-04-14T07:01:08.191Z</time></trkpt><trkpt lat="51.4518903" lon="-0.1661234"><ele>25.0</ele><time>2026-04-14T07:01:10.191Z</time></trkpt><trkpt lat="51.4519809" lon="-0.1661836"><ele>25.0</ele><time>2026-04-14T07:01:12.19Z</time></trkpt><trkpt lat="51.4520705" lon="-0.1662103"><ele>25.0</ele><time>2026-04-14T07:01:15.191Z</time></trkpt><trkpt lat="51.4521583" lon="-0.1662768"><ele>24.6</ele><time>2026-04-14T07:01:17.19Z</time></trkpt><trkpt lat="51.4522336" lon="-0.1663276"><ele>24.2</ele><time>2026-04-14T07:01:19.191Z</time></trkpt><trkpt lat="51.4523264" lon="-0.1663925"><ele>23.799999999999997</ele><time>2026-04-14T07:01:21.191Z</time></trkpt><trkpt lat="51.4524325" lon="-0.1664592"><ele>23.4</ele><time>2026-04-14T07:01:23.191Z</time></trkpt><trkpt lat="51.4525383" lon="-0.1665328"><ele>23.0</ele><time>2026-04-14T07:01:25.191Z</time></trkpt><trkpt lat="51.452617" lon="-0.1665957"><ele>23.0</ele><time>2026-04-14T07:01:27.19Z</time></trkpt><trkpt lat="51.4526782" lon="-0.1666466"><ele>23.0</ele><time>2026-04-14T07:01:30.191Z</time></trkpt><trkpt lat="51.4527463" lon="-0.1667134"><ele>23.0</ele><time>2026-04-14T07:01:38.19Z</time></trkpt><trkpt lat="51.4528191" lon="-0.1667565"><ele>23.0</ele><time>2026-04-14T07:01:39.191Z</time></trkpt><trkpt lat="51.4529033" lon="-0.1668045"><ele>23.0</ele><time>2026-04-14T07:01:40.191Z</time></trkpt><trkpt lat="51.4530055" lon="-0.1668719"><ele>23.0</ele><time>2026-04-14T07:01:41.191Z</time></trkpt><trkpt lat="51.4531087" lon="-0.1669354"><ele>22.799999999999997</ele><time>2026-04-14T07:01:42.19Z</time></trkpt><trkpt lat="51.4532205" lon="-0.1670061"><ele>22.6</ele><time>2026-04-14T07:01:43.19Z</time></trkpt><trkpt lat="51.4533243" lon="-0.1670748"><ele>22.4</ele><time>2026-04-14T07:01:44.19Z</time></trkpt><trkpt lat="51.4534128" lon="-0.1671402"><ele>22.200000000000003</ele><time>2026-04-14T07:01:45.191Z</time></trkpt><trkpt lat="51.4534964" lon="-0.1671966"><ele>22.0</ele><time>2026-04-14T07:01:46.192Z</time></trkpt><trkpt lat="51.4535773" lon="-0.1672539"><ele>22.0</ele><time>2026-04-14T07:01:47.192Z</time></trkpt><trkpt lat="51.4536591" lon="-0.1673098"><ele>22.0</ele><time>2026-04-14T07:01:48.192Z</time></trkpt><trkpt lat="51.4537409" lon="-0.1673633"><ele>22.0</ele><time>2026-04-14T07:01:49.191Z</time></trkpt><trkpt lat="51.4538189" lon="-0.1674143"><ele>22.0</ele><time>2026-04-14T07:01:50.192Z</time></trkpt><trkpt lat="51.4538933" lon="-0.1674575"><ele>22.0</ele><time>2026-04-14T07:01:51.191Z</time></trkpt><trkpt lat="51.4539707" lon="-0.1675044"><ele>22.0</ele><time>2026-04-14T07:01:52.192Z</time></trkpt><trkpt lat="51.4540534" lon="-0.1675579"><ele>21.833333333333332</ele><time>2026-04-14T07:01:53.191Z</time></trkpt><trkpt lat="51.4541365" lon="-0.1676128"><ele>21.666666666666664</ele><time>2026-04-14T07:01:54.192Z</time></trkpt><trkpt lat="51.4542124" lon="-0.1676639"><ele>21.5</ele><time>2026-04-14T07:01:55.192Z</time></trkpt><trkpt lat="51.4542896" lon="-0.1677117"><ele>21.333333333333332</ele><time>2026-04-14T07:01:56.192Z</time></trkpt><trkpt lat="51.454364" lon="-0.167759"><ele>21.166666666666668</ele><time>2026-04-14T07:01:57.192Z</time></trkpt><trkpt lat="51.4544398" lon="-0.16781"><ele>21.0</ele><time>2026-04-14T07:01:58.192Z</time></trkpt><trkpt lat="51.4545161" lon="-0.1678593"><ele>21.0</ele><time>2026-04-14T07:01:59.192Z</time></trkpt><trkpt lat="51.4545907" lon="-0.1679063"><ele>21.0</ele><time>2026-04-14T07:02:00.191Z</time></trkpt><trkpt lat="51.4546639" lon="-0.1679569"><ele>21.0</ele><time>2026-04-14T07:02:01.191Z</time></trkpt><trkpt lat="51.454741" lon="-0.1680099"><ele>21.0</ele><time>2026-04-14T07:02:02.192Z</time></trkpt><trkpt lat="51.4548173" lon="-0.1680627"><ele>21.0</ele><time>2026-04-14T07:02:03.191Z</time></trkpt><trkpt lat="51.454886" lon="-0.1681136"><ele>21.0</ele><time>2026-04-14T07:02:04.192Z</time></trkpt><trkpt lat="51.4549547" lon="-0.1681656"><ele>21.0</ele><time>2026-04-14T07:02:05.192Z</time></trkpt><trkpt lat="51.455029" lon="-0.1682249"><ele>21.0</ele><time>2026-04-14T07:02:06.192Z</time></trkpt><trkpt lat="51.455104" lon="-0.1682793"><ele>21.0</ele><time>2026-04-14T07:02:07.191Z</time></trkpt><trkpt lat="51.4551795" lon="-0.1683314"><ele>21.0</ele><time>2026-04-14T07:02:08.192Z</time></trkpt><trkpt lat="51.4553271" lon="-0.1684362"><ele>21.0</ele><time>2026-04-14T07:02:10.191Z</time></trkpt><trkpt lat="51.4553962" lon="-0.1684943"><ele>21.333333333333332</ele><time>2026-04-14T07:02:11.192Z</time></trkpt><trkpt lat="51.4554691" lon="-0.168552"><ele>21.666666666666668</ele><time>2026-04-14T07:02:12.192Z</time></trkpt><trkpt lat="51.4555398" lon="-0.16861"><ele>22.0</ele><time>2026-04-14T07:02:13.192Z</time></trkpt><trkpt lat="51.4556136" lon="-0.168675"><ele>22.333333333333336</ele><time>2026-04-14T07:02:14.192Z</time></trkpt><trkpt lat="51.4556876" lon="-0.1687412"><ele>22.666666666666668</ele><time>2026-04-14T07:02:15.192Z</time></trkpt><trkpt lat="51.4557629" lon="-0.1688061"><ele>23.0</ele><time>2026-04-14T07:02:16.192Z</time></trkpt><trkpt lat="51.4558393" lon="-0.1688725"><ele>23.0</ele><time>2026-04-14T07:02:17.192Z</time></trkpt><trkpt lat="51.4559169" lon="-0.168944"><ele>23.0</ele><time>2026-04-14T07:02:18.192Z</time></trkpt><trkpt lat="51.4559978" lon="-0.1690173"><ele>23.0</ele><time>2026-04-14T07:02:19.191Z</time></trkpt><trkpt lat="51.4560746" lon="-0.169091"><ele>23.0</ele><time>2026-04-14T07:02:20.192Z</time></trkpt><trkpt lat="51.456152" lon="-0.169159"><ele>23.0</ele><time>2026-04-14T07:02:21.191Z</time></trkpt><trkpt lat="51.4562315" lon="-0.1692301"><ele>22.4</ele><time>2026-04-14T07:02:22.192Z</time></trkpt><trkpt lat="51.4563124" lon="-0.1692996"><ele>21.799999999999997</ele><time>2026-04-14T07:02:23.192Z</time></trkpt><trkpt lat="51.4563938" lon="-0.1693686"><ele>21.2</ele><time>2026-04-14T07:02:24.191Z</time></trkpt><trkpt lat="51.4564761" lon="-0.1694415"><ele>20.6</ele><time>2026-04-14T07:02:25.192Z</time></trkpt><trkpt lat="51.4565527" lon="-0.1695062"><ele>20.0</ele><time>2026-04-14T07:02:26.192Z</time></trkpt><trkpt lat="51.4566351" lon="-0.1695704"><ele>20.0</ele><time>2026-04-14T07:02:27.192Z</time></trkpt><trkpt lat="51.4567177" lon="-0.1696299"><ele>20.0</ele><time>2026-04-14T07:02:28.192Z</time></trkpt><trkpt lat="51.4568032" lon="-0.1696923"><ele>20.0</ele><time>2026-04-14T07:02:29.191Z</time></trkpt><trkpt lat="51.4568914" lon="-0.1697554"><ele>20.0</ele><time>2026-04-14T07:02:30.192Z</time></trkpt><trkpt lat="51.4569795" lon="-0.1698161"><ele>20.0</ele><time>2026-04-14T07:02:31.192Z</time></trkpt><trkpt lat="51.4570666" lon="-0.1698737"><ele>20.0</ele><time>2026-04-14T07:02:32.191Z</time></trkpt><trkpt lat="51.4571524" lon="-0.1699296"><ele>20.0</ele><time>2026-04-14T07:02:33.192Z</time></trkpt><trkpt lat="51.4572398" lon="-0.1699787"><ele>20.0</ele><time>2026-04-14T07:02:34.191Z</time></trkpt><trkpt lat="51.4573275" lon="-0.1700258"><ele>20.0</ele><time>2026-04-14T07:02:35.192Z</time></trkpt><trkpt lat="51.4574115" lon="-0.1700696"><ele>20.0</ele><time>2026-04-14T07:02:36.192Z</time></trkpt><trkpt lat="51.4574975" lon="-0.1701128"><ele>20.0</ele><time>2026-04-14T07:02:37.191Z</time></trkpt><trkpt lat="51.4575874" lon="-0.170155"><ele>20.0</ele><time>2026-04-14T07:02:38.192Z</time></trkpt><trkpt lat="51.4576772" lon="-0.1701944"><ele>20.0</ele><time>2026-04-14T07:02:39.192Z</time></trkpt><trkpt lat="51.4577669" lon="-0.1702336"><ele>20.0</ele><time>2026-04-14T07:02:40.192Z</time></trkpt><trkpt lat="51.4578581" lon="-0.1702708"><ele>20.0</ele><time>2026-04-14T07:02:41.192Z</time></trkpt><trkpt lat="51.4579484" lon="-0.1703081"><ele>19.666666666666668</ele><time>2026-04-14T07:02:42.191Z</time></trkpt><trkpt lat="51.458053" lon="-0.170353"><ele>19.333333333333332</ele><time>2026-04-14T07:02:43.191Z</time></trkpt><trkpt lat="51.4583207" lon="-0.1704779"><ele>19.0</ele><time>2026-04-14T07:02:45.192Z</time></trkpt><trkpt lat="51.4584571" lon="-0.1705394"><ele>19.0</ele><time>2026-04-14T07:02:46.191Z</time></trkpt><trkpt lat="51.4585856" lon="-0.1705966"><ele>19.0</ele><time>2026-04-14T07:02:47.192Z</time></trkpt><trkpt lat="51.458706" lon="-0.1706472"><ele>19.0</ele><time>2026-04-14T07:02:48.191Z</time></trkpt><trkpt lat="51.4588268" lon="-0.1707003"><ele>19.0</ele><time>2026-04-14T07:02:49.192Z</time></trkpt><trkpt lat="51.4589544" lon="-0.1707611"><ele>19.5</ele><time>2026-04-14T07:02:50.192Z</time></trkpt><trkpt lat="51.4590749" lon="-0.1708143"><ele>20.0</ele><time>2026-04-14T07:02:51.191Z</time></trkpt><trkpt lat="51.4591877" lon="-0.170868"><ele>20.5</ele><time>2026-04-14T07:02:52.191Z</time></trkpt><trkpt lat="51.4592949" lon="-0.1709202"><ele>21.0</ele><time>2026-04-14T07:02:53.192Z</time></trkpt><trkpt lat="51.4593947" lon="-0.1709706"><ele>21.0</ele><time>2026-04-14T07:02:54.191Z</time></trkpt><trkpt lat="51.4594865" lon="-0.1710127"><ele>21.0</ele><time>2026-04-14T07:02:55.191Z</time></trkpt><trkpt lat="51.4595595" lon="-0.1710443"><ele>21.0</ele><time>2026-04-14T07:02:56.191Z</time></trkpt><trkpt lat="51.4596226" lon="-0.1710695"><ele>21.0</ele><time>2026-04-14T07:02:57.191Z</time></trkpt><trkpt lat="51.4597287" lon="-0.1711851"><ele>21.0</ele><time>2026-04-14T07:03:04.192Z</time></trkpt><trkpt lat="51.4598006" lon="-0.1711652"><ele>21.0</ele><time>2026-04-14T07:03:28.192Z</time></trkpt><trkpt lat="51.4598654" lon="-0.1711792"><ele>21.0</ele><time>2026-04-14T07:03:32.192Z</time></trkpt><trkpt lat="51.4599453" lon="-0.1711244"><ele>21.0</ele><time>2026-04-14T07:03:35.192Z</time></trkpt><trkpt lat="51.4600081" lon="-0.1709728"><ele>21.0</ele><time>2026-04-14T07:03:37.193Z</time></trkpt><trkpt lat="51.4600456" lon="-0.1708753"><ele>21.0</ele><time>2026-04-14T07:03:38.193Z</time></trkpt><trkpt lat="51.4600854" lon="-0.1707703"><ele>21.0</ele><time>2026-04-14T07:03:39.192Z</time></trkpt><trkpt lat="51.460126" lon="-0.1706577"><ele>21.0</ele><time>2026-04-14T07:03:40.193Z</time></trkpt><trkpt lat="51.460167" lon="-0.1705419"><ele>21.0</ele><time>2026-04-14T07:03:41.193Z</time></trkpt><trkpt lat="51.4602064" lon="-0.1704265"><ele>21.0</ele><time>2026-04-14T07:03:42.192Z</time></trkpt><trkpt lat="51.4602452" lon="-0.1703123"><ele>21.0</ele><time>2026-04-14T07:03:43.193Z</time></trkpt><trkpt lat="51.4602839" lon="-0.1701965"><ele>21.0</ele><time>2026-04-14T07:03:44.192Z</time></trkpt><trkpt lat="51.4603219" lon="-0.1700759"><ele>21.0</ele><time>2026-04-14T07:03:45.192Z</time></trkpt><trkpt lat="51.460357" lon="-0.1699534"><ele>21.0</ele><time>2026-04-14T07:03:46.192Z</time></trkpt><trkpt lat="51.4603922" lon="-0.1698311"><ele>20.2</ele><time>2026-04-14T07:03:47.192Z</time></trkpt><trkpt lat="51.4604272" lon="-0.1697096"><ele>19.400000000000002</ele><time>2026-04-14T07:03:48.193Z</time></trkpt><trkpt lat="51.4604589" lon="-0.1695901"><ele>18.6</ele><time>2026-04-14T07:03:49.193Z</time></trkpt><trkpt lat="51.4604872" lon="-0.1694788"><ele>17.8</ele><time>2026-04-14T07:03:50.193Z</time></trkpt><trkpt lat="51.4605273" lon="-0.169298"><ele>17.0</ele><time>2026-04-14T07:03:52.192Z</time></trkpt><trkpt lat="51.4605659" lon="-0.1691353"><ele>16.5</ele><time>2026-04-14T07:03:54.192Z</time></trkpt><trkpt lat="51.4605941" lon="-0.1689551"><ele>16.0</ele><time>2026-04-14T07:03:56.192Z</time></trkpt><trkpt lat="51.4606089" lon="-0.1688347"><ele>15.5</ele><time>2026-04-14T07:03:57.192Z</time></trkpt><trkpt lat="51.4606279" lon="-0.1687055"><ele>15.0</ele><time>2026-04-14T07:03:58.193Z</time></trkpt><trkpt lat="51.4606493" lon="-0.1685784"><ele>14.500000000000002</ele><time>2026-04-14T07:03:59.193Z</time></trkpt><trkpt lat="51.4606674" lon="-0.1684678"><ele>14.0</ele><time>2026-04-14T07:04:00.193Z</time></trkpt><trkpt lat="51.4606951" lon="-0.1682885"><ele>13.833333333333334</ele><time>2026-04-14T07:04:02.193Z</time></trkpt><trkpt lat="51.4607213" lon="-0.1681"><ele>13.666666666666668</ele><time>2026-04-14T07:04:04.193Z</time></trkpt><trkpt lat="51.4607384" lon="-0.1679984"><ele>13.5</ele><time>2026-04-14T07:04:05.193Z</time></trkpt><trkpt lat="51.4607566" lon="-0.1678921"><ele>13.333333333333332</ele><time>2026-04-14T07:04:06.193Z</time></trkpt><trkpt lat="51.4607738" lon="-0.1677913"><ele>13.166666666666666</ele><time>2026-04-14T07:04:07.193Z</time></trkpt><trkpt lat="51.4607901" lon="-0.1676931"><ele>13.0</ele><time>2026-04-14T07:04:08.193Z</time></trkpt><trkpt lat="51.4608153" lon="-0.1675137"><ele>13.2</ele><time>2026-04-14T07:04:10.193Z</time></trkpt><trkpt lat="51.4608292" lon="-0.1673586"><ele>13.4</ele><time>2026-04-14T07:04:13.193Z</time></trkpt><trkpt lat="51.4608521" lon="-0.1672548"><ele>13.599999999999998</ele><time>2026-04-14T07:04:17.193Z</time></trkpt><trkpt lat="51.4608657" lon="-0.1671"><ele>13.799999999999999</ele><time>2026-04-14T07:04:52.194Z</time></trkpt><trkpt lat="51.4608449" lon="-0.166888"><ele>14.0</ele><time>2026-04-14T07:04:54.194Z</time></trkpt><trkpt lat="51.4608406" lon="-0.1667533"><ele>14.0</ele><time>2026-04-14T07:04:55.194Z</time></trkpt><trkpt lat="51.4608403" lon="-0.1666156"><ele>14.0</ele><time>2026-04-14T07:04:56.193Z</time></trkpt><trkpt lat="51.4608449" lon="-0.1664731"><ele>14.0</ele><time>2026-04-14T07:04:57.194Z</time></trkpt><trkpt lat="51.4608933" lon="-0.1656223"><ele>15.333333333333334</ele><time>2026-04-14T07:05:06.193Z</time></trkpt><trkpt lat="51.4609426" lon="-0.1650308"><ele>16.666666666666668</ele><time>2026-04-14T07:05:13.194Z</time></trkpt><trkpt lat="51.4609516" lon="-0.1649286"><ele>18.0</ele><time>2026-04-14T07:05:14.194Z</time></trkpt><trkpt lat="51.4609553" lon="-0.164743"><ele>18.5</ele><time>2026-04-14T07:05:16.194Z</time></trkpt><trkpt lat="51.4609616" lon="-0.1645573"><ele>19.0</ele><time>2026-04-14T07:05:18.194Z</time></trkpt><trkpt lat="51.4609586" lon="-0.1643929"><ele>19.5</ele><time>2026-04-14T07:05:20.193Z</time></trkpt><trkpt lat="51.4609771" lon="-0.1642043"><ele>20.0</ele><time>2026-04-14T07:05:22.194Z</time></trkpt><trkpt lat="51.4609843" lon="-0.1640113"><ele>20.2</ele><time>2026-04-14T07:05:24.193Z</time></trkpt><trkpt lat="51.4609929" lon="-0.1638354"><ele>20.4</ele><time>2026-04-14T07:05:26.194Z</time></trkpt><trkpt lat="51.4610096" lon="-0.1636404"><ele>20.6</ele><time>2026-04-14T07:05:28.194Z</time></trkpt><trkpt lat="51.4610274" lon="-0.1634578"><ele>20.8</ele><time>2026-04-14T07:05:30.193Z</time></trkpt><trkpt lat="51.4610443" lon="-0.1633109"><ele>21.0</ele><time>2026-04-14T07:05:32.194Z</time></trkpt><trkpt lat="51.4610901" lon="-0.1632169"><ele>21.0</ele><time>2026-04-14T07:05:35.194Z</time></trkpt><trkpt lat="51.4611519" lon="-0.163382"><ele>21.0</ele><time>2026-04-14T07:05:44.194Z</time></trkpt><trkpt lat="51.4611792" lon="-0.1634853"><ele>21.0</ele><time>2026-04-14T07:05:46.194Z</time></trkpt><trkpt lat="51.4612036" lon="-0.1636083"><ele>21.0</ele><time>2026-04-14T07:05:48.194Z</time></trkpt><trkpt lat="51.4612452" lon="-0.1637724"><ele>21.0</ele><time>2026-04-14T07:05:50.194Z</time></trkpt><trkpt lat="51.4612735" lon="-0.1638758"><ele>20.857142857142858</ele><time>2026-04-14T07:05:51.193Z</time></trkpt><trkpt lat="51.4613049" lon="-0.1639854"><ele>20.714285714285715</ele><time>2026-04-14T07:05:52.194Z</time></trkpt><trkpt lat="51.4613401" lon="-0.1640878"><ele>20.57142857142857</ele><time>2026-04-14T07:05:53.193Z</time></trkpt><trkpt lat="51.461378" lon="-0.1641833"><ele>20.42857142857143</ele><time>2026-04-14T07:05:54.193Z</time></trkpt><trkpt lat="51.4614118" lon="-0.1642702"><ele>20.285714285714285</ele><time>2026-04-14T07:05:55.193Z</time></trkpt><trkpt lat="51.4614446" lon="-0.1643608"><ele>20.142857142857142</ele><time>2026-04-14T07:05:56.193Z</time></trkpt><trkpt lat="51.4614848" lon="-0.1644536"><ele>20.0</ele><time>2026-04-14T07:05:57.194Z</time></trkpt><trkpt lat="51.4615292" lon="-0.1645426"><ele>19.666666666666668</ele><time>2026-04-14T07:05:58.194Z</time></trkpt><trkpt lat="51.4615794" lon="-0.1646243"><ele>19.333333333333336</ele><time>2026-04-14T07:05:59.194Z</time></trkpt><trkpt lat="51.4616257" lon="-0.1646961"><ele>19.0</ele><time>2026-04-14T07:06:00.193Z</time></trkpt><trkpt lat="51.461696" lon="-0.1648093"><ele>18.666666666666668</ele><time>2026-04-14T07:06:02.193Z</time></trkpt><trkpt lat="51.4617659" lon="-0.1648899"><ele>18.333333333333332</ele><time>2026-04-14T07:06:04.194Z</time></trkpt><trkpt lat="51.4618409" lon="-0.1649989"><ele>18.0</ele><time>2026-04-14T07:06:06.193Z</time></trkpt><trkpt lat="51.4618965" lon="-0.1650609"><ele>17.833333333333332</ele><time>2026-04-14T07:06:07.193Z</time></trkpt><trkpt lat="51.4619544" lon="-0.1651219"><ele>17.666666666666668</ele><time>2026-04-14T07:06:08.194Z</time></trkpt><trkpt lat="51.4620582" lon="-0.165183"><ele>17.5</ele><time>2026-04-14T07:06:10.193Z</time></trkpt><trkpt lat="51.4621238" lon="-0.1652291"><ele>17.333333333333336</ele><time>2026-04-14T07:06:11.194Z</time></trkpt><trkpt lat="51.4621941" lon="-0.1652811"><ele>17.166666666666668</ele><time>2026-04-14T07:06:12.194Z</time></trkpt><trkpt lat="51.4622651" lon="-0.1653268"><ele>17.0</ele><time>2026-04-14T07:06:13.194Z</time></trkpt><trkpt lat="51.4623279" lon="-0.1653604"><ele>17.285714285714285</ele><time>2026-04-14T07:06:14.195Z</time></trkpt><trkpt lat="51.4623971" lon="-0.1653852"><ele>17.57142857142857</ele><time>2026-04-14T07:06:15.194Z</time></trkpt><trkpt lat="51.4624647" lon="-0.1654107"><ele>17.857142857142854</ele><time>2026-04-14T07:06:16.193Z</time></trkpt><trkpt lat="51.4625277" lon="-0.1654291"><ele>18.142857142857142</ele><time>2026-04-14T07:06:17.193Z</time></trkpt><trkpt lat="51.4625898" lon="-0.1654483"><ele>18.42857142857143</ele><time>2026-04-14T07:06:18.195Z</time></trkpt><trkpt lat="51.4626543" lon="-0.1654595"><ele>18.71428571428571</ele><time>2026-04-14T07:06:19.195Z</time></trkpt><trkpt lat="51.4627266" lon="-0.1654712"><ele>19.0</ele><time>2026-04-14T07:06:20.195Z</time></trkpt><trkpt lat="51.4628133" lon="-0.1654799"><ele>19.0</ele><time>2026-04-14T07:06:21.194Z</time></trkpt><trkpt lat="51.4628996" lon="-0.1654766"><ele>19.0</ele><time>2026-04-14T07:06:22.195Z</time></trkpt><trkpt lat="51.4629901" lon="-0.1654604"><ele>19.0</ele><time>2026-04-14T07:06:23.194Z</time></trkpt><trkpt lat="51.4630705" lon="-0.1654449"><ele>19.0</ele><time>2026-04-14T07:06:24.195Z</time></trkpt><trkpt lat="51.4631422" lon="-0.1654206"><ele>19.0</ele><time>2026-04-14T07:06:25.194Z</time></trkpt><trkpt lat="51.463207" lon="-0.1653945"><ele>19.0</ele><time>2026-04-14T07:06:26.194Z</time></trkpt><trkpt lat="51.4632712" lon="-0.1653675"><ele>18.71428571428571</ele><time>2026-04-14T07:06:27.195Z</time></trkpt><trkpt lat="51.4633389" lon="-0.165332"><ele>18.42857142857143</ele><time>2026-04-14T07:06:28.195Z</time></trkpt><trkpt lat="51.4634054" lon="-0.1652879"><ele>18.142857142857142</ele><time>2026-04-14T07:06:29.194Z</time></trkpt><trkpt lat="51.4634733" lon="-0.165244"><ele>17.857142857142854</ele><time>2026-04-14T07:06:30.195Z</time></trkpt><trkpt lat="51.4635387" lon="-0.1652006"><ele>17.57142857142857</ele><time>2026-04-14T07:06:31.194Z</time></trkpt><trkpt lat="51.4636053" lon="-0.1651445"><ele>17.285714285714285</ele><time>2026-04-14T07:06:32.194Z</time></trkpt><trkpt lat="51.463667" lon="-0.1650867"><ele>17.0</ele><time>2026-04-14T07:06:33.194Z</time></trkpt><trkpt lat="51.4637645" lon="-0.1649935"><ele>17.0</ele><time>2026-04-14T07:06:35.195Z</time></trkpt><trkpt lat="51.4638344" lon="-0.1648921"><ele>17.0</ele><time>2026-04-14T07:06:37.194Z</time></trkpt><trkpt lat="51.4638755" lon="-0.1648"><ele>17.0</ele><time>2026-04-14T07:06:39.194Z</time></trkpt><trkpt lat="51.4638437" lon="-0.1646721"><ele>17.0</ele><time>2026-04-14T07:06:41.195Z</time></trkpt><trkpt lat="51.4637528" lon="-0.1645687"><ele>17.0</ele><time>2026-04-14T07:06:43.194Z</time></trkpt><trkpt lat="51.4636798" lon="-0.1645308"><ele>17.0</ele><time>2026-04-14T07:06:44.195Z</time></trkpt><trkpt lat="51.4635978" lon="-0.1644921"><ele>17.666666666666668</ele><time>2026-04-14T07:06:45.194Z</time></trkpt><trkpt lat="51.4635201" lon="-0.1644524"><ele>18.333333333333336</ele><time>2026-04-14T07:06:46.195Z</time></trkpt><trkpt lat="51.4634509" lon="-0.1644131"><ele>19.0</ele><time>2026-04-14T07:06:47.194Z</time></trkpt><trkpt lat="51.4633837" lon="-0.1643898"><ele>19.666666666666668</ele><time>2026-04-14T07:06:48.194Z</time></trkpt><trkpt lat="51.4633029" lon="-0.1644056"><ele>20.333333333333332</ele><time>2026-04-14T07:06:49.194Z</time></trkpt><trkpt lat="51.4632001" lon="-0.1644863"><ele>21.0</ele><time>2026-04-14T07:06:50.194Z</time></trkpt><trkpt lat="51.463123" lon="-0.1645534"><ele>21.0</ele><time>2026-04-14T07:06:51.194Z</time></trkpt><trkpt lat="51.4630501" lon="-0.1645989"><ele>21.0</ele><time>2026-04-14T07:06:52.194Z</time></trkpt><trkpt lat="51.46297" lon="-0.1646316"><ele>21.0</ele><time>2026-04-14T07:06:53.195Z</time></trkpt><trkpt lat="51.4628893" lon="-0.1646494"><ele>21.0</ele><time>2026-04-14T07:06:54.194Z</time></trkpt><trkpt lat="51.462803" lon="-0.1646631"><ele>21.0</ele><time>2026-04-14T07:06:55.195Z</time></trkpt><trkpt lat="51.4627287" lon="-0.1646668"><ele>21.0</ele><time>2026-04-14T07:06:56.195Z</time></trkpt><trkpt lat="51.4626361" lon="-0.1646717"><ele>20.8</ele><time>2026-04-14T07:06:58.195Z</time></trkpt><trkpt lat="51.4625296" lon="-0.1646"><ele>20.6</ele><time>2026-04-14T07:08:22.196Z</time></trkpt><trkpt lat="51.4624033" lon="-0.1645435"><ele>20.4</ele><time>2026-04-14T07:08:24.195Z</time></trkpt><trkpt lat="51.4623215" lon="-0.1644985"><ele>20.2</ele><time>2026-04-14T07:08:25.196Z</time></trkpt><trkpt lat="51.4622426" lon="-0.1644307"><ele>20.0</ele><time>2026-04-14T07:08:26.196Z</time></trkpt><trkpt lat="51.4621649" lon="-0.1643494"><ele>20.0</ele><time>2026-04-14T07:08:27.196Z</time></trkpt><trkpt lat="51.4620945" lon="-0.1642641"><ele>20.0</ele><time>2026-04-14T07:08:28.196Z</time></trkpt><trkpt lat="51.462028" lon="-0.1641919"><ele>20.0</ele><time>2026-04-14T07:08:29.195Z</time></trkpt><trkpt lat="51.4619692" lon="-0.1641151"><ele>20.0</ele><time>2026-04-14T07:08:30.196Z</time></trkpt><trkpt lat="51.4619095" lon="-0.1640126"><ele>20.0</ele><time>2026-04-14T07:08:31.196Z</time></trkpt><trkpt lat="51.4618482" lon="-0.1638732"><ele>20.0</ele><time>2026-04-14T07:08:32.196Z</time></trkpt><trkpt lat="51.4617884" lon="-0.163746"><ele>20.0</ele><time>2026-04-14T07:08:33.196Z</time></trkpt><trkpt lat="51.4617502" lon="-0.1636413"><ele>20.0</ele><time>2026-04-14T07:08:34.195Z</time></trkpt><trkpt lat="51.4617137" lon="-0.1634726"><ele>20.0</ele><time>2026-04-14T07:08:36.196Z</time></trkpt><trkpt lat="51.46168" lon="-0.1633143"><ele>20.0</ele><time>2026-04-14T07:08:38.195Z</time></trkpt><trkpt lat="51.4616227" lon="-0.1631829"><ele>20.0</ele><time>2026-04-14T07:08:40.195Z</time></trkpt><trkpt lat="51.461501" lon="-0.1631115"><ele>20.5</ele><time>2026-04-14T07:08:42.196Z</time></trkpt><trkpt lat="51.4613775" lon="-0.1630854"><ele>21.0</ele><time>2026-04-14T07:08:44.196Z</time></trkpt><trkpt lat="51.4613149" lon="-0.1630585"><ele>21.5</ele><time>2026-04-14T07:08:45.196Z</time></trkpt><trkpt lat="51.4612187" lon="-0.16302"><ele>22.0</ele><time>2026-04-14T07:08:47.196Z</time></trkpt><trkpt lat="51.4610607" lon="-0.1628899"><ele>22.0</ele><time>2026-04-14T07:08:53.196Z</time></trkpt><trkpt lat="51.4610827" lon="-0.1627257"><ele>22.0</ele><time>2026-04-14T07:08:55.196Z</time></trkpt><trkpt lat="51.4611011" lon="-0.1624955"><ele>22.0</ele><time>2026-04-14T07:08:58.195Z</time></trkpt><trkpt lat="51.4611118" lon="-0.1622953"><ele>22.0</ele><time>2026-04-14T07:09:01.195Z</time></trkpt><trkpt lat="51.4611172" lon="-0.1621647"><ele>22.0</ele><time>2026-04-14T07:09:03.196Z</time></trkpt><trkpt lat="51.4611248" lon="-0.1620637"><ele>22.0</ele><time>2026-04-14T07:09:05.196Z</time></trkpt><trkpt lat="51.4611309" lon="-0.1619301"><ele>22.0</ele><time>2026-04-14T07:09:07.196Z</time></trkpt><trkpt lat="51.4611438" lon="-0.1617545"><ele>22.0</ele><time>2026-04-14T07:09:09.195Z</time></trkpt><trkpt lat="51.4611509" lon="-0.1616484"><ele>22.0</ele><time>2026-04-14T07:09:10.196Z</time></trkpt><trkpt lat="51.4611621" lon="-0.161459"><ele>22.0</ele><time>2026-04-14T07:09:12.196Z</time></trkpt><trkpt lat="51.4611693" lon="-0.1613544"><ele>22.0</ele><time>2026-04-14T07:09:13.196Z</time></trkpt><trkpt lat="51.461177" lon="-0.1612217"><ele>22.0</ele><time>2026-04-14T07:09:14.197Z</time></trkpt><trkpt lat="51.4611833" lon="-0.1610609"><ele>22.0</ele><time>2026-04-14T07:09:15.197Z</time></trkpt><trkpt lat="51.461196" lon="-0.1608935"><ele>22.0</ele><time>2026-04-14T07:09:16.197Z</time></trkpt><trkpt lat="51.4612055" lon="-0.1607379"><ele>22.0</ele><time>2026-04-14T07:09:17.197Z</time></trkpt><trkpt lat="51.4612138" lon="-0.1605918"><ele>21.8</ele><time>2026-04-14T07:09:18.196Z</time></trkpt><trkpt lat="51.4612215" lon="-0.1604671"><ele>21.6</ele><time>2026-04-14T07:09:19.197Z</time></trkpt><trkpt lat="51.4612325" lon="-0.1603665"><ele>21.400000000000002</ele><time>2026-04-14T07:09:20.197Z</time></trkpt><trkpt lat="51.4612719" lon="-0.1602148"><ele>21.200000000000003</ele><time>2026-04-14T07:09:22.197Z</time></trkpt><trkpt lat="51.461391" lon="-0.1601929"><ele>21.0</ele><time>2026-04-14T07:09:24.196Z</time></trkpt><trkpt lat="51.4614776" lon="-0.1602506"><ele>22.25</ele><time>2026-04-14T07:09:25.197Z</time></trkpt><trkpt lat="51.4615833" lon="-0.1603203"><ele>23.5</ele><time>2026-04-14T07:09:26.197Z</time></trkpt><trkpt lat="51.4616887" lon="-0.160368"><ele>24.75</ele><time>2026-04-14T07:09:27.196Z</time></trkpt><trkpt lat="51.4618078" lon="-0.1604138"><ele>26.0</ele><time>2026-04-14T07:09:28.196Z</time></trkpt><trkpt lat="51.4619279" lon="-0.1604642"><ele>26.0</ele><time>2026-04-14T07:09:29.196Z</time></trkpt><trkpt lat="51.4620405" lon="-0.1605079"><ele>26.0</ele><time>2026-04-14T07:09:30.197Z</time></trkpt><trkpt lat="51.4621391" lon="-0.160551"><ele>26.0</ele><time>2026-04-14T07:09:31.197Z</time></trkpt><trkpt lat="51.4622185" lon="-0.1605889"><ele>26.0</ele><time>2026-04-14T07:09:32.196Z</time></trkpt><trkpt lat="51.4623162" lon="-0.1606366"><ele>26.0</ele><time>2026-04-14T07:09:34.197Z</time></trkpt><trkpt lat="51.4623885" lon="-0.160525"><ele>25.499999999999996</ele><time>2026-04-14T07:09:38.197Z</time></trkpt><trkpt lat="51.4624041" lon="-0.1604258"><ele>25.0</ele><time>2026-04-14T07:09:39.197Z</time></trkpt><trkpt lat="51.4624039" lon="-0.1603175"><ele>24.5</ele><time>2026-04-14T07:09:40.197Z</time></trkpt><trkpt lat="51.4624215" lon="-0.1602006"><ele>24.0</ele><time>2026-04-14T07:09:41.197Z</time></trkpt><trkpt lat="51.4624573" lon="-0.1600384"><ele>23.5</ele><time>2026-04-14T07:09:43.197Z</time></trkpt><trkpt lat="51.4624224" lon="-0.1601733"><ele>23.0</ele><time>2026-04-14T07:09:57.196Z</time></trkpt><trkpt lat="51.4623893" lon="-0.1603146"><ele>23.0</ele><time>2026-04-14T07:09:59.197Z</time></trkpt><trkpt lat="51.4623589" lon="-0.1604212"><ele>23.0</ele><time>2026-04-14T07:10:02.196Z</time></trkpt><trkpt lat="51.4623257" lon="-0.1605163"><ele>23.0</ele><time>2026-04-14T07:10:05.197Z</time></trkpt><trkpt lat="51.4622797" lon="-0.1605884"><ele>23.0</ele><time>2026-04-14T07:10:23.197Z</time></trkpt><trkpt lat="51.4621734" lon="-0.1605539"><ele>23.0</ele><time>2026-04-14T07:10:25.197Z</time></trkpt><trkpt lat="51.4621042" lon="-0.160518"><ele>23.0</ele><time>2026-04-14T07:10:26.197Z</time></trkpt><trkpt lat="51.4619873" lon="-0.1604661"><ele>23.599999999999998</ele><time>2026-04-14T07:10:28.197Z</time></trkpt><trkpt lat="51.4618829" lon="-0.1604267"><ele>24.2</ele><time>2026-04-14T07:10:30.196Z</time></trkpt><trkpt lat="51.4617853" lon="-0.1603867"><ele>24.8</ele><time>2026-04-14T07:10:32.197Z</time></trkpt><trkpt lat="51.4616843" lon="-0.1603427"><ele>25.4</ele><time>2026-04-14T07:10:34.197Z</time></trkpt><trkpt lat="51.4615736" lon="-0.1603023"><ele>26.0</ele><time>2026-04-14T07:10:36.197Z</time></trkpt><trkpt lat="51.4614584" lon="-0.1602513"><ele>26.0</ele><time>2026-04-14T07:10:38.196Z</time></trkpt><trkpt lat="51.4613695" lon="-0.1602005"><ele>26.0</ele><time>2026-04-14T07:10:40.196Z</time></trkpt><trkpt lat="51.4612974" lon="-0.1601381"><ele>26.0</ele><time>2026-04-14T07:10:42.197Z</time></trkpt><trkpt lat="51.4612495" lon="-0.1600009"><ele>26.0</ele><time>2026-04-14T07:10:44.197Z</time></trkpt><trkpt lat="51.4612648" lon="-0.1598069"><ele>26.0</ele><time>2026-04-14T07:10:46.198Z</time></trkpt><trkpt lat="51.4612798" lon="-0.1596894"><ele>25.833333333333332</ele><time>2026-04-14T07:10:47.198Z</time></trkpt><trkpt lat="51.461297" lon="-0.1595563"><ele>25.666666666666664</ele><time>2026-04-14T07:10:48.197Z</time></trkpt><trkpt lat="51.4613106" lon="-0.1594187"><ele>25.5</ele><time>2026-04-14T07:10:49.198Z</time></trkpt><trkpt lat="51.4613221" lon="-0.159278"><ele>25.333333333333336</ele><time>2026-04-14T07:10:50.197Z</time></trkpt><trkpt lat="51.4613353" lon="-0.1591563"><ele>25.166666666666668</ele><time>2026-04-14T07:10:51.198Z</time></trkpt><trkpt lat="51.4613447" lon="-0.1590465"><ele>25.0</ele><time>2026-04-14T07:10:52.198Z</time></trkpt><trkpt lat="51.4613518" lon="-0.1589291"><ele>24.8</ele><time>2026-04-14T07:10:53.198Z</time></trkpt><trkpt lat="51.4613546" lon="-0.1587994"><ele>24.6</ele><time>2026-04-14T07:10:54.198Z</time></trkpt><trkpt lat="51.461356" lon="-0.1586789"><ele>24.4</ele><time>2026-04-14T07:10:55.198Z</time></trkpt><trkpt lat="51.4613565" lon="-0.1585717"><ele>24.2</ele><time>2026-04-14T07:10:56.198Z</time></trkpt><trkpt lat="51.4613562" lon="-0.1583784"><ele>24.0</ele><time>2026-04-14T07:10:58.197Z</time></trkpt><trkpt lat="51.4613578" lon="-0.1581734"><ele>24.0</ele><time>2026-04-14T07:11:00.198Z</time></trkpt><trkpt lat="51.461359" lon="-0.1580572"><ele>24.0</ele><time>2026-04-14T07:11:01.198Z</time></trkpt><trkpt lat="51.4613569" lon="-0.157924"><ele>24.0</ele><time>2026-04-14T07:11:02.198Z</time></trkpt><trkpt lat="51.4613574" lon="-0.1577577"><ele>24.0</ele><time>2026-04-14T07:11:03.198Z</time></trkpt><trkpt lat="51.4613572" lon="-0.1575557"><ele>24.0</ele><time>2026-04-14T07:11:04.197Z</time></trkpt><trkpt lat="51.4613559" lon="-0.1573612"><ele>24.166666666666668</ele><time>2026-04-14T07:11:05.198Z</time></trkpt><trkpt lat="51.4613531" lon="-0.1572209"><ele>24.333333333333336</ele><time>2026-04-14T07:11:06.198Z</time></trkpt><trkpt lat="51.4613803" lon="-0.1570972"><ele>24.5</ele><time>2026-04-14T07:11:08.197Z</time></trkpt><trkpt lat="51.4614824" lon="-0.1571317"><ele>24.666666666666668</ele><time>2026-04-14T07:11:10.198Z</time></trkpt><trkpt lat="51.4615542" lon="-0.1571477"><ele>24.833333333333336</ele><time>2026-04-14T07:11:11.197Z</time></trkpt><trkpt lat="51.4616419" lon="-0.1571596"><ele>25.0</ele><time>2026-04-14T07:11:12.197Z</time></trkpt><trkpt lat="51.4617549" lon="-0.1571612"><ele>25.0</ele><time>2026-04-14T07:11:13.197Z</time></trkpt><trkpt lat="51.4620421" lon="-0.1571857"><ele>25.0</ele><time>2026-04-14T07:11:15.197Z</time></trkpt><trkpt lat="51.4621838" lon="-0.1571957"><ele>25.0</ele><time>2026-04-14T07:11:16.198Z</time></trkpt><trkpt lat="51.4623287" lon="-0.1572116"><ele>24.333333333333336</ele><time>2026-04-14T07:11:17.198Z</time></trkpt><trkpt lat="51.4624822" lon="-0.1572274"><ele>23.666666666666668</ele><time>2026-04-14T07:11:18.197Z</time></trkpt><trkpt lat="51.4626333" lon="-0.1572441"><ele>23.0</ele><time>2026-04-14T07:11:19.197Z</time></trkpt><trkpt lat="51.4627887" lon="-0.157266"><ele>23.0</ele><time>2026-04-14T07:11:20.197Z</time></trkpt><trkpt lat="51.4629407" lon="-0.1572843"><ele>23.0</ele><time>2026-04-14T07:11:21.198Z</time></trkpt><trkpt lat="51.463092" lon="-0.1573002"><ele>23.0</ele><time>2026-04-14T07:11:22.197Z</time></trkpt><trkpt lat="51.4632357" lon="-0.1573169"><ele>23.0</ele><time>2026-04-14T07:11:23.198Z</time></trkpt><trkpt lat="51.4633692" lon="-0.1573324"><ele>23.0</ele><time>2026-04-14T07:11:24.197Z</time></trkpt><trkpt lat="51.4634899" lon="-0.1573481"><ele>23.0</ele><time>2026-04-14T07:11:25.197Z</time></trkpt><trkpt lat="51.463601" lon="-0.1573605"><ele>23.0</ele><time>2026-04-14T07:11:26.197Z</time></trkpt><trkpt lat="51.4637019" lon="-0.1573721"><ele>23.0</ele><time>2026-04-14T07:11:27.197Z</time></trkpt><trkpt lat="51.4637928" lon="-0.1573821"><ele>23.0</ele><time>2026-04-14T07:11:28.198Z</time></trkpt><trkpt lat="51.4638738" lon="-0.1573924"><ele>22.833333333333336</ele><time>2026-04-14T07:11:29.198Z</time></trkpt><trkpt lat="51.4639506" lon="-0.1574001"><ele>22.666666666666668</ele><time>2026-04-14T07:11:30.197Z</time></trkpt><trkpt lat="51.4640248" lon="-0.1574084"><ele>22.5</ele><time>2026-04-14T07:11:31.198Z</time></trkpt><trkpt lat="51.4641121" lon="-0.1573958"><ele>22.333333333333332</ele><time>2026-04-14T07:11:32.198Z</time></trkpt><trkpt lat="51.4642037" lon="-0.1573627"><ele>22.166666666666664</ele><time>2026-04-14T07:11:33.198Z</time></trkpt><trkpt lat="51.464295" lon="-0.157318"><ele>22.0</ele><time>2026-04-14T07:11:34.197Z</time></trkpt><trkpt lat="51.4643809" lon="-0.1572995"><ele>21.6</ele><time>2026-04-14T07:11:35.197Z</time></trkpt><trkpt lat="51.4644802" lon="-0.157319"><ele>21.200000000000003</ele><time>2026-04-14T07:11:36.198Z</time></trkpt><trkpt lat="51.4645853" lon="-0.1573431"><ele>20.8</ele><time>2026-04-14T07:11:37.198Z</time></trkpt><trkpt lat="51.4646956" lon="-0.1573641"><ele>20.4</ele><time>2026-04-14T07:11:38.197Z</time></trkpt><trkpt lat="51.4648008" lon="-0.1573785"><ele>20.0</ele><time>2026-04-14T07:11:39.198Z</time></trkpt><trkpt lat="51.4649027" lon="-0.1573916"><ele>20.0</ele><time>2026-04-14T07:11:40.198Z</time></trkpt><trkpt lat="51.4649934" lon="-0.1573985"><ele>20.0</ele><time>2026-04-14T07:11:41.197Z</time></trkpt><trkpt lat="51.4650732" lon="-0.1574076"><ele>20.0</ele><time>2026-04-14T07:11:42.197Z</time></trkpt><trkpt lat="51.4651381" lon="-0.1574177"><ele>20.0</ele><time>2026-04-14T07:11:43.198Z</time></trkpt><trkpt lat="51.4652232" lon="-0.1574339"><ele>20.0</ele><time>2026-04-14T07:11:45.197Z</time></trkpt><trkpt lat="51.4653071" lon="-0.1573026"><ele>20.0</ele><time>2026-04-14T07:12:06.198Z</time></trkpt><trkpt lat="51.4653347" lon="-0.1571688"><ele>20.0</ele><time>2026-04-14T07:12:07.197Z</time></trkpt><trkpt lat="51.4653604" lon="-0.1570262"><ele>20.0</ele><time>2026-04-14T07:12:08.197Z</time></trkpt><trkpt lat="51.4653817" lon="-0.1568798"><ele>20.0</ele><time>2026-04-14T07:12:09.198Z</time></trkpt><trkpt lat="51.4654091" lon="-0.1567283"><ele>20.0</ele><time>2026-04-14T07:12:10.197Z</time></trkpt><trkpt lat="51.4654387" lon="-0.1565645"><ele>20.0</ele><time>2026-04-14T07:12:11.198Z</time></trkpt><trkpt lat="51.4654748" lon="-0.1564055"><ele>18.8</ele><time>2026-04-14T07:12:12.198Z</time></trkpt><trkpt lat="51.465508" lon="-0.1562356"><ele>17.6</ele><time>2026-04-14T07:12:13.198Z</time></trkpt><trkpt lat="51.4655376" lon="-0.1560656"><ele>16.4</ele><time>2026-04-14T07:12:14.198Z</time></trkpt><trkpt lat="51.4655726" lon="-0.155896"><ele>15.2</ele><time>2026-04-14T07:12:15.197Z</time></trkpt><trkpt lat="51.4656081" lon="-0.1557293"><ele>14.0</ele><time>2026-04-14T07:12:16.199Z</time></trkpt><trkpt lat="51.4656449" lon="-0.1555541"><ele>14.0</ele><time>2026-04-14T07:12:17.198Z</time></trkpt><trkpt lat="51.4656793" lon="-0.1553742"><ele>14.0</ele><time>2026-04-14T07:12:18.198Z</time></trkpt><trkpt lat="51.4657057" lon="-0.1551891"><ele>14.0</ele><time>2026-04-14T07:12:19.199Z</time></trkpt><trkpt lat="51.4657414" lon="-0.1550042"><ele>14.0</ele><time>2026-04-14T07:12:20.198Z</time></trkpt><trkpt lat="51.4657752" lon="-0.1548194"><ele>14.0</ele><time>2026-04-14T07:12:21.198Z</time></trkpt><trkpt lat="51.4658058" lon="-0.154636"><ele>14.0</ele><time>2026-04-14T07:12:22.198Z</time></trkpt><trkpt lat="51.4658326" lon="-0.1544526"><ele>14.0</ele><time>2026-04-14T07:12:23.198Z</time></trkpt><trkpt lat="51.4658657" lon="-0.1542648"><ele>14.0</ele><time>2026-04-14T07:12:24.198Z</time></trkpt><trkpt lat="51.4658943" lon="-0.154084"><ele>13.75</ele><time>2026-04-14T07:12:25.198Z</time></trkpt><trkpt lat="51.4659392" lon="-0.1539117"><ele>13.5</ele><time>2026-04-14T07:12:26.198Z</time></trkpt><trkpt lat="51.4659833" lon="-0.1537421"><ele>13.25</ele><time>2026-04-14T07:12:27.198Z</time></trkpt><trkpt lat="51.4660231" lon="-0.1535708"><ele>13.0</ele><time>2026-04-14T07:12:28.199Z</time></trkpt><trkpt lat="51.4660622" lon="-0.1534077"><ele>13.0</ele><time>2026-04-14T07:12:29.198Z</time></trkpt><trkpt lat="51.4660991" lon="-0.153247"><ele>13.0</ele><time>2026-04-14T07:12:30.199Z</time></trkpt><trkpt lat="51.4661347" lon="-0.1530817"><ele>13.0</ele><time>2026-04-14T07:12:31.199Z</time></trkpt><trkpt lat="51.4661694" lon="-0.152914"><ele>13.0</ele><time>2026-04-14T07:12:32.198Z</time></trkpt><trkpt lat="51.4662018" lon="-0.15274"><ele>13.0</ele><time>2026-04-14T07:12:33.199Z</time></trkpt><trkpt lat="51.4662219" lon="-0.152562"><ele>12.75</ele><time>2026-04-14T07:12:34.198Z</time></trkpt><trkpt lat="51.4662328" lon="-0.1523729"><ele>12.5</ele><time>2026-04-14T07:12:35.199Z</time></trkpt><trkpt lat="51.4662386" lon="-0.1521892"><ele>12.25</ele><time>2026-04-14T07:12:36.198Z</time></trkpt><trkpt lat="51.4662494" lon="-0.152006"><ele>12.0</ele><time>2026-04-14T07:12:37.198Z</time></trkpt><trkpt lat="51.4662587" lon="-0.1518258"><ele>12.0</ele><time>2026-04-14T07:12:38.198Z</time></trkpt><trkpt lat="51.466271" lon="-0.1516537"><ele>12.0</ele><time>2026-04-14T07:12:39.199Z</time></trkpt><trkpt lat="51.4662811" lon="-0.1514871"><ele>12.0</ele><time>2026-04-14T07:12:40.199Z</time></trkpt><trkpt lat="51.4662961" lon="-0.1513374"><ele>12.0</ele><time>2026-04-14T07:12:41.198Z</time></trkpt><trkpt lat="51.4663035" lon="-0.1511881"><ele>12.0</ele><time>2026-04-14T07:12:42.199Z</time></trkpt><trkpt lat="51.4663151" lon="-0.1510651"><ele>11.5</ele><time>2026-04-14T07:12:43.199Z</time></trkpt><trkpt lat="51.4663279" lon="-0.1509651"><ele>11.0</ele><time>2026-04-14T07:12:44.199Z</time></trkpt><trkpt lat="51.4663391" lon="-0.1508343"><ele>10.5</ele><time>2026-04-14T07:12:46.198Z</time></trkpt><trkpt lat="51.4663408" lon="-0.1507038"><ele>10.0</ele><time>2026-04-14T07:13:45.199Z</time></trkpt><trkpt lat="51.4663561" lon="-0.1505316"><ele>9.5</ele><time>2026-04-14T07:13:47.2Z</time></trkpt><trkpt lat="51.4664412" lon="-0.1505106"><ele>9.0</ele><time>2026-04-14T07:13:49.2Z</time></trkpt><trkpt lat="51.4665177" lon="-0.1505353"><ele>9.0</ele><time>2026-04-14T07:13:50.2Z</time></trkpt><trkpt lat="51.4666248" lon="-0.1505563"><ele>9.0</ele><time>2026-04-14T07:13:51.199Z</time></trkpt><trkpt lat="51.4667388" lon="-0.1505952"><ele>9.0</ele><time>2026-04-14T07:13:52.199Z</time></trkpt><trkpt lat="51.4668544" lon="-0.1506165"><ele>9.0</ele><time>2026-04-14T07:13:53.2Z</time></trkpt><trkpt lat="51.4669774" lon="-0.1506266"><ele>9.0</ele><time>2026-04-14T07:13:54.199Z</time></trkpt><trkpt lat="51.4670855" lon="-0.1506302"><ele>9.0</ele><time>2026-04-14T07:13:55.199Z</time></trkpt><trkpt lat="51.467203" lon="-0.1506413"><ele>9.0</ele><time>2026-04-14T07:13:56.199Z</time></trkpt><trkpt lat="51.4672945" lon="-0.1506517"><ele>9.0</ele><time>2026-04-14T07:13:57.2Z</time></trkpt><trkpt lat="51.4673907" lon="-0.1506503"><ele>9.0</ele><time>2026-04-14T07:13:58.2Z</time></trkpt><trkpt lat="51.4674807" lon="-0.1506431"><ele>8.2</ele><time>2026-04-14T07:13:59.199Z</time></trkpt><trkpt lat="51.4675844" lon="-0.1506188"><ele>7.4</ele><time>2026-04-14T07:14:00.2Z</time></trkpt><trkpt lat="51.46769" lon="-0.1505876"><ele>6.6</ele><time>2026-04-14T07:14:01.199Z</time></trkpt><trkpt lat="51.4677983" lon="-0.1505499"><ele>5.8</ele><time>2026-04-14T07:14:02.2Z</time></trkpt><trkpt lat="51.4679138" lon="-0.1504988"><ele>5.0</ele><time>2026-04-14T07:14:03.2Z</time></trkpt><trkpt lat="51.4680275" lon="-0.1504527"><ele>4.5</ele><time>2026-04-14T07:14:04.2Z</time></trkpt><trkpt lat="51.4681446" lon="-0.1504133"><ele>4.0</ele><time>2026-04-14T07:14:05.2Z</time></trkpt><trkpt lat="51.4682559" lon="-0.1503641"><ele>3.5</ele><time>2026-04-14T07:14:06.2Z</time></trkpt><trkpt lat="51.4683679" lon="-0.1503115"><ele>3.0</ele><time>2026-04-14T07:14:07.2Z</time></trkpt><trkpt lat="51.4684804" lon="-0.1502589"><ele>3.0</ele><time>2026-04-14T07:14:08.199Z</time></trkpt><trkpt lat="51.4685935" lon="-0.1502037"><ele>3.0</ele><time>2026-04-14T07:14:09.2Z</time></trkpt><trkpt lat="51.4687033" lon="-0.1501504"><ele>3.0</ele><time>2026-04-14T07:14:10.199Z</time></trkpt><trkpt lat="51.4688069" lon="-0.1501052"><ele>3.0</ele><time>2026-04-14T07:14:11.2Z</time></trkpt><trkpt lat="51.4689105" lon="-0.1500648"><ele>3.0</ele><time>2026-04-14T07:14:12.2Z</time></trkpt><trkpt lat="51.4690111" lon="-0.1500234"><ele>3.25</ele><time>2026-04-14T07:14:13.2Z</time></trkpt><trkpt lat="51.4691134" lon="-0.1499773"><ele>3.5</ele><time>2026-04-14T07:14:14.2Z</time></trkpt><trkpt lat="51.4692244" lon="-0.1499273"><ele>3.75</ele><time>2026-04-14T07:14:15.199Z</time></trkpt><trkpt lat="51.4693438" lon="-0.1498755"><ele>4.0</ele><time>2026-04-14T07:14:16.199Z</time></trkpt><trkpt lat="51.4694698" lon="-0.1498246"><ele>4.0</ele><time>2026-04-14T07:14:17.199Z</time></trkpt><trkpt lat="51.4695936" lon="-0.149774"><ele>4.0</ele><time>2026-04-14T07:14:18.2Z</time></trkpt><trkpt lat="51.4697151" lon="-0.1497228"><ele>4.0</ele><time>2026-04-14T07:14:19.199Z</time></trkpt><trkpt lat="51.4698376" lon="-0.1496744"><ele>4.0</ele><time>2026-04-14T07:14:20.2Z</time></trkpt><trkpt lat="51.469966" lon="-0.1496233"><ele>4.25</ele><time>2026-04-14T07:14:21.2Z</time></trkpt><trkpt lat="51.4700905" lon="-0.1495734"><ele>4.5</ele><time>2026-04-14T07:14:22.199Z</time></trkpt><trkpt lat="51.4702015" lon="-0.1495301"><ele>4.75</ele><time>2026-04-14T07:14:23.199Z</time></trkpt><trkpt lat="51.4703283" lon="-0.1495032"><ele>5.0</ele><time>2026-04-14T07:14:24.2Z</time></trkpt><trkpt lat="51.4704351" lon="-0.1494551"><ele>4.5</ele><time>2026-04-14T07:14:25.2Z</time></trkpt><trkpt lat="51.4705456" lon="-0.1494061"><ele>4.0</ele><time>2026-04-14T07:14:26.2Z</time></trkpt><trkpt lat="51.4706593" lon="-0.1493557"><ele>3.5</ele><time>2026-04-14T07:14:27.2Z</time></trkpt><trkpt lat="51.4707641" lon="-0.1493034"><ele>3.0</ele><time>2026-04-14T07:14:28.2Z</time></trkpt><trkpt lat="51.4708675" lon="-0.1492564"><ele>3.0</ele><time>2026-04-14T07:14:29.2Z</time></trkpt><trkpt lat="51.4709655" lon="-0.1492174"><ele>3.0</ele><time>2026-04-14T07:14:30.2Z</time></trkpt><trkpt lat="51.4710468" lon="-0.1491826"><ele>3.0</ele><time>2026-04-14T07:14:31.199Z</time></trkpt><trkpt lat="51.471117" lon="-0.1491563"><ele>3.0</ele><time>2026-04-14T07:14:32.199Z</time></trkpt><trkpt lat="51.4711819" lon="-0.1491274"><ele>3.0</ele><time>2026-04-14T07:14:33.199Z</time></trkpt><trkpt lat="51.4712784" lon="-0.1490552"><ele>3.0</ele><time>2026-04-14T07:14:35.2Z</time></trkpt><trkpt lat="51.471398" lon="-0.14899"><ele>3.4</ele><time>2026-04-14T07:14:37.2Z</time></trkpt><trkpt lat="51.4714662" lon="-0.1489625"><ele>3.8</ele><time>2026-04-14T07:14:38.199Z</time></trkpt><trkpt lat="51.4715523" lon="-0.1489235"><ele>4.2</ele><time>2026-04-14T07:14:39.199Z</time></trkpt><trkpt lat="51.4716586" lon="-0.1488668"><ele>4.6</ele><time>2026-04-14T07:14:40.199Z</time></trkpt><trkpt lat="51.4717604" lon="-0.1488197"><ele>5.0</ele><time>2026-04-14T07:14:41.199Z</time></trkpt><trkpt lat="51.4718435" lon="-0.1488014"><ele>5.0</ele><time>2026-04-14T07:14:42.199Z</time></trkpt><trkpt lat="51.4719167" lon="-0.1487918"><ele>5.0</ele><time>2026-04-14T07:14:43.2Z</time></trkpt><trkpt lat="51.4719961" lon="-0.148767"><ele>5.0</ele><time>2026-04-14T07:14:44.199Z</time></trkpt><trkpt lat="51.4720803" lon="-0.1487336"><ele>5.0</ele><time>2026-04-14T07:14:45.2Z</time></trkpt><trkpt lat="51.4721668" lon="-0.1486945"><ele>5.0</ele><time>2026-04-14T07:14:46.2Z</time></trkpt><trkpt lat="51.4722573" lon="-0.1486656"><ele>5.0</ele><time>2026-04-14T07:14:47.2Z</time></trkpt><trkpt lat="51.4723628" lon="-0.1486348"><ele>5.0</ele><time>2026-04-14T07:14:48.199Z</time></trkpt><trkpt lat="51.4724749" lon="-0.1485993"><ele>5.0</ele><time>2026-04-14T07:14:49.199Z</time></trkpt><trkpt lat="51.4725907" lon="-0.1485525"><ele>5.0</ele><time>2026-04-14T07:14:50.2Z</time></trkpt><trkpt lat="51.4727013" lon="-0.1485053"><ele>5.0</ele><time>2026-04-14T07:14:51.2Z</time></trkpt><trkpt lat="51.4727988" lon="-0.1484634"><ele>5.0</ele><time>2026-04-14T07:14:52.2Z</time></trkpt><trkpt lat="51.4728955" lon="-0.1484241"><ele>5.2</ele><time>2026-04-14T07:14:53.199Z</time></trkpt><trkpt lat="51.4729931" lon="-0.1483828"><ele>5.4</ele><time>2026-04-14T07:14:54.199Z</time></trkpt><trkpt lat="51.4730851" lon="-0.1483499"><ele>5.6</ele><time>2026-04-14T07:14:55.2Z</time></trkpt><trkpt lat="51.4731737" lon="-0.14832"><ele>5.8</ele><time>2026-04-14T07:14:56.199Z</time></trkpt><trkpt lat="51.4732611" lon="-0.1482916"><ele>6.0</ele><time>2026-04-14T07:14:57.2Z</time></trkpt><trkpt lat="51.4733393" lon="-0.1482572"><ele>6.0</ele><time>2026-04-14T07:14:58.199Z</time></trkpt><trkpt lat="51.4734158" lon="-0.1482165"><ele>6.0</ele><time>2026-04-14T07:14:59.2Z</time></trkpt><trkpt lat="51.4734907" lon="-0.1481816"><ele>6.0</ele><time>2026-04-14T07:15:00.199Z</time></trkpt><trkpt lat="51.4735813" lon="-0.148141"><ele>6.0</ele><time>2026-04-14T07:15:01.199Z</time></trkpt><trkpt lat="51.4736864" lon="-0.14812"><ele>6.0</ele><time>2026-04-14T07:15:02.2Z</time></trkpt><trkpt lat="51.4737768" lon="-0.1480778"><ele>6.0</ele><time>2026-04-14T07:15:03.199Z</time></trkpt><trkpt lat="51.4738665" lon="-0.1480284"><ele>6.0</ele><time>2026-04-14T07:15:04.2Z</time></trkpt><trkpt lat="51.4739491" lon="-0.1479654"><ele>6.0</ele><time>2026-04-14T07:15:05.199Z</time></trkpt><trkpt lat="51.4740189" lon="-0.1478952"><ele>6.0</ele><time>2026-04-14T07:15:06.2Z</time></trkpt><trkpt lat="51.4740688" lon="-0.1478265"><ele>6.0</ele><time>2026-04-14T07:15:07.2Z</time></trkpt><trkpt lat="51.4741275" lon="-0.1476836"><ele>6.0</ele><time>2026-04-14T07:15:09.2Z</time></trkpt><trkpt lat="51.4741544" lon="-0.1475854"><ele>5.999999999999999</ele><time>2026-04-14T07:15:11.199Z</time></trkpt><trkpt lat="51.4741839" lon="-0.1474814"><ele>6.0</ele><time>2026-04-14T07:15:13.2Z</time></trkpt><trkpt lat="51.4742151" lon="-0.1473716"><ele>6.0</ele><time>2026-04-14T07:15:15.2Z</time></trkpt><trkpt lat="51.4742455" lon="-0.1472593"><ele>6.0</ele><time>2026-04-14T07:15:17.2Z</time></trkpt><trkpt lat="51.4742786" lon="-0.1471426"><ele>6.0</ele><time>2026-04-14T07:15:20.201Z</time></trkpt><trkpt lat="51.4743186" lon="-0.1470531"><ele>5.999999999999999</ele><time>2026-04-14T07:15:23.201Z</time></trkpt><trkpt lat="51.4743555" lon="-0.1469572"><ele>6.0</ele><time>2026-04-14T07:15:45.201Z</time></trkpt><trkpt lat="51.4743922" lon="-0.1468744"><ele>6.0</ele><time>2026-04-14T07:15:48.201Z</time></trkpt><trkpt lat="51.4744379" lon="-0.1467625"><ele>6.0</ele><time>2026-04-14T07:15:51.2Z</time></trkpt><trkpt lat="51.4744926" lon="-0.1466776"><ele>6.0</ele><time>2026-04-14T07:15:54.2Z</time></trkpt><trkpt lat="51.4745418" lon="-0.1466138"><ele>6.0</ele><time>2026-04-14T07:15:57.2Z</time></trkpt><trkpt lat="51.4746127" lon="-0.146549"><ele>6.0</ele><time>2026-04-14T07:16:01.201Z</time></trkpt><trkpt lat="51.4746703" lon="-0.1464917"><ele>6.0</ele><time>2026-04-14T07:16:05.201Z</time></trkpt><trkpt lat="51.4747896" lon="-0.146477"><ele>6.0</ele><time>2026-04-14T07:16:51.201Z</time></trkpt><trkpt lat="51.4748838" lon="-0.1464402"><ele>6.0</ele><time>2026-04-14T07:16:57.202Z</time></trkpt><trkpt lat="51.4750497" lon="-0.1465202"><ele>6.0</ele><time>2026-04-14T07:17:07.201Z</time></trkpt><trkpt lat="51.4751016" lon="-0.1465781"><ele>6.0</ele><time>2026-04-14T07:17:08.202Z</time></trkpt><trkpt lat="51.475181" lon="-0.1466748"><ele>6.0</ele><time>2026-04-14T07:17:10.202Z</time></trkpt><trkpt lat="51.4753062" lon="-0.1467524"><ele>5.833333333333333</ele><time>2026-04-14T07:17:12.202Z</time></trkpt><trkpt lat="51.4754079" lon="-0.146842"><ele>5.666666666666667</ele><time>2026-04-14T07:17:14.201Z</time></trkpt><trkpt lat="51.4754594" lon="-0.1469061"><ele>5.5</ele><time>2026-04-14T07:17:16.202Z</time></trkpt><trkpt lat="51.4755117" lon="-0.1469692"><ele>5.333333333333334</ele><time>2026-04-14T07:17:29.201Z</time></trkpt><trkpt lat="51.4755621" lon="-0.147053"><ele>5.166666666666667</ele><time>2026-04-14T07:17:32.201Z</time></trkpt><trkpt lat="51.4756007" lon="-0.1471363"><ele>5.0</ele><time>2026-04-14T07:17:34.201Z</time></trkpt><trkpt lat="51.4756506" lon="-0.1472461"><ele>4.833333333333334</ele><time>2026-04-14T07:17:43.202Z</time></trkpt><trkpt lat="51.4757226" lon="-0.1473988"><ele>4.666666666666667</ele><time>2026-04-14T07:17:45.202Z</time></trkpt><trkpt lat="51.4757628" lon="-0.1474878"><ele>4.5</ele><time>2026-04-14T07:17:46.202Z</time></trkpt><trkpt lat="51.4758066" lon="-0.1475829"><ele>4.333333333333333</ele><time>2026-04-14T07:17:47.202Z</time></trkpt><trkpt lat="51.4758511" lon="-0.1476784"><ele>4.166666666666666</ele><time>2026-04-14T07:17:48.202Z</time></trkpt><trkpt lat="51.4758887" lon="-0.1477682"><ele>4.0</ele><time>2026-04-14T07:17:49.202Z</time></trkpt><trkpt lat="51.4759274" lon="-0.1478565"><ele>3.9999999999999996</ele><time>2026-04-14T07:17:50.201Z</time></trkpt><trkpt lat="51.4759724" lon="-0.1479433"><ele>4.0</ele><time>2026-04-14T07:17:51.202Z</time></trkpt><trkpt lat="51.4760166" lon="-0.1480163"><ele>4.0</ele><time>2026-04-14T07:17:52.202Z</time></trkpt><trkpt lat="51.4760978" lon="-0.1480996"><ele>4.0</ele><time>2026-04-14T07:17:54.201Z</time></trkpt><trkpt lat="51.4761644" lon="-0.1481517"><ele>3.9999999999999996</ele><time>2026-04-14T07:17:56.202Z</time></trkpt><trkpt lat="51.4762428" lon="-0.1482232"><ele>4.0</ele><time>2026-04-14T07:18:48.203Z</time></trkpt><trkpt lat="51.476313" lon="-0.1482431"><ele>4.166666666666666</ele><time>2026-04-14T07:18:50.203Z</time></trkpt><trkpt lat="51.4764078" lon="-0.148262"><ele>4.333333333333333</ele><time>2026-04-14T07:18:52.203Z</time></trkpt><trkpt lat="51.4764802" lon="-0.1482807"><ele>4.5</ele><time>2026-04-14T07:18:54.203Z</time></trkpt><trkpt lat="51.476583" lon="-0.1482847"><ele>4.666666666666667</ele><time>2026-04-14T07:18:56.203Z</time></trkpt><trkpt lat="51.4766568" lon="-0.1482955"><ele>4.833333333333334</ele><time>2026-04-14T07:18:59.202Z</time></trkpt><trkpt lat="51.4767341" lon="-0.1483149"><ele>5.0</ele><time>2026-04-14T07:19:02.203Z</time></trkpt><trkpt lat="51.4768227" lon="-0.1483248"><ele>5.0</ele><time>2026-04-14T07:19:04.203Z</time></trkpt><trkpt lat="51.4769319" lon="-0.1483409"><ele>5.0</ele><time>2026-04-14T07:19:06.202Z</time></trkpt><trkpt lat="51.4769993" lon="-0.148353"><ele>5.0</ele><time>2026-04-14T07:19:07.202Z</time></trkpt><trkpt lat="51.4770703" lon="-0.1483634"><ele>5.0</ele><time>2026-04-14T07:19:08.202Z</time></trkpt><trkpt lat="51.4771393" lon="-0.1483774"><ele>5.0</ele><time>2026-04-14T07:19:09.203Z</time></trkpt><trkpt lat="51.4772025" lon="-0.1483997"><ele>5.0</ele><time>2026-04-14T07:19:10.202Z</time></trkpt><trkpt lat="51.4773248" lon="-0.1484229"><ele>5.0</ele><time>2026-04-14T07:19:12.203Z</time></trkpt><trkpt lat="51.4774147" lon="-0.1484318"><ele>5.0</ele><time>2026-04-14T07:19:14.202Z</time></trkpt><trkpt lat="51.4774857" lon="-0.148441"><ele>5.0</ele><time>2026-04-14T07:19:17.203Z</time></trkpt><trkpt lat="51.4775732" lon="-0.148521"><ele>5.0</ele><time>2026-04-14T07:20:08.203Z</time></trkpt><trkpt lat="51.4776669" lon="-0.1486444"><ele>5.0</ele><time>2026-04-14T07:20:10.203Z</time></trkpt><trkpt lat="51.4777137" lon="-0.1487199"><ele>5.0</ele><time>2026-04-14T07:20:11.203Z</time></trkpt><trkpt lat="51.4777692" lon="-0.1487939"><ele>5.0</ele><time>2026-04-14T07:20:12.203Z</time></trkpt><trkpt lat="51.4778339" lon="-0.1488413"><ele>5.0</ele><time>2026-04-14T07:20:13.204Z</time></trkpt><trkpt lat="51.4779056" lon="-0.1488648"><ele>5.0</ele><time>2026-04-14T07:20:14.204Z</time></trkpt><trkpt lat="51.4779716" lon="-0.1488611"><ele>5.0</ele><time>2026-04-14T07:20:15.204Z</time></trkpt><trkpt lat="51.4780749" lon="-0.1488179"><ele>5.0</ele><time>2026-04-14T07:20:17.203Z</time></trkpt><trkpt lat="51.478131" lon="-0.1487517"><ele>5.142857142857142</ele><time>2026-04-14T07:20:20.203Z</time></trkpt><trkpt lat="51.4781817" lon="-0.1486714"><ele>5.285714285714286</ele><time>2026-04-14T07:20:23.203Z</time></trkpt><trkpt lat="51.478255" lon="-0.1486031"><ele>5.428571428571429</ele><time>2026-04-14T07:20:26.204Z</time></trkpt><trkpt lat="51.4783265" lon="-0.1485977"><ele>5.571428571428571</ele><time>2026-04-14T07:20:28.204Z</time></trkpt><trkpt lat="51.4783906" lon="-0.1485966"><ele>5.714285714285714</ele><time>2026-04-14T07:20:30.204Z</time></trkpt><trkpt lat="51.4784602" lon="-0.1485993"><ele>5.857142857142857</ele><time>2026-04-14T07:20:32.203Z</time></trkpt><trkpt lat="51.4785391" lon="-0.1486156"><ele>6.0</ele><time>2026-04-14T07:20:35.203Z</time></trkpt><trkpt lat="51.4786148" lon="-0.1486643"><ele>6.0</ele><time>2026-04-14T07:20:38.204Z</time></trkpt><trkpt lat="51.4787364" lon="-0.148707"><ele>6.0</ele><time>2026-04-14T07:20:40.204Z</time></trkpt><trkpt lat="51.4788183" lon="-0.1487294"><ele>6.0</ele><time>2026-04-14T07:20:41.204Z</time></trkpt><trkpt lat="51.4789185" lon="-0.1487499"><ele>6.0</ele><time>2026-04-14T07:20:42.204Z</time></trkpt><trkpt lat="51.4790297" lon="-0.1487735"><ele>6.0</ele><time>2026-04-14T07:20:43.204Z</time></trkpt><trkpt lat="51.4791482" lon="-0.1487934"><ele>6.0</ele><time>2026-04-14T07:20:44.204Z</time></trkpt><trkpt lat="51.4792536" lon="-0.1488162"><ele>6.0</ele><time>2026-04-14T07:20:45.204Z</time></trkpt><trkpt lat="51.4793543" lon="-0.1488381"><ele>6.0</ele><time>2026-04-14T07:20:46.204Z</time></trkpt><trkpt lat="51.4794557" lon="-0.1488532"><ele>6.0</ele><time>2026-04-14T07:20:47.203Z</time></trkpt><trkpt lat="51.4795628" lon="-0.1488757"><ele>6.0</ele><time>2026-04-14T07:20:48.204Z</time></trkpt><trkpt lat="51.4796716" lon="-0.1488934"><ele>6.4</ele><time>2026-04-14T07:20:49.204Z</time></trkpt><trkpt lat="51.4797724" lon="-0.1489168"><ele>6.8</ele><time>2026-04-14T07:20:50.204Z</time></trkpt><trkpt lat="51.4798703" lon="-0.1489372"><ele>7.200000000000001</ele><time>2026-04-14T07:20:51.203Z</time></trkpt><trkpt lat="51.479969" lon="-0.1489582"><ele>7.6000000000000005</ele><time>2026-04-14T07:20:52.204Z</time></trkpt><trkpt lat="51.4800744" lon="-0.1489748"><ele>8.0</ele><time>2026-04-14T07:20:53.204Z</time></trkpt><trkpt lat="51.4801796" lon="-0.1489937"><ele>8.0</ele><time>2026-04-14T07:20:54.204Z</time></trkpt><trkpt lat="51.4802809" lon="-0.1490152"><ele>8.0</ele><time>2026-04-14T07:20:55.204Z</time></trkpt><trkpt lat="51.4803842" lon="-0.1490383"><ele>8.0</ele><time>2026-04-14T07:20:56.204Z</time></trkpt><trkpt lat="51.4804845" lon="-0.1490607"><ele>8.0</ele><time>2026-04-14T07:20:57.204Z</time></trkpt><trkpt lat="51.4805933" lon="-0.149083"><ele>8.0</ele><time>2026-04-14T07:20:58.203Z</time></trkpt><trkpt lat="51.4807093" lon="-0.1491008"><ele>7.666666666666666</ele><time>2026-04-14T07:20:59.204Z</time></trkpt><trkpt lat="51.480815" lon="-0.1491205"><ele>7.333333333333333</ele><time>2026-04-14T07:21:00.204Z</time></trkpt><trkpt lat="51.4809123" lon="-0.1491382"><ele>7.0</ele><time>2026-04-14T07:21:01.203Z</time></trkpt><trkpt lat="51.481002" lon="-0.1491534"><ele>6.666666666666666</ele><time>2026-04-14T07:21:02.204Z</time></trkpt><trkpt lat="51.4810819" lon="-0.1491697"><ele>6.333333333333333</ele><time>2026-04-14T07:21:03.204Z</time></trkpt><trkpt lat="51.4811485" lon="-0.1491789"><ele>6.0</ele><time>2026-04-14T07:21:04.203Z</time></trkpt><trkpt lat="51.4812582" lon="-0.1491982"><ele>6.166666666666667</ele><time>2026-04-14T07:21:06.204Z</time></trkpt><trkpt lat="51.481339" lon="-0.1492067"><ele>6.333333333333334</ele><time>2026-04-14T07:21:08.203Z</time></trkpt><trkpt lat="51.4814244" lon="-0.1492122"><ele>6.5</ele><time>2026-04-14T07:21:18.203Z</time></trkpt><trkpt lat="51.4814909" lon="-0.1492245"><ele>6.666666666666667</ele><time>2026-04-14T07:21:19.203Z</time></trkpt><trkpt lat="51.4815576" lon="-0.1492435"><ele>6.833333333333334</ele><time>2026-04-14T07:21:20.203Z</time></trkpt><trkpt lat="51.4816316" lon="-0.1492606"><ele>7.0</ele><time>2026-04-14T07:21:21.204Z</time></trkpt><trkpt lat="51.4817095" lon="-0.1492802"><ele>7.0</ele><time>2026-04-14T07:21:22.204Z</time></trkpt><trkpt lat="51.4817965" lon="-0.1493007"><ele>6.999999999999999</ele><time>2026-04-14T07:21:23.205Z</time></trkpt><trkpt lat="51.4818911" lon="-0.1493194"><ele>6.999999999999999</ele><time>2026-04-14T07:21:24.205Z</time></trkpt><trkpt lat="51.4819889" lon="-0.1493352"><ele>7.0</ele><time>2026-04-14T07:21:25.205Z</time></trkpt><trkpt lat="51.482083" lon="-0.1493548"><ele>7.0</ele><time>2026-04-14T07:21:26.205Z</time></trkpt><trkpt lat="51.4821789" lon="-0.1493748"><ele>6.8</ele><time>2026-04-14T07:21:27.204Z</time></trkpt><trkpt lat="51.4822723" lon="-0.1493976"><ele>6.6</ele><time>2026-04-14T07:21:28.205Z</time></trkpt><trkpt lat="51.4823653" lon="-0.1494184"><ele>6.3999999999999995</ele><time>2026-04-14T07:21:29.205Z</time></trkpt><trkpt lat="51.4824528" lon="-0.1494427"><ele>6.199999999999999</ele><time>2026-04-14T07:21:30.204Z</time></trkpt><trkpt lat="51.4825488" lon="-0.1494607"><ele>6.0</ele><time>2026-04-14T07:21:31.204Z</time></trkpt><trkpt lat="51.4826411" lon="-0.1494772"><ele>6.0</ele><time>2026-04-14T07:21:32.205Z</time></trkpt><trkpt lat="51.4827267" lon="-0.1494983"><ele>6.0</ele><time>2026-04-14T07:21:33.204Z</time></trkpt><trkpt lat="51.4828059" lon="-0.1495178"><ele>6.0</ele><time>2026-04-14T07:21:34.205Z</time></trkpt><trkpt lat="51.4828761" lon="-0.149533"><ele>6.0</ele><time>2026-04-14T07:21:35.204Z</time></trkpt><trkpt lat="51.4829759" lon="-0.1495434"><ele>6.0</ele><time>2026-04-14T07:21:37.204Z</time></trkpt><trkpt lat="51.4830583" lon="-0.1495497"><ele>6.0</ele><time>2026-04-14T07:21:39.204Z</time></trkpt><trkpt lat="51.4831255" lon="-0.1495642"><ele>6.166666666666667</ele><time>2026-04-14T07:21:41.205Z</time></trkpt><trkpt lat="51.4832151" lon="-0.1495666"><ele>6.333333333333334</ele><time>2026-04-14T07:21:43.205Z</time></trkpt><trkpt lat="51.4833206" lon="-0.1495806"><ele>6.5</ele><time>2026-04-14T07:21:45.205Z</time></trkpt><trkpt lat="51.4833853" lon="-0.1495904"><ele>6.666666666666667</ele><time>2026-04-14T07:21:46.204Z</time></trkpt><trkpt lat="51.4834671" lon="-0.1496179"><ele>6.833333333333334</ele><time>2026-04-14T07:21:47.204Z</time></trkpt><trkpt lat="51.4835569" lon="-0.1496424"><ele>7.0</ele><time>2026-04-14T07:21:48.204Z</time></trkpt><trkpt lat="51.4836498" lon="-0.1496639"><ele>7.0</ele><time>2026-04-14T07:21:49.204Z</time></trkpt><trkpt lat="51.4837498" lon="-0.1496858"><ele>6.999999999999999</ele><time>2026-04-14T07:21:50.205Z</time></trkpt><trkpt lat="51.4838549" lon="-0.1497065"><ele>6.999999999999999</ele><time>2026-04-14T07:21:51.205Z</time></trkpt><trkpt lat="51.4839608" lon="-0.1497253"><ele>7.0</ele><time>2026-04-14T07:21:52.204Z</time></trkpt><trkpt lat="51.4840646" lon="-0.1497443"><ele>7.0</ele><time>2026-04-14T07:21:53.205Z</time></trkpt><trkpt lat="51.4841738" lon="-0.1497617"><ele>6.199999999999999</ele><time>2026-04-14T07:21:54.205Z</time></trkpt><trkpt lat="51.4842814" lon="-0.1497845"><ele>5.3999999999999995</ele><time>2026-04-14T07:21:55.204Z</time></trkpt><trkpt lat="51.4843868" lon="-0.1498074"><ele>4.6</ele><time>2026-04-14T07:21:56.204Z</time></trkpt><trkpt lat="51.4844927" lon="-0.1498298"><ele>3.8</ele><time>2026-04-14T07:21:57.205Z</time></trkpt><trkpt lat="51.4845977" lon="-0.1498507"><ele>3.0</ele><time>2026-04-14T07:21:58.205Z</time></trkpt><trkpt lat="51.4847013" lon="-0.1498695"><ele>3.2</ele><time>2026-04-14T07:21:59.205Z</time></trkpt><trkpt lat="51.4848062" lon="-0.1498903"><ele>3.4</ele><time>2026-04-14T07:22:00.204Z</time></trkpt><trkpt lat="51.4849111" lon="-0.1499113"><ele>3.6000000000000005</ele><time>2026-04-14T07:22:01.205Z</time></trkpt><trkpt lat="51.485007" lon="-0.1499274"><ele>3.8000000000000003</ele><time>2026-04-14T07:22:02.204Z</time></trkpt><trkpt lat="51.4850926" lon="-0.1499445"><ele>4.0</ele><time>2026-04-14T07:22:03.204Z</time></trkpt><trkpt lat="51.485171" lon="-0.1499593"><ele>4.0</ele><time>2026-04-14T07:22:04.205Z</time></trkpt><trkpt lat="51.4852411" lon="-0.1499724"><ele>3.9999999999999996</ele><time>2026-04-14T07:22:05.205Z</time></trkpt><trkpt lat="51.4853093" lon="-0.1499857"><ele>4.0</ele><time>2026-04-14T07:22:06.205Z</time></trkpt><trkpt lat="51.4854082" lon="-0.1500025"><ele>4.0</ele><time>2026-04-14T07:22:08.205Z</time></trkpt><trkpt lat="51.4854726" lon="-0.1500131"><ele>3.9999999999999996</ele><time>2026-04-14T07:22:10.205Z</time></trkpt><trkpt lat="51.4855334" lon="-0.1499632"><ele>4.0</ele><time>2026-04-14T07:22:15.204Z</time></trkpt><trkpt lat="51.485604" lon="-0.1499987"><ele>4.0</ele><time>2026-04-14T07:22:19.205Z</time></trkpt><trkpt lat="51.4856774" lon="-0.1500428"><ele>5.2</ele><time>2026-04-14T07:22:46.205Z</time></trkpt><trkpt lat="51.4857681" lon="-0.1501037"><ele>6.4</ele><time>2026-04-14T07:22:49.205Z</time></trkpt><trkpt lat="51.4858392" lon="-0.1501301"><ele>7.6</ele><time>2026-04-14T07:22:50.205Z</time></trkpt><trkpt lat="51.4859269" lon="-0.1501629"><ele>8.8</ele><time>2026-04-14T07:22:51.206Z</time></trkpt><trkpt lat="51.4860225" lon="-0.1502229"><ele>10.0</ele><time>2026-04-14T07:22:52.205Z</time></trkpt><trkpt lat="51.4861192" lon="-0.1503124"><ele>10.0</ele><time>2026-04-14T07:22:53.206Z</time></trkpt><trkpt lat="51.4862085" lon="-0.1504105"><ele>10.0</ele><time>2026-04-14T07:22:54.206Z</time></trkpt><trkpt lat="51.486288" lon="-0.1505158"><ele>10.0</ele><time>2026-04-14T07:22:55.206Z</time></trkpt><trkpt lat="51.4863643" lon="-0.1506188"><ele>10.0</ele><time>2026-04-14T07:22:56.206Z</time></trkpt><trkpt lat="51.486435" lon="-0.1507197"><ele>10.0</ele><time>2026-04-14T07:22:57.206Z</time></trkpt><trkpt lat="51.486503" lon="-0.1508258"><ele>10.666666666666668</ele><time>2026-04-14T07:22:58.206Z</time></trkpt><trkpt lat="51.4865665" lon="-0.1509246"><ele>11.333333333333334</ele><time>2026-04-14T07:22:59.206Z</time></trkpt><trkpt lat="51.4866285" lon="-0.1510241"><ele>12.0</ele><time>2026-04-14T07:23:00.205Z</time></trkpt><trkpt lat="51.4866857" lon="-0.1511184"><ele>12.666666666666668</ele><time>2026-04-14T07:23:01.206Z</time></trkpt><trkpt lat="51.4867449" lon="-0.1512105"><ele>13.333333333333334</ele><time>2026-04-14T07:23:02.205Z</time></trkpt><trkpt lat="51.4867984" lon="-0.1513003"><ele>14.0</ele><time>2026-04-14T07:23:03.205Z</time></trkpt><trkpt lat="51.4868524" lon="-0.1513897"><ele>14.0</ele><time>2026-04-14T07:23:04.205Z</time></trkpt><trkpt lat="51.4869039" lon="-0.1514723"><ele>13.999999999999998</ele><time>2026-04-14T07:23:05.205Z</time></trkpt><trkpt lat="51.4869491" lon="-0.1515517"><ele>13.999999999999998</ele><time>2026-04-14T07:23:06.205Z</time></trkpt><trkpt lat="51.4870467" lon="-0.1516594"><ele>14.0</ele><time>2026-04-14T07:23:08.205Z</time></trkpt><trkpt lat="51.4871794" lon="-0.1516556"><ele>14.0</ele><time>2026-04-14T07:23:10.205Z</time></trkpt><trkpt lat="51.487258" lon="-0.151602"><ele>13.399999999999999</ele><time>2026-04-14T07:23:11.205Z</time></trkpt><trkpt lat="51.4873495" lon="-0.1515346"><ele>12.799999999999999</ele><time>2026-04-14T07:23:12.206Z</time></trkpt><trkpt lat="51.4874241" lon="-0.1514829"><ele>12.2</ele><time>2026-04-14T07:23:13.206Z</time></trkpt><trkpt lat="51.4875056" lon="-0.1514224"><ele>11.600000000000001</ele><time>2026-04-14T07:23:14.205Z</time></trkpt><trkpt lat="51.4875868" lon="-0.1513656"><ele>11.0</ele><time>2026-04-14T07:23:15.205Z</time></trkpt><trkpt lat="51.4876719" lon="-0.1513008"><ele>11.0</ele><time>2026-04-14T07:23:16.206Z</time></trkpt><trkpt lat="51.4877587" lon="-0.1512314"><ele>11.0</ele><time>2026-04-14T07:23:17.206Z</time></trkpt><trkpt lat="51.4878446" lon="-0.151167"><ele>11.0</ele><time>2026-04-14T07:23:18.205Z</time></trkpt><trkpt lat="51.487934" lon="-0.1511031"><ele>11.0</ele><time>2026-04-14T07:23:19.206Z</time></trkpt><trkpt lat="51.4880283" lon="-0.1510325"><ele>11.0</ele><time>2026-04-14T07:23:20.205Z</time></trkpt><trkpt lat="51.4881267" lon="-0.150963"><ele>10.5</ele><time>2026-04-14T07:23:21.205Z</time></trkpt><trkpt lat="51.4882299" lon="-0.1508967"><ele>10.0</ele><time>2026-04-14T07:23:22.206Z</time></trkpt><trkpt lat="51.4883421" lon="-0.1508262"><ele>9.5</ele><time>2026-04-14T07:23:23.205Z</time></trkpt><trkpt lat="51.4884568" lon="-0.1507498"><ele>9.0</ele><time>2026-04-14T07:23:24.206Z</time></trkpt><trkpt lat="51.4885692" lon="-0.1506756"><ele>9.0</ele><time>2026-04-14T07:23:25.206Z</time></trkpt><trkpt lat="51.4886832" lon="-0.1506059"><ele>9.0</ele><time>2026-04-14T07:23:26.206Z</time></trkpt><trkpt lat="51.4887921" lon="-0.1505333"><ele>9.0</ele><time>2026-04-14T07:23:27.206Z</time></trkpt><trkpt lat="51.4889052" lon="-0.1504619"><ele>9.0</ele><time>2026-04-14T07:23:28.206Z</time></trkpt><trkpt lat="51.4890197" lon="-0.1503939"><ele>8.5</ele><time>2026-04-14T07:23:29.206Z</time></trkpt><trkpt lat="51.4891386" lon="-0.1503456"><ele>8.0</ele><time>2026-04-14T07:23:30.205Z</time></trkpt><trkpt lat="51.4892593" lon="-0.1503118"><ele>7.5</ele><time>2026-04-14T07:23:31.205Z</time></trkpt><trkpt lat="51.4893794" lon="-0.150287"><ele>7.0</ele><time>2026-04-14T07:23:32.206Z</time></trkpt><trkpt lat="51.4894941" lon="-0.1502689"><ele>8.0</ele><time>2026-04-14T07:23:33.205Z</time></trkpt><trkpt lat="51.4896063" lon="-0.1502575"><ele>9.0</ele><time>2026-04-14T07:23:34.206Z</time></trkpt><trkpt lat="51.4897091" lon="-0.1502366"><ele>10.0</ele><time>2026-04-14T07:23:35.205Z</time></trkpt><trkpt lat="51.4898247" lon="-0.1502197"><ele>11.0</ele><time>2026-04-14T07:23:36.205Z</time></trkpt><trkpt lat="51.4899418" lon="-0.1502002"><ele>11.0</ele><time>2026-04-14T07:23:37.205Z</time></trkpt><trkpt lat="51.4900584" lon="-0.1501763"><ele>11.0</ele><time>2026-04-14T07:23:38.205Z</time></trkpt><trkpt lat="51.4901686" lon="-0.1501587"><ele>11.0</ele><time>2026-04-14T07:23:39.206Z</time></trkpt><trkpt lat="51.4902725" lon="-0.1501412"><ele>11.0</ele><time>2026-04-14T07:23:40.206Z</time></trkpt><trkpt lat="51.4903671" lon="-0.150127"><ele>11.0</ele><time>2026-04-14T07:23:41.206Z</time></trkpt><trkpt lat="51.4904516" lon="-0.150108"><ele>11.5</ele><time>2026-04-14T07:23:42.206Z</time></trkpt><trkpt lat="51.4905209" lon="-0.1500843"><ele>12.0</ele><time>2026-04-14T07:23:43.206Z</time></trkpt><trkpt lat="51.4906168" lon="-0.1500374"><ele>12.5</ele><time>2026-04-14T07:23:45.205Z</time></trkpt><trkpt lat="51.4906828" lon="-0.1499832"><ele>13.0</ele><time>2026-04-14T07:23:48.206Z</time></trkpt><trkpt lat="51.4907586" lon="-0.1498587"><ele>13.500000000000002</ele><time>2026-04-14T07:24:12.205Z</time></trkpt><trkpt lat="51.4908104" lon="-0.1497962"><ele>14.0</ele><time>2026-04-14T07:24:13.206Z</time></trkpt><trkpt lat="51.4908699" lon="-0.1497276"><ele>14.333333333333334</ele><time>2026-04-14T07:24:14.206Z</time></trkpt><trkpt lat="51.490933" lon="-0.1496542"><ele>14.666666666666668</ele><time>2026-04-14T07:24:15.206Z</time></trkpt><trkpt lat="51.4909887" lon="-0.1495825"><ele>15.0</ele><time>2026-04-14T07:24:16.206Z</time></trkpt><trkpt lat="51.4910464" lon="-0.1495092"><ele>15.333333333333332</ele><time>2026-04-14T07:24:17.206Z</time></trkpt><trkpt lat="51.4911001" lon="-0.1494436"><ele>15.666666666666666</ele><time>2026-04-14T07:24:18.205Z</time></trkpt><trkpt lat="51.4911522" lon="-0.1493831"><ele>16.0</ele><time>2026-04-14T07:24:19.205Z</time></trkpt><trkpt lat="51.4912477" lon="-0.1492725"><ele>15.666666666666666</ele><time>2026-04-14T07:24:21.206Z</time></trkpt><trkpt lat="51.4913307" lon="-0.1491675"><ele>15.333333333333332</ele><time>2026-04-14T07:24:23.207Z</time></trkpt><trkpt lat="51.4913832" lon="-0.149107"><ele>15.0</ele><time>2026-04-14T07:24:25.206Z</time></trkpt><trkpt lat="51.4914629" lon="-0.1490001"><ele>14.666666666666668</ele><time>2026-04-14T07:24:36.207Z</time></trkpt><trkpt lat="51.4915181" lon="-0.1489327"><ele>14.333333333333334</ele><time>2026-04-14T07:24:37.207Z</time></trkpt><trkpt lat="51.4915878" lon="-0.1488561"><ele>14.0</ele><time>2026-04-14T07:24:38.206Z</time></trkpt><trkpt lat="51.4916651" lon="-0.1487736"><ele>14.000000000000002</ele><time>2026-04-14T07:24:39.207Z</time></trkpt><trkpt lat="51.4917376" lon="-0.1486905"><ele>14.0</ele><time>2026-04-14T07:24:40.207Z</time></trkpt><trkpt lat="51.4918022" lon="-0.1486178"><ele>14.0</ele><time>2026-04-14T07:24:41.207Z</time></trkpt><trkpt lat="51.4918663" lon="-0.1485525"><ele>14.0</ele><time>2026-04-14T07:24:42.206Z</time></trkpt><trkpt lat="51.4919259" lon="-0.1484926"><ele>14.000000000000002</ele><time>2026-04-14T07:24:43.207Z</time></trkpt><trkpt lat="51.4919877" lon="-0.1484334"><ele>14.0</ele><time>2026-04-14T07:24:44.207Z</time></trkpt><trkpt lat="51.4920546" lon="-0.1483677"><ele>14.000000000000002</ele><time>2026-04-14T07:24:45.207Z</time></trkpt><trkpt lat="51.4921238" lon="-0.1482985"><ele>14.0</ele><time>2026-04-14T07:24:46.206Z</time></trkpt><trkpt lat="51.4921892" lon="-0.1482309"><ele>14.0</ele><time>2026-04-14T07:24:47.207Z</time></trkpt><trkpt lat="51.4922502" lon="-0.1481707"><ele>14.0</ele><time>2026-04-14T07:24:48.206Z</time></trkpt><trkpt lat="51.4923057" lon="-0.1481191"><ele>14.000000000000002</ele><time>2026-04-14T07:24:49.206Z</time></trkpt><trkpt lat="51.492364" lon="-0.1480621"><ele>14.0</ele><time>2026-04-14T07:24:51.207Z</time></trkpt><trkpt lat="51.4924531" lon="-0.1479385"><ele>14.399999999999999</ele><time>2026-04-14T07:25:04.206Z</time></trkpt><trkpt lat="51.4925713" lon="-0.1478331"><ele>14.799999999999999</ele><time>2026-04-14T07:25:06.207Z</time></trkpt><trkpt lat="51.492643" lon="-0.1477741"><ele>15.200000000000001</ele><time>2026-04-14T07:25:07.206Z</time></trkpt><trkpt lat="51.4927175" lon="-0.1477159"><ele>15.600000000000001</ele><time>2026-04-14T07:25:08.206Z</time></trkpt><trkpt lat="51.4928011" lon="-0.1476511"><ele>16.0</ele><time>2026-04-14T07:25:09.207Z</time></trkpt><trkpt lat="51.4928872" lon="-0.1475841"><ele>16.5</ele><time>2026-04-14T07:25:10.207Z</time></trkpt><trkpt lat="51.4929751" lon="-0.1475171"><ele>17.0</ele><time>2026-04-14T07:25:11.207Z</time></trkpt><trkpt lat="51.4930591" lon="-0.1474524"><ele>17.5</ele><time>2026-04-14T07:25:12.207Z</time></trkpt><trkpt lat="51.4931403" lon="-0.147392"><ele>18.0</ele><time>2026-04-14T07:25:13.207Z</time></trkpt><trkpt lat="51.4932154" lon="-0.1473374"><ele>18.5</ele><time>2026-04-14T07:25:14.207Z</time></trkpt><trkpt lat="51.4932878" lon="-0.1472853"><ele>19.0</ele><time>2026-04-14T07:25:15.206Z</time></trkpt><trkpt lat="51.4933569" lon="-0.1472342"><ele>19.333333333333332</ele><time>2026-04-14T07:25:16.206Z</time></trkpt><trkpt lat="51.4934222" lon="-0.1471769"><ele>19.666666666666664</ele><time>2026-04-14T07:25:17.207Z</time></trkpt><trkpt lat="51.4934898" lon="-0.1471148"><ele>20.0</ele><time>2026-04-14T07:25:18.207Z</time></trkpt><trkpt lat="51.4935631" lon="-0.1470551"><ele>20.333333333333332</ele><time>2026-04-14T07:25:19.207Z</time></trkpt><trkpt lat="51.4936338" lon="-0.1470041"><ele>20.666666666666668</ele><time>2026-04-14T07:25:20.206Z</time></trkpt><trkpt lat="51.4937" lon="-0.1469602"><ele>21.0</ele><time>2026-04-14T07:25:21.206Z</time></trkpt><trkpt lat="51.4938035" lon="-0.1468821"><ele>21.0</ele><time>2026-04-14T07:25:23.206Z</time></trkpt><trkpt lat="51.4939079" lon="-0.1468269"><ele>21.0</ele><time>2026-04-14T07:25:25.206Z</time></trkpt><trkpt lat="51.4940308" lon="-0.1467884"><ele>21.0</ele><time>2026-04-14T07:25:27.206Z</time></trkpt><trkpt lat="51.4941401" lon="-0.1467433"><ele>21.0</ele><time>2026-04-14T07:25:29.207Z</time></trkpt><trkpt lat="51.4942403" lon="-0.146685"><ele>21.0</ele><time>2026-04-14T07:25:31.207Z</time></trkpt><trkpt lat="51.4943455" lon="-0.1466218"><ele>21.0</ele><time>2026-04-14T07:25:33.207Z</time></trkpt><trkpt lat="51.4944519" lon="-0.1465496"><ele>21.0</ele><time>2026-04-14T07:25:35.206Z</time></trkpt><trkpt lat="51.4945609" lon="-0.1464632"><ele>21.0</ele><time>2026-04-14T07:25:37.206Z</time></trkpt><trkpt lat="51.4946193" lon="-0.1464182"><ele>21.0</ele><time>2026-04-14T07:25:38.206Z</time></trkpt><trkpt lat="51.4947322" lon="-0.1463382"><ele>21.0</ele><time>2026-04-14T07:25:40.206Z</time></trkpt><trkpt lat="51.4947907" lon="-0.1462949"><ele>21.0</ele><time>2026-04-14T07:25:41.206Z</time></trkpt><trkpt lat="51.4948975" lon="-0.1462162"><ele>21.0</ele><time>2026-04-14T07:25:43.207Z</time></trkpt><trkpt lat="51.4950062" lon="-0.1461356"><ele>21.0</ele><time>2026-04-14T07:25:45.206Z</time></trkpt><trkpt lat="51.4951108" lon="-0.1460577"><ele>21.0</ele><time>2026-04-14T07:25:47.207Z</time></trkpt><trkpt lat="51.495203" lon="-0.1459945"><ele>21.0</ele><time>2026-04-14T07:25:49.206Z</time></trkpt><trkpt lat="51.4953043" lon="-0.1459259"><ele>21.0</ele><time>2026-04-14T07:25:51.207Z</time></trkpt><trkpt lat="51.495422" lon="-0.1458475"><ele>21.0</ele><time>2026-04-14T07:25:53.207Z</time></trkpt><trkpt lat="51.495485" lon="-0.1458048"><ele>21.0</ele><time>2026-04-14T07:25:54.208Z</time></trkpt><trkpt lat="51.4955503" lon="-0.1457582"><ele>21.0</ele><time>2026-04-14T07:25:55.207Z</time></trkpt><trkpt lat="51.4956199" lon="-0.1457125"><ele>20.5</ele><time>2026-04-14T07:25:56.208Z</time></trkpt><trkpt lat="51.495686" lon="-0.1456626"><ele>20.0</ele><time>2026-04-14T07:25:57.208Z</time></trkpt><trkpt lat="51.4957494" lon="-0.1456119"><ele>19.5</ele><time>2026-04-14T07:25:58.208Z</time></trkpt><trkpt lat="51.4958076" lon="-0.1455731"><ele>19.0</ele><time>2026-04-14T07:25:59.207Z</time></trkpt><trkpt lat="51.4959247" lon="-0.1455375"><ele>18.5</ele><time>2026-04-14T07:26:01.208Z</time></trkpt><trkpt lat="51.4959901" lon="-0.1455369"><ele>18.0</ele><time>2026-04-14T07:26:02.207Z</time></trkpt><trkpt lat="51.4960563" lon="-0.1455541"><ele>18.0</ele><time>2026-04-14T07:26:03.207Z</time></trkpt><trkpt lat="51.4961278" lon="-0.1456007"><ele>18.0</ele><time>2026-04-14T07:26:04.208Z</time></trkpt><trkpt lat="51.4961998" lon="-0.1456497"><ele>18.0</ele><time>2026-04-14T07:26:05.208Z</time></trkpt><trkpt lat="51.4962774" lon="-0.1456995"><ele>18.0</ele><time>2026-04-14T07:26:06.208Z</time></trkpt><trkpt lat="51.496368" lon="-0.1457492"><ele>18.0</ele><time>2026-04-14T07:26:07.207Z</time></trkpt><trkpt lat="51.4964756" lon="-0.1458013"><ele>18.0</ele><time>2026-04-14T07:26:08.208Z</time></trkpt><trkpt lat="51.4965815" lon="-0.1458644"><ele>18.0</ele><time>2026-04-14T07:26:09.208Z</time></trkpt><trkpt lat="51.4966644" lon="-0.1459125"><ele>18.0</ele><time>2026-04-14T07:26:10.208Z</time></trkpt><trkpt lat="51.4967367" lon="-0.1459486"><ele>18.0</ele><time>2026-04-14T07:26:11.208Z</time></trkpt><trkpt lat="51.4968274" lon="-0.1459995"><ele>18.0</ele><time>2026-04-14T07:26:13.207Z</time></trkpt><trkpt lat="51.4969504" lon="-0.1461567"><ele>18.0</ele><time>2026-04-14T07:26:26.208Z</time></trkpt><trkpt lat="51.4970141" lon="-0.1461942"><ele>18.2</ele><time>2026-04-14T07:26:27.208Z</time></trkpt><trkpt lat="51.4970907" lon="-0.1462342"><ele>18.4</ele><time>2026-04-14T07:26:28.208Z</time></trkpt><trkpt lat="51.4971998" lon="-0.1463041"><ele>18.599999999999998</ele><time>2026-04-14T07:26:29.207Z</time></trkpt><trkpt lat="51.4973108" lon="-0.146385"><ele>18.8</ele><time>2026-04-14T07:26:30.208Z</time></trkpt><trkpt lat="51.4974098" lon="-0.1464563"><ele>19.0</ele><time>2026-04-14T07:26:31.208Z</time></trkpt><trkpt lat="51.497501" lon="-0.1465161"><ele>19.0</ele><time>2026-04-14T07:26:32.208Z</time></trkpt><trkpt lat="51.4975852" lon="-0.1465724"><ele>19.0</ele><time>2026-04-14T07:26:33.208Z</time></trkpt><trkpt lat="51.4976638" lon="-0.146623"><ele>19.0</ele><time>2026-04-14T07:26:34.208Z</time></trkpt><trkpt lat="51.4977391" lon="-0.1466701"><ele>19.0</ele><time>2026-04-14T07:26:35.208Z</time></trkpt><trkpt lat="51.4978107" lon="-0.1467144"><ele>19.0</ele><time>2026-04-14T07:26:36.207Z</time></trkpt><trkpt lat="51.4978682" lon="-0.1467568"><ele>19.0</ele><time>2026-04-14T07:26:37.208Z</time></trkpt><trkpt lat="51.4979642" lon="-0.1468185"><ele>17.8</ele><time>2026-04-14T07:26:39.208Z</time></trkpt><trkpt lat="51.4980694" lon="-0.1468905"><ele>16.599999999999998</ele><time>2026-04-14T07:26:41.208Z</time></trkpt><trkpt lat="51.4981424" lon="-0.1469553"><ele>15.4</ele><time>2026-04-14T07:26:42.208Z</time></trkpt><trkpt lat="51.4982158" lon="-0.1470247"><ele>14.2</ele><time>2026-04-14T07:26:43.208Z</time></trkpt><trkpt lat="51.4983039" lon="-0.1471002"><ele>13.0</ele><time>2026-04-14T07:26:44.207Z</time></trkpt><trkpt lat="51.4983874" lon="-0.1471716"><ele>13.0</ele><time>2026-04-14T07:26:45.207Z</time></trkpt><trkpt lat="51.4984785" lon="-0.1472558"><ele>13.0</ele><time>2026-04-14T07:26:46.208Z</time></trkpt><trkpt lat="51.4985737" lon="-0.1473402"><ele>13.0</ele><time>2026-04-14T07:26:47.208Z</time></trkpt><trkpt lat="51.4986667" lon="-0.1474251"><ele>13.0</ele><time>2026-04-14T07:26:48.208Z</time></trkpt><trkpt lat="51.4987571" lon="-0.1475104"><ele>13.0</ele><time>2026-04-14T07:26:49.208Z</time></trkpt><trkpt lat="51.4988442" lon="-0.1475919"><ele>13.499999999999998</ele><time>2026-04-14T07:26:50.208Z</time></trkpt><trkpt lat="51.4989279" lon="-0.1476667"><ele>14.0</ele><time>2026-04-14T07:26:51.207Z</time></trkpt><trkpt lat="51.4990038" lon="-0.1477418"><ele>14.5</ele><time>2026-04-14T07:26:52.208Z</time></trkpt><trkpt lat="51.4990716" lon="-0.1478099"><ele>15.0</ele><time>2026-04-14T07:26:53.208Z</time></trkpt><trkpt lat="51.4991288" lon="-0.1478605"><ele>15.499999999999998</ele><time>2026-04-14T07:26:54.208Z</time></trkpt><trkpt lat="51.4992163" lon="-0.1479412"><ele>16.0</ele><time>2026-04-14T07:26:56.207Z</time></trkpt><trkpt lat="51.4993005" lon="-0.1480299"><ele>15.999999999999998</ele><time>2026-04-14T07:26:58.207Z</time></trkpt><trkpt lat="51.4993523" lon="-0.1480892"><ele>16.0</ele><time>2026-04-14T07:26:59.207Z</time></trkpt><trkpt lat="51.4994097" lon="-0.148155"><ele>16.0</ele><time>2026-04-14T07:27:00.207Z</time></trkpt><trkpt lat="51.4994736" lon="-0.1482272"><ele>16.0</ele><time>2026-04-14T07:27:01.208Z</time></trkpt><trkpt lat="51.4995459" lon="-0.1483052"><ele>15.999999999999998</ele><time>2026-04-14T07:27:02.207Z</time></trkpt><trkpt lat="51.4996216" lon="-0.1483922"><ele>16.0</ele><time>2026-04-14T07:27:03.207Z</time></trkpt><trkpt lat="51.4996966" lon="-0.1484809"><ele>16.2</ele><time>2026-04-14T07:27:04.207Z</time></trkpt><trkpt lat="51.4997722" lon="-0.1485701"><ele>16.400000000000002</ele><time>2026-04-14T07:27:05.207Z</time></trkpt><trkpt lat="51.4998489" lon="-0.1486596"><ele>16.6</ele><time>2026-04-14T07:27:06.207Z</time></trkpt><trkpt lat="51.4999267" lon="-0.1487489"><ele>16.8</ele><time>2026-04-14T07:27:07.207Z</time></trkpt><trkpt lat="51.5000054" lon="-0.1488378"><ele>17.0</ele><time>2026-04-14T07:27:08.208Z</time></trkpt><trkpt lat="51.5000843" lon="-0.1489318"><ele>17.0</ele><time>2026-04-14T07:27:09.207Z</time></trkpt><trkpt lat="51.5001629" lon="-0.1490282"><ele>17.0</ele><time>2026-04-14T07:27:10.207Z</time></trkpt><trkpt lat="51.5002382" lon="-0.1491311"><ele>17.0</ele><time>2026-04-14T07:27:11.208Z</time></trkpt><trkpt lat="51.5003107" lon="-0.1492385"><ele>17.0</ele><time>2026-04-14T07:27:12.208Z</time></trkpt><trkpt lat="51.5003805" lon="-0.149346"><ele>17.0</ele><time>2026-04-14T07:27:13.207Z</time></trkpt><trkpt lat="51.500448" lon="-0.1494531"><ele>16.8</ele><time>2026-04-14T07:27:14.207Z</time></trkpt><trkpt lat="51.5005135" lon="-0.1495594"><ele>16.6</ele><time>2026-04-14T07:27:15.208Z</time></trkpt><trkpt lat="51.5005781" lon="-0.1496642"><ele>16.400000000000002</ele><time>2026-04-14T07:27:16.208Z</time></trkpt><trkpt lat="51.500641" lon="-0.1497624"><ele>16.2</ele><time>2026-04-14T07:27:17.208Z</time></trkpt><trkpt lat="51.5007055" lon="-0.1498652"><ele>16.0</ele><time>2026-04-14T07:27:18.208Z</time></trkpt><trkpt lat="51.5007693" lon="-0.149966"><ele>16.5</ele><time>2026-04-14T07:27:19.208Z</time></trkpt><trkpt lat="51.5008323" lon="-0.1500653"><ele>17.0</ele><time>2026-04-14T07:27:20.208Z</time></trkpt><trkpt lat="51.5008941" lon="-0.1501628"><ele>17.5</ele><time>2026-04-14T07:27:21.208Z</time></trkpt><trkpt lat="51.5009547" lon="-0.1502549"><ele>18.0</ele><time>2026-04-14T07:27:22.209Z</time></trkpt><trkpt lat="51.5010118" lon="-0.1503399"><ele>18.5</ele><time>2026-04-14T07:27:23.208Z</time></trkpt><trkpt lat="51.5010682" lon="-0.1504216"><ele>19.0</ele><time>2026-04-14T07:27:24.209Z</time></trkpt><trkpt lat="51.5011237" lon="-0.1504966"><ele>19.0</ele><time>2026-04-14T07:27:25.208Z</time></trkpt><trkpt lat="51.5011803" lon="-0.1505703"><ele>19.0</ele><time>2026-04-14T07:27:26.209Z</time></trkpt><trkpt lat="51.5012373" lon="-0.1506448"><ele>19.0</ele><time>2026-04-14T07:27:27.208Z</time></trkpt><trkpt lat="51.5012934" lon="-0.1507273"><ele>19.0</ele><time>2026-04-14T07:27:28.208Z</time></trkpt><trkpt lat="51.5013635" lon="-0.150832"><ele>19.0</ele><time>2026-04-14T07:27:29.209Z</time></trkpt><trkpt lat="51.5014413" lon="-0.1509431"><ele>19.0</ele><time>2026-04-14T07:27:30.209Z</time></trkpt><trkpt lat="51.501519" lon="-0.1510608"><ele>18.8</ele><time>2026-04-14T07:27:31.208Z</time></trkpt><trkpt lat="51.5015909" lon="-0.1511721"><ele>18.599999999999998</ele><time>2026-04-14T07:27:32.208Z</time></trkpt><trkpt lat="51.5016616" lon="-0.1512808"><ele>18.4</ele><time>2026-04-14T07:27:33.208Z</time></trkpt><trkpt lat="51.5017367" lon="-0.1513874"><ele>18.2</ele><time>2026-04-14T07:27:34.208Z</time></trkpt><trkpt lat="51.5018133" lon="-0.1514892"><ele>18.0</ele><time>2026-04-14T07:27:35.209Z</time></trkpt><trkpt lat="51.5018897" lon="-0.1515831"><ele>18.0</ele><time>2026-04-14T07:27:36.208Z</time></trkpt><trkpt lat="51.5019689" lon="-0.1516719"><ele>18.0</ele><time>2026-04-14T07:27:37.209Z</time></trkpt><trkpt lat="51.5020507" lon="-0.1517553"><ele>18.0</ele><time>2026-04-14T07:27:38.209Z</time></trkpt><trkpt lat="51.5021396" lon="-0.1518386"><ele>18.0</ele><time>2026-04-14T07:27:39.209Z</time></trkpt><trkpt lat="51.5022223" lon="-0.1519159"><ele>18.0</ele><time>2026-04-14T07:27:40.208Z</time></trkpt><trkpt lat="51.5023177" lon="-0.1519737"><ele>18.0</ele><time>2026-04-14T07:27:41.209Z</time></trkpt><trkpt lat="51.5024193" lon="-0.1520376"><ele>18.0</ele><time>2026-04-14T07:27:42.208Z</time></trkpt><trkpt lat="51.5025108" lon="-0.1521011"><ele>18.0</ele><time>2026-04-14T07:27:43.209Z</time></trkpt><trkpt lat="51.5025976" lon="-0.1521549"><ele>18.0</ele><time>2026-04-14T07:27:44.209Z</time></trkpt><trkpt lat="51.5026817" lon="-0.1522034"><ele>18.0</ele><time>2026-04-14T07:27:45.208Z</time></trkpt><trkpt lat="51.5027612" lon="-0.1522214"><ele>18.0</ele><time>2026-04-14T07:27:46.209Z</time></trkpt><trkpt lat="51.502842" lon="-0.1522053"><ele>18.0</ele><time>2026-04-14T07:27:47.208Z</time></trkpt><trkpt lat="51.5029229" lon="-0.1521523"><ele>18.0</ele><time>2026-04-14T07:27:48.209Z</time></trkpt><trkpt lat="51.5029978" lon="-0.1520723"><ele>18.0</ele><time>2026-04-14T07:27:49.209Z</time></trkpt><trkpt lat="51.5030624" lon="-0.1519734"><ele>18.0</ele><time>2026-04-14T07:27:50.208Z</time></trkpt><trkpt lat="51.5031169" lon="-0.1518649"><ele>18.0</ele><time>2026-04-14T07:27:51.209Z</time></trkpt><trkpt lat="51.5031534" lon="-0.1517498"><ele>18.571428571428573</ele><time>2026-04-14T07:27:52.209Z</time></trkpt><trkpt lat="51.5031806" lon="-0.1516418"><ele>19.142857142857142</ele><time>2026-04-14T07:27:53.208Z</time></trkpt><trkpt lat="51.5032026" lon="-0.1515348"><ele>19.714285714285715</ele><time>2026-04-14T07:27:54.208Z</time></trkpt><trkpt lat="51.5032246" lon="-0.1514263"><ele>20.285714285714285</ele><time>2026-04-14T07:27:55.208Z</time></trkpt><trkpt lat="51.5032493" lon="-0.1513182"><ele>20.857142857142858</ele><time>2026-04-14T07:27:56.209Z</time></trkpt><trkpt lat="51.5032767" lon="-0.1512158"><ele>21.42857142857143</ele><time>2026-04-14T07:27:57.208Z</time></trkpt><trkpt lat="51.5033088" lon="-0.1511285"><ele>22.0</ele><time>2026-04-14T07:27:58.208Z</time></trkpt><trkpt lat="51.5034208" lon="-0.1510568"><ele>23.0</ele><time>2026-04-14T07:28:00.208Z</time></trkpt><trkpt lat="51.5034972" lon="-0.1510705"><ele>24.0</ele><time>2026-04-14T07:28:01.209Z</time></trkpt><trkpt lat="51.5036001" lon="-0.1511083"><ele>25.0</ele><time>2026-04-14T07:28:02.208Z</time></trkpt><trkpt lat="51.5037288" lon="-0.1511732"><ele>26.0</ele><time>2026-04-14T07:28:03.208Z</time></trkpt><trkpt lat="51.50386" lon="-0.1512524"><ele>26.200000000000003</ele><time>2026-04-14T07:28:04.209Z</time></trkpt><trkpt lat="51.5039577" lon="-0.1513478"><ele>26.400000000000002</ele><time>2026-04-14T07:28:05.208Z</time></trkpt><trkpt lat="51.5040251" lon="-0.1514598"><ele>26.6</ele><time>2026-04-14T07:28:06.209Z</time></trkpt><trkpt lat="51.5040686" lon="-0.1515999"><ele>26.8</ele><time>2026-04-14T07:28:07.208Z</time></trkpt><trkpt lat="51.5040907" lon="-0.1517586"><ele>27.0</ele><time>2026-04-14T07:28:08.209Z</time></trkpt><trkpt lat="51.5041134" lon="-0.1519134"><ele>26.166666666666668</ele><time>2026-04-14T07:28:09.209Z</time></trkpt><trkpt lat="51.5041498" lon="-0.1520442"><ele>25.333333333333332</ele><time>2026-04-14T07:28:10.209Z</time></trkpt><trkpt lat="51.5042034" lon="-0.1521423"><ele>24.5</ele><time>2026-04-14T07:28:11.208Z</time></trkpt><trkpt lat="51.5042669" lon="-0.1521996"><ele>23.666666666666664</ele><time>2026-04-14T07:28:12.209Z</time></trkpt><trkpt lat="51.5043374" lon="-0.1522173"><ele>22.833333333333332</ele><time>2026-04-14T07:28:13.209Z</time></trkpt><trkpt lat="51.5044068" lon="-0.1522001"><ele>22.0</ele><time>2026-04-14T07:28:14.208Z</time></trkpt><trkpt lat="51.5044755" lon="-0.1521648"><ele>22.0</ele><time>2026-04-14T07:28:15.208Z</time></trkpt><trkpt lat="51.5045429" lon="-0.1521267"><ele>22.0</ele><time>2026-04-14T07:28:16.209Z</time></trkpt><trkpt lat="51.504614" lon="-0.1520983"><ele>22.0</ele><time>2026-04-14T07:28:17.208Z</time></trkpt><trkpt lat="51.5046875" lon="-0.1520759"><ele>22.0</ele><time>2026-04-14T07:28:18.209Z</time></trkpt><trkpt lat="51.5047607" lon="-0.1520518"><ele>22.0</ele><time>2026-04-14T07:28:19.208Z</time></trkpt><trkpt lat="51.5048344" lon="-0.1520298"><ele>22.0</ele><time>2026-04-14T07:28:20.209Z</time></trkpt><trkpt lat="51.5049094" lon="-0.1520094"><ele>22.0</ele><time>2026-04-14T07:28:21.208Z</time></trkpt><trkpt lat="51.5049865" lon="-0.1519885"><ele>21.166666666666664</ele><time>2026-04-14T07:28:22.209Z</time></trkpt><trkpt lat="51.5050654" lon="-0.1519697"><ele>20.333333333333332</ele><time>2026-04-14T07:28:23.209Z</time></trkpt><trkpt lat="51.5051454" lon="-0.1519554"><ele>19.5</ele><time>2026-04-14T07:28:24.208Z</time></trkpt><trkpt lat="51.5052259" lon="-0.1519421"><ele>18.666666666666668</ele><time>2026-04-14T07:28:25.209Z</time></trkpt><trkpt lat="51.5053074" lon="-0.1519349"><ele>17.833333333333336</ele><time>2026-04-14T07:28:26.209Z</time></trkpt><trkpt lat="51.5053904" lon="-0.1519338"><ele>17.0</ele><time>2026-04-14T07:28:27.209Z</time></trkpt><trkpt lat="51.5054746" lon="-0.1519369"><ele>19.5</ele><time>2026-04-14T07:28:28.209Z</time></trkpt><trkpt lat="51.5055591" lon="-0.1519409"><ele>22.0</ele><time>2026-04-14T07:28:29.209Z</time></trkpt><trkpt lat="51.5056432" lon="-0.1519485"><ele>24.5</ele><time>2026-04-14T07:28:30.208Z</time></trkpt><trkpt lat="51.5057278" lon="-0.1519617"><ele>27.0</ele><time>2026-04-14T07:28:31.208Z</time></trkpt><trkpt lat="51.505812" lon="-0.1519883"><ele>29.499999999999996</ele><time>2026-04-14T07:28:32.209Z</time></trkpt><trkpt lat="51.5058921" lon="-0.1520204"><ele>32.0</ele><time>2026-04-14T07:28:33.209Z</time></trkpt><trkpt lat="51.5059728" lon="-0.1520585"><ele>31.999999999999996</ele><time>2026-04-14T07:28:34.209Z</time></trkpt><trkpt lat="51.5060516" lon="-0.152099"><ele>32.0</ele><time>2026-04-14T07:28:35.209Z</time></trkpt><trkpt lat="51.5061262" lon="-0.15214"><ele>32.0</ele><time>2026-04-14T07:28:36.208Z</time></trkpt><trkpt lat="51.5061988" lon="-0.1521851"><ele>32.0</ele><time>2026-04-14T07:28:37.209Z</time></trkpt><trkpt lat="51.5062608" lon="-0.1522316"><ele>31.999999999999996</ele><time>2026-04-14T07:28:38.209Z</time></trkpt><trkpt lat="51.5063438" lon="-0.1523104"><ele>32.0</ele><time>2026-04-14T07:28:40.208Z</time></trkpt><trkpt lat="51.5064027" lon="-0.1523679"><ele>32.6</ele><time>2026-04-14T07:28:43.208Z</time></trkpt><trkpt lat="51.5064959" lon="-0.1524688"><ele>33.2</ele><time>2026-04-14T07:28:46.21Z</time></trkpt><trkpt lat="51.5066001" lon="-0.1525931"><ele>33.8</ele><time>2026-04-14T07:28:48.208Z</time></trkpt><trkpt lat="51.5066597" lon="-0.1526638"><ele>34.4</ele><time>2026-04-14T07:28:49.21Z</time></trkpt><trkpt lat="51.5067233" lon="-0.152738"><ele>35.0</ele><time>2026-04-14T07:28:50.21Z</time></trkpt><trkpt lat="51.5067877" lon="-0.1528136"><ele>35.0</ele><time>2026-04-14T07:28:51.21Z</time></trkpt><trkpt lat="51.5068522" lon="-0.1528897"><ele>35.0</ele><time>2026-04-14T07:28:52.209Z</time></trkpt><trkpt lat="51.5069149" lon="-0.1529659"><ele>35.0</ele><time>2026-04-14T07:28:53.209Z</time></trkpt><trkpt lat="51.5069789" lon="-0.153044"><ele>35.0</ele><time>2026-04-14T07:28:54.209Z</time></trkpt><trkpt lat="51.507044" lon="-0.1531238"><ele>35.0</ele><time>2026-04-14T07:28:55.209Z</time></trkpt><trkpt lat="51.5071109" lon="-0.1532051"><ele>35.0</ele><time>2026-04-14T07:28:56.21Z</time></trkpt><trkpt lat="51.5071781" lon="-0.1532861"><ele>35.83333333333333</ele><time>2026-04-14T07:28:57.21Z</time></trkpt><trkpt lat="51.507246" lon="-0.153367"><ele>36.666666666666664</ele><time>2026-04-14T07:28:58.209Z</time></trkpt><trkpt lat="51.5073158" lon="-0.1534486"><ele>37.5</ele><time>2026-04-14T07:28:59.209Z</time></trkpt><trkpt lat="51.5073856" lon="-0.1535281"><ele>38.333333333333336</ele><time>2026-04-14T07:29:00.21Z</time></trkpt><trkpt lat="51.5074549" lon="-0.1536094"><ele>39.16666666666667</ele><time>2026-04-14T07:29:01.209Z</time></trkpt><trkpt lat="51.5075222" lon="-0.1536909"><ele>40.0</ele><time>2026-04-14T07:29:02.209Z</time></trkpt><trkpt lat="51.5075848" lon="-0.1537682"><ele>40.0</ele><time>2026-04-14T07:29:03.21Z</time></trkpt><trkpt lat="51.5076444" lon="-0.1538436"><ele>40.0</ele><time>2026-04-14T07:29:04.21Z</time></trkpt><trkpt lat="51.5077042" lon="-0.1539172"><ele>40.0</ele><time>2026-04-14T07:29:05.209Z</time></trkpt><trkpt lat="51.5077637" lon="-0.1539884"><ele>40.0</ele><time>2026-04-14T07:29:06.21Z</time></trkpt><trkpt lat="51.5078237" lon="-0.1540564"><ele>40.0</ele><time>2026-04-14T07:29:07.21Z</time></trkpt><trkpt lat="51.5078828" lon="-0.1541257"><ele>40.0</ele><time>2026-04-14T07:29:08.21Z</time></trkpt><trkpt lat="51.5079422" lon="-0.1541963"><ele>40.0</ele><time>2026-04-14T07:29:09.21Z</time></trkpt><trkpt lat="51.5080042" lon="-0.1542638"><ele>39.66666666666667</ele><time>2026-04-14T07:29:10.21Z</time></trkpt><trkpt lat="51.5080676" lon="-0.1543321"><ele>39.333333333333336</ele><time>2026-04-14T07:29:11.209Z</time></trkpt><trkpt lat="51.5081318" lon="-0.1544023"><ele>39.0</ele><time>2026-04-14T07:29:12.21Z</time></trkpt><trkpt lat="51.5081953" lon="-0.1544735"><ele>38.666666666666664</ele><time>2026-04-14T07:29:13.21Z</time></trkpt><trkpt lat="51.5082588" lon="-0.1545459"><ele>38.33333333333333</ele><time>2026-04-14T07:29:14.21Z</time></trkpt><trkpt lat="51.5083222" lon="-0.1546194"><ele>38.0</ele><time>2026-04-14T07:29:15.21Z</time></trkpt><trkpt lat="51.5083857" lon="-0.1546942"><ele>38.0</ele><time>2026-04-14T07:29:16.21Z</time></trkpt><trkpt lat="51.5084495" lon="-0.1547699"><ele>38.0</ele><time>2026-04-14T07:29:17.21Z</time></trkpt><trkpt lat="51.5085123" lon="-0.1548469"><ele>38.0</ele><time>2026-04-14T07:29:18.21Z</time></trkpt><trkpt lat="51.5085754" lon="-0.1549255"><ele>38.0</ele><time>2026-04-14T07:29:19.209Z</time></trkpt><trkpt lat="51.5086365" lon="-0.1550069"><ele>38.0</ele><time>2026-04-14T07:29:20.21Z</time></trkpt><trkpt lat="51.5086966" lon="-0.1550875"><ele>38.0</ele><time>2026-04-14T07:29:21.209Z</time></trkpt><trkpt lat="51.5087558" lon="-0.1551694"><ele>38.166666666666664</ele><time>2026-04-14T07:29:22.21Z</time></trkpt><trkpt lat="51.5088134" lon="-0.1552543"><ele>38.33333333333333</ele><time>2026-04-14T07:29:23.209Z</time></trkpt><trkpt lat="51.5088705" lon="-0.1553371"><ele>38.5</ele><time>2026-04-14T07:29:24.21Z</time></trkpt><trkpt lat="51.508929" lon="-0.1554173"><ele>38.666666666666664</ele><time>2026-04-14T07:29:25.21Z</time></trkpt><trkpt lat="51.5089864" lon="-0.1554991"><ele>38.833333333333336</ele><time>2026-04-14T07:29:26.21Z</time></trkpt><trkpt lat="51.5090433" lon="-0.1555804"><ele>39.0</ele><time>2026-04-14T07:29:27.21Z</time></trkpt><trkpt lat="51.5090978" lon="-0.1556562"><ele>38.333333333333336</ele><time>2026-04-14T07:29:28.21Z</time></trkpt><trkpt lat="51.5091537" lon="-0.1557309"><ele>37.666666666666664</ele><time>2026-04-14T07:29:29.209Z</time></trkpt><trkpt lat="51.5092101" lon="-0.1558075"><ele>37.0</ele><time>2026-04-14T07:29:30.21Z</time></trkpt><trkpt lat="51.5092656" lon="-0.1558831"><ele>36.33333333333333</ele><time>2026-04-14T07:29:31.21Z</time></trkpt><trkpt lat="51.5093187" lon="-0.1559583"><ele>35.666666666666664</ele><time>2026-04-14T07:29:32.21Z</time></trkpt><trkpt lat="51.5093686" lon="-0.1560297"><ele>35.0</ele><time>2026-04-14T07:29:33.21Z</time></trkpt><trkpt lat="51.5094531" lon="-0.1561552"><ele>35.0</ele><time>2026-04-14T07:29:35.209Z</time></trkpt><trkpt lat="51.5095101" lon="-0.1562359"><ele>35.0</ele><time>2026-04-14T07:29:37.209Z</time></trkpt><trkpt lat="51.5095595" lon="-0.1563034"><ele>35.0</ele><time>2026-04-14T07:29:41.21Z</time></trkpt><trkpt lat="51.5096262" lon="-0.1564008"><ele>35.0</ele><time>2026-04-14T07:29:44.21Z</time></trkpt><trkpt lat="51.5096953" lon="-0.1565046"><ele>35.0</ele><time>2026-04-14T07:29:46.21Z</time></trkpt><trkpt lat="51.5097802" lon="-0.1566265"><ele>35.0</ele><time>2026-04-14T07:29:48.21Z</time></trkpt><trkpt lat="51.5098345" lon="-0.1566924"><ele>34.857142857142854</ele><time>2026-04-14T07:29:49.21Z</time></trkpt><trkpt lat="51.5098932" lon="-0.1567572"><ele>34.714285714285715</ele><time>2026-04-14T07:29:50.21Z</time></trkpt><trkpt lat="51.5099546" lon="-0.1568204"><ele>34.57142857142857</ele><time>2026-04-14T07:29:51.21Z</time></trkpt><trkpt lat="51.510017" lon="-0.1568825"><ele>34.42857142857143</ele><time>2026-04-14T07:29:52.209Z</time></trkpt><trkpt lat="51.5100792" lon="-0.1569411"><ele>34.285714285714285</ele><time>2026-04-14T07:29:53.21Z</time></trkpt><trkpt lat="51.5101384" lon="-0.1569985"><ele>34.14285714285714</ele><time>2026-04-14T07:29:54.21Z</time></trkpt><trkpt lat="51.5101944" lon="-0.1570553"><ele>34.0</ele><time>2026-04-14T07:29:55.21Z</time></trkpt><trkpt lat="51.5102507" lon="-0.1571104"><ele>34.0</ele><time>2026-04-14T07:29:56.21Z</time></trkpt><trkpt lat="51.5103063" lon="-0.1571641"><ele>34.0</ele><time>2026-04-14T07:29:57.209Z</time></trkpt><trkpt lat="51.5103612" lon="-0.1572179"><ele>34.0</ele><time>2026-04-14T07:29:58.21Z</time></trkpt><trkpt lat="51.5104719" lon="-0.1573132"><ele>34.0</ele><time>2026-04-14T07:30:00.209Z</time></trkpt><trkpt lat="51.5105299" lon="-0.1573606"><ele>34.0</ele><time>2026-04-14T07:30:01.209Z</time></trkpt><trkpt lat="51.5106259" lon="-0.157439"><ele>34.0</ele><time>2026-04-14T07:30:03.209Z</time></trkpt><trkpt lat="51.5107136" lon="-0.1575028"><ele>35.0</ele><time>2026-04-14T07:30:05.21Z</time></trkpt><trkpt lat="51.5109251" lon="-0.1573636"><ele>36.0</ele><time>2026-04-14T07:30:11.21Z</time></trkpt><trkpt lat="51.5109622" lon="-0.1572756"><ele>37.0</ele><time>2026-04-14T07:30:14.21Z</time></trkpt><trkpt lat="51.5109947" lon="-0.157114"><ele>38.0</ele><time>2026-04-14T07:30:38.211Z</time></trkpt><trkpt lat="51.5110437" lon="-0.1569212"><ele>38.0</ele><time>2026-04-14T07:30:40.211Z</time></trkpt><trkpt lat="51.511068" lon="-0.1568024"><ele>38.0</ele><time>2026-04-14T07:30:41.21Z</time></trkpt><trkpt lat="51.5110902" lon="-0.1566751"><ele>38.0</ele><time>2026-04-14T07:30:42.211Z</time></trkpt><trkpt lat="51.5111162" lon="-0.1565414"><ele>38.0</ele><time>2026-04-14T07:30:43.211Z</time></trkpt><trkpt lat="51.5111436" lon="-0.1564"><ele>38.0</ele><time>2026-04-14T07:30:44.211Z</time></trkpt><trkpt lat="51.5111729" lon="-0.1562535"><ele>38.0</ele><time>2026-04-14T07:30:45.211Z</time></trkpt><trkpt lat="51.5112007" lon="-0.1561071"><ele>37.666666666666664</ele><time>2026-04-14T07:30:46.211Z</time></trkpt><trkpt lat="51.5112284" lon="-0.1559641"><ele>37.33333333333333</ele><time>2026-04-14T07:30:47.211Z</time></trkpt><trkpt lat="51.5112556" lon="-0.1558341"><ele>37.0</ele><time>2026-04-14T07:30:48.211Z</time></trkpt><trkpt lat="51.5112757" lon="-0.1557102"><ele>36.666666666666664</ele><time>2026-04-14T07:30:49.211Z</time></trkpt><trkpt lat="51.5112924" lon="-0.1555897"><ele>36.333333333333336</ele><time>2026-04-14T07:30:50.211Z</time></trkpt><trkpt lat="51.5113085" lon="-0.1554748"><ele>36.0</ele><time>2026-04-14T07:30:51.211Z</time></trkpt><trkpt lat="51.5113319" lon="-0.1553693"><ele>35.833333333333336</ele><time>2026-04-14T07:30:52.211Z</time></trkpt><trkpt lat="51.5113506" lon="-0.1552692"><ele>35.666666666666664</ele><time>2026-04-14T07:30:53.211Z</time></trkpt><trkpt lat="51.5113754" lon="-0.1551313"><ele>35.5</ele><time>2026-04-14T07:30:55.211Z</time></trkpt><trkpt lat="51.5114018" lon="-0.1550144"><ele>35.33333333333333</ele><time>2026-04-14T07:31:06.211Z</time></trkpt><trkpt lat="51.511427" lon="-0.1548671"><ele>35.166666666666664</ele><time>2026-04-14T07:31:08.211Z</time></trkpt><trkpt lat="51.5114591" lon="-0.1546789"><ele>35.0</ele><time>2026-04-14T07:31:10.21Z</time></trkpt><trkpt lat="51.5114792" lon="-0.1545769"><ele>35.0</ele><time>2026-04-14T07:31:11.21Z</time></trkpt><trkpt lat="51.5115013" lon="-0.1544705"><ele>35.0</ele><time>2026-04-14T07:31:12.211Z</time></trkpt><trkpt lat="51.5115235" lon="-0.1543669"><ele>35.0</ele><time>2026-04-14T07:31:13.21Z</time></trkpt><trkpt lat="51.5115662" lon="-0.1541819"><ele>35.0</ele><time>2026-04-14T07:31:15.211Z</time></trkpt><trkpt lat="51.5116074" lon="-0.1540057"><ele>35.0</ele><time>2026-04-14T07:31:17.211Z</time></trkpt><trkpt lat="51.5116218" lon="-0.1539049"><ele>35.0</ele><time>2026-04-14T07:31:18.211Z</time></trkpt><trkpt lat="51.5116376" lon="-0.1537997"><ele>35.166666666666664</ele><time>2026-04-14T07:31:19.21Z</time></trkpt><trkpt lat="51.5116563" lon="-0.1536922"><ele>35.33333333333333</ele><time>2026-04-14T07:31:20.211Z</time></trkpt><trkpt lat="51.5116818" lon="-0.1535776"><ele>35.5</ele><time>2026-04-14T07:31:21.21Z</time></trkpt><trkpt lat="51.5117107" lon="-0.1534605"><ele>35.666666666666664</ele><time>2026-04-14T07:31:22.211Z</time></trkpt><trkpt lat="51.511739" lon="-0.1533385"><ele>35.833333333333336</ele><time>2026-04-14T07:31:23.211Z</time></trkpt><trkpt lat="51.5117683" lon="-0.1532126"><ele>36.0</ele><time>2026-04-14T07:31:24.211Z</time></trkpt><trkpt lat="51.5117995" lon="-0.1530895"><ele>36.0</ele><time>2026-04-14T07:31:25.211Z</time></trkpt><trkpt lat="51.5118312" lon="-0.1529547"><ele>36.0</ele><time>2026-04-14T07:31:26.211Z</time></trkpt><trkpt lat="51.5118682" lon="-0.1528183"><ele>36.0</ele><time>2026-04-14T07:31:27.21Z</time></trkpt><trkpt lat="51.5119063" lon="-0.1526715"><ele>36.0</ele><time>2026-04-14T07:31:28.211Z</time></trkpt><trkpt lat="51.5119471" lon="-0.1524935"><ele>36.0</ele><time>2026-04-14T07:31:29.21Z</time></trkpt><trkpt lat="51.5119862" lon="-0.1523109"><ele>36.0</ele><time>2026-04-14T07:31:30.211Z</time></trkpt><trkpt lat="51.5120277" lon="-0.1521316"><ele>36.0</ele><time>2026-04-14T07:31:31.211Z</time></trkpt><trkpt lat="51.5120717" lon="-0.1519561"><ele>36.0</ele><time>2026-04-14T07:31:32.211Z</time></trkpt><trkpt lat="51.5121131" lon="-0.1517861"><ele>36.0</ele><time>2026-04-14T07:31:33.211Z</time></trkpt><trkpt lat="51.5121537" lon="-0.1516179"><ele>35.8</ele><time>2026-04-14T07:31:34.21Z</time></trkpt><trkpt lat="51.5121886" lon="-0.151456"><ele>35.6</ele><time>2026-04-14T07:31:35.211Z</time></trkpt><trkpt lat="51.5122215" lon="-0.1512977"><ele>35.4</ele><time>2026-04-14T07:31:36.211Z</time></trkpt><trkpt lat="51.512252" lon="-0.151137"><ele>35.2</ele><time>2026-04-14T07:31:37.211Z</time></trkpt><trkpt lat="51.5122853" lon="-0.1509786"><ele>35.0</ele><time>2026-04-14T07:31:38.21Z</time></trkpt><trkpt lat="51.5123172" lon="-0.150834"><ele>35.0</ele><time>2026-04-14T07:31:39.211Z</time></trkpt><trkpt lat="51.5123431" lon="-0.1507136"><ele>35.0</ele><time>2026-04-14T07:31:40.21Z</time></trkpt><trkpt lat="51.512386" lon="-0.1505728"><ele>35.0</ele><time>2026-04-14T07:31:42.21Z</time></trkpt><trkpt lat="51.5124623" lon="-0.1505322"><ele>35.0</ele><time>2026-04-14T07:31:44.211Z</time></trkpt><trkpt lat="51.5125654" lon="-0.1505686"><ele>35.0</ele><time>2026-04-14T07:31:46.211Z</time></trkpt><trkpt lat="51.5126382" lon="-0.1506126"><ele>35.0</ele><time>2026-04-14T07:31:47.211Z</time></trkpt><trkpt lat="51.512732" lon="-0.1506597"><ele>35.0</ele><time>2026-04-14T07:31:48.211Z</time></trkpt><trkpt lat="51.5128369" lon="-0.1507165"><ele>35.0</ele><time>2026-04-14T07:31:49.21Z</time></trkpt><trkpt lat="51.512936" lon="-0.1507703"><ele>35.0</ele><time>2026-04-14T07:31:50.212Z</time></trkpt><trkpt lat="51.5130357" lon="-0.1508189"><ele>35.0</ele><time>2026-04-14T07:31:51.211Z</time></trkpt><trkpt lat="51.5131387" lon="-0.1508737"><ele>35.0</ele><time>2026-04-14T07:31:52.211Z</time></trkpt><trkpt lat="51.5132413" lon="-0.1509231"><ele>34.0</ele><time>2026-04-14T07:31:53.212Z</time></trkpt><trkpt lat="51.5133422" lon="-0.1509685"><ele>33.0</ele><time>2026-04-14T07:31:54.211Z</time></trkpt><trkpt lat="51.5134405" lon="-0.1510082"><ele>32.0</ele><time>2026-04-14T07:31:55.211Z</time></trkpt><trkpt lat="51.5135415" lon="-0.1510492"><ele>31.0</ele><time>2026-04-14T07:31:56.211Z</time></trkpt><trkpt lat="51.5136371" lon="-0.1510917"><ele>30.0</ele><time>2026-04-14T07:31:57.211Z</time></trkpt><trkpt lat="51.5137232" lon="-0.1511349"><ele>30.833333333333332</ele><time>2026-04-14T07:31:58.211Z</time></trkpt><trkpt lat="51.5138046" lon="-0.1511704"><ele>31.666666666666664</ele><time>2026-04-14T07:31:59.211Z</time></trkpt><trkpt lat="51.5138669" lon="-0.1512036"><ele>32.5</ele><time>2026-04-14T07:32:00.212Z</time></trkpt><trkpt lat="51.5139265" lon="-0.1512376"><ele>33.33333333333333</ele><time>2026-04-14T07:32:01.211Z</time></trkpt><trkpt lat="51.5140006" lon="-0.1512808"><ele>34.166666666666664</ele><time>2026-04-14T07:32:03.211Z</time></trkpt><trkpt lat="51.5140703" lon="-0.1513233"><ele>35.0</ele><time>2026-04-14T07:32:28.211Z</time></trkpt><trkpt lat="51.5141765" lon="-0.1513679"><ele>35.0</ele><time>2026-04-14T07:32:30.212Z</time></trkpt><trkpt lat="51.5142421" lon="-0.1513941"><ele>35.0</ele><time>2026-04-14T07:32:31.212Z</time></trkpt><trkpt lat="51.5143121" lon="-0.1514228"><ele>35.0</ele><time>2026-04-14T07:32:32.212Z</time></trkpt><trkpt lat="51.5143818" lon="-0.1514534"><ele>35.0</ele><time>2026-04-14T07:32:33.211Z</time></trkpt><trkpt lat="51.5144498" lon="-0.151488"><ele>35.0</ele><time>2026-04-14T07:32:34.212Z</time></trkpt><trkpt lat="51.5145184" lon="-0.1515239"><ele>35.0</ele><time>2026-04-14T07:32:35.211Z</time></trkpt><trkpt lat="51.514583" lon="-0.1515639"><ele>35.0</ele><time>2026-04-14T07:32:36.212Z</time></trkpt><trkpt lat="51.5146764" lon="-0.1516156"><ele>37.0</ele><time>2026-04-14T07:32:38.212Z</time></trkpt><trkpt lat="51.514744" lon="-0.1516781"><ele>37.0</ele><time>2026-04-14T07:32:40.212Z</time></trkpt><trkpt lat="51.5148104" lon="-0.1517035"><ele>37.0</ele><time>2026-04-14T07:32:42.211Z</time></trkpt><trkpt lat="51.5148734" lon="-0.1515623"><ele>37.0</ele><time>2026-04-14T07:32:46.212Z</time></trkpt><trkpt lat="51.5148981" lon="-0.1514503"><ele>34.0</ele><time>2026-04-14T07:32:48.211Z</time></trkpt></trkseg></trk></gpx>